Time,TemperatureF,DewpointF,PressureIn,WindDirection,WindDirectionDegrees,WindSpeedMPH,WindSpeedGustMPH,Humidity,HourlyPrecipIn,Conditions,Clouds,dailyrainin,SoftwareType,DateUTC
2013-03-13 00:00:00,42.2,21.9,30.36,NW,315,1.0,2.0,44,0.00,,---,0.00,VWS V14.00,2013-03-13 05:00:00,
2013-03-13 00:01:00,42.2,21.3,30.37,NW,315,2.0,5.0,43,0.00,,---,0.00,VWS V14.00,2013-03-13 05:01:00,
2013-03-13 00:02:00,42.1,21.8,30.36,NW,315,2.0,3.0,44,0.00,,---,0.00,VWS V14.00,2013-03-13 05:02:00,
2013-03-13 00:03:00,42.1,21.8,30.36,NW,315,2.0,3.0,44,0.00,,---,0.00,VWS V14.00,2013-03-13 05:03:00,
2013-03-13 00:04:00,41.9,21.6,30.36,NW,315,4.0,6.0,44,0.00,,---,0.00,VWS V14.00,2013-03-13 05:04:00,
2013-03-13 00:05:00,41.6,21.3,30.36,NW,315,4.0,4.0,44,0.00,,---,0.00,VWS V14.00,2013-03-13 05:05:00,
2013-03-13 00:06:00,41.6,21.3,30.36,NW,315,3.0,5.0,44,0.00,,---,0.00,VWS V14.00,2013-03-13 05:06:00,
2013-03-13 00:07:00,41.5,21.2,30.36,NW,315,3.0,4.0,44,0.00,,---,0.00,VWS V14.00,2013-03-13 05:07:00,
2013-03-13 00:08:00,41.5,21.2,30.36,NW,315,5.0,5.0,44,0.00,,---,0.00,VWS V14.00,2013-03-13 05:08:00,
2013-03-13 00:09:00,41.3,21.0,30.36,NW,315,3.0,5.0,44,0.00,,---,0.00,VWS V14.00,2013-03-13 05:09:00,
2013-03-13 00:10:00,41.2,21.0,30.36,NW,315,0.0,5.0,44,0.00,,---,0.00,VWS V14.00,2013-03-13 05:10:00,
2013-03-13 00:11:00,41.2,21.0,30.36,NW,315,5.0,5.0,44,0.00,,---,0.00,VWS V14.00,2013-03-13 05:11:00,
2013-03-13 00:12:00,41.2,21.0,30.36,NW,315,2.0,5.0,44,0.00,,---,0.00,VWS V14.00,2013-03-13 05:12:00,
2013-03-13 00:13:00,41.1,20.9,30.36,NW,315,1.0,3.0,44,0.00,,---,0.00,VWS V14.00,2013-03-13 05:13:00,
2013-03-13 00:14:00,41.1,20.9,30.36,NW,315,1.0,3.0,44,0.00,,---,0.00,VWS V14.00,2013-03-13 05:14:00,
2013-03-13 00:15:00,40.9,21.2,30.36,NW,315,0.0,1.0,45,0.00,,---,0.00,VWS V14.00,2013-03-13 05:15:00,
2013-03-13 00:16:00,40.9,21.2,30.36,NW,315,1.0,2.0,45,0.00,,---,0.00,VWS V14.00,2013-03-13 05:16:00,
2013-03-13 00:17:00,40.8,21.1,30.36,NW,315,0.0,1.0,45,0.00,,---,0.00,VWS V14.00,2013-03-13 05:17:00,
2013-03-13 00:18:00,40.8,21.1,30.36,NW,315,0.0,0.0,45,0.00,,---,0.00,VWS V14.00,2013-03-13 05:18:00,
2013-03-13 00:19:00,40.6,20.9,30.36,NW,315,0.0,0.0,45,0.00,,---,0.00,VWS V14.00,2013-03-13 05:19:00,
2013-03-13 00:20:00,40.5,20.9,30.36,NW,315,4.0,4.0,45,0.00,,---,0.00,VWS V14.00,2013-03-13 05:20:00,
2013-03-13 00:21:00,40.5,20.9,30.36,NW,315,1.0,1.0,45,0.00,,---,0.00,VWS V14.00,2013-03-13 05:21:00,
2013-03-13 00:22:00,40.3,21.2,30.36,NW,315,1.0,4.0,46,0.00,,---,0.00,VWS V14.00,2013-03-13 05:22:00,
2013-03-13 00:23:00,40.2,21.1,30.37,NW,315,0.0,2.0,46,0.00,,---,0.00,VWS V14.00,2013-03-13 05:23:00,
2013-03-13 00:24:00,40.2,22.1,30.37,NW,315,0.0,0.0,48,0.00,,---,0.00,VWS V14.00,2013-03-13 05:24:00,
2013-03-13 00:25:00,40.1,22.0,30.37,NW,315,0.0,0.0,48,0.00,,---,0.00,VWS V14.00,2013-03-13 05:25:00,
2013-03-13 00:26:00,40.1,22.0,30.37,NW,315,0.0,2.0,48,0.00,,---,0.00,VWS V14.00,2013-03-13 05:26:00,
2013-03-13 00:27:00,40.1,21.5,30.37,NW,315,0.0,1.0,47,0.00,,---,0.00,VWS V14.00,2013-03-13 05:27:00,
2013-03-13 00:28:00,39.9,21.3,30.37,NW,315,1.0,1.0,47,0.00,,---,0.00,VWS V14.00,2013-03-13 05:28:00,
2013-03-13 00:29:00,39.9,21.3,30.37,NW,315,2.0,2.0,47,0.00,,---,0.00,VWS V14.00,2013-03-13 05:29:00,
2013-03-13 00:30:00,39.8,21.7,30.37,NW,315,1.0,1.0,48,0.00,,---,0.00,VWS V14.00,2013-03-13 05:30:00,
2013-03-13 00:31:00,39.8,21.2,30.37,NW,315,1.0,3.0,47,0.00,,---,0.00,VWS V14.00,2013-03-13 05:31:00,
2013-03-13 00:32:00,39.6,21.5,30.37,NW,315,0.0,1.0,48,0.00,,---,0.00,VWS V14.00,2013-03-13 05:32:00,
2013-03-13 00:33:00,39.6,21.5,30.37,NW,315,0.0,0.0,48,0.00,,---,0.00,VWS V14.00,2013-03-13 05:33:00,
2013-03-13 00:34:00,39.6,21.5,30.37,NW,315,0.0,0.0,48,0.00,,---,0.00,VWS V14.00,2013-03-13 05:34:00,
2013-03-13 00:35:00,39.5,21.5,30.37,NW,315,1.0,1.0,48,0.00,,---,0.00,VWS V14.00,2013-03-13 05:35:00,
2013-03-13 00:36:00,39.5,21.5,30.37,NW,315,0.0,0.0,48,0.00,,---,0.00,VWS V14.00,2013-03-13 05:36:00,
2013-03-13 00:37:00,39.5,21.5,30.37,NW,315,2.0,2.0,48,0.00,,---,0.00,VWS V14.00,2013-03-13 05:37:00,
2013-03-13 00:38:00,39.3,21.3,30.37,NW,315,2.0,4.0,48,0.00,,---,0.00,VWS V14.00,2013-03-13 05:38:00,
2013-03-13 00:39:00,39.3,21.3,30.37,NW,315,1.0,2.0,48,0.00,,---,0.00,VWS V14.00,2013-03-13 05:39:00,
2013-03-13 00:40:00,39.2,21.7,30.37,NW,315,0.0,0.0,49,0.00,,---,0.00,VWS V14.00,2013-03-13 05:40:00,
2013-03-13 00:41:00,39.2,21.7,30.37,NW,315,0.0,0.0,49,0.00,,---,0.00,VWS V14.00,2013-03-13 05:41:00,
2013-03-13 00:42:00,39.2,21.7,30.37,NW,315,0.0,0.0,49,0.00,,---,0.00,VWS V14.00,2013-03-13 05:42:00,
2013-03-13 00:43:00,39.2,22.1,30.37,NW,315,0.0,0.0,50,0.00,,---,0.00,VWS V14.00,2013-03-13 05:43:00,
2013-03-13 00:44:00,39.2,21.7,30.37,NW,315,0.0,0.0,49,0.00,,---,0.00,VWS V14.00,2013-03-13 05:44:00,
2013-03-13 00:45:00,39.1,22.0,30.37,NW,315,0.0,0.0,50,0.00,,---,0.00,VWS V14.00,2013-03-13 05:45:00,
2013-03-13 00:46:00,39.1,22.0,30.37,NW,315,0.0,0.0,50,0.00,,---,0.00,VWS V14.00,2013-03-13 05:46:00,
2013-03-13 00:47:00,39.1,22.0,30.37,NW,315,0.0,0.0,50,0.00,,---,0.00,VWS V14.00,2013-03-13 05:47:00,
2013-03-13 00:48:00,39.1,22.0,30.37,NW,315,0.0,0.0,50,0.00,,---,0.00,VWS V14.00,2013-03-13 05:48:00,
2013-03-13 00:49:00,38.9,22.3,30.37,NW,315,0.0,0.0,51,0.00,,---,0.00,VWS V14.00,2013-03-13 05:49:00,
2013-03-13 00:50:00,38.9,21.9,30.37,NW,315,0.0,0.0,50,0.00,,---,0.00,VWS V14.00,2013-03-13 05:50:00,
2013-03-13 00:51:00,38.9,21.9,30.37,NW,315,0.0,0.0,50,0.00,,---,0.00,VWS V14.00,2013-03-13 05:51:00,
2013-03-13 00:52:00,38.8,21.8,30.37,NW,315,0.0,0.0,50,0.00,,---,0.00,VWS V14.00,2013-03-13 05:52:00,
2013-03-13 00:53:00,38.8,22.2,30.37,NW,315,0.0,0.0,51,0.00,,---,0.00,VWS V14.00,2013-03-13 05:53:00,
2013-03-13 00:54:00,38.8,22.2,30.37,NW,315,0.0,0.0,51,0.00,,---,0.00,VWS V14.00,2013-03-13 05:54:00,
2013-03-13 00:55:00,38.6,22.0,30.37,NW,315,0.0,0.0,51,0.00,,---,0.00,VWS V14.00,2013-03-13 05:55:00,
2013-03-13 00:56:00,38.6,22.0,30.37,NW,315,0.0,0.0,51,0.00,,---,0.00,VWS V14.00,2013-03-13 05:56:00,
2013-03-13 00:57:00,38.6,22.0,30.37,NW,315,0.0,0.0,51,0.00,,---,0.00,VWS V14.00,2013-03-13 05:57:00,
2013-03-13 00:58:00,38.5,22.0,30.37,NW,315,0.0,0.0,51,0.00,,---,0.00,VWS V14.00,2013-03-13 05:58:00,
2013-03-13 00:59:00,38.5,22.0,30.37,NW,315,0.0,0.0,51,0.00,,---,0.00,VWS V14.00,2013-03-13 05:59:00,
2013-03-13 01:00:00,38.3,21.8,30.37,NW,315,0.0,0.0,51,0.00,,---,0.00,VWS V14.00,2013-03-13 06:00:00,
2013-03-13 01:01:00,38.3,21.8,30.37,NW,315,0.0,0.0,51,0.00,,---,0.00,VWS V14.00,2013-03-13 06:01:00,
2013-03-13 01:02:00,38.2,21.7,30.37,NW,315,0.0,0.0,51,0.00,,---,0.00,VWS V14.00,2013-03-13 06:02:00,
2013-03-13 01:03:00,38.2,21.7,30.37,NW,315,0.0,0.0,51,0.00,,---,0.00,VWS V14.00,2013-03-13 06:03:00,
2013-03-13 01:04:00,38.0,21.5,30.37,NW,315,0.0,0.0,51,0.00,,---,0.00,VWS V14.00,2013-03-13 06:04:00,
2013-03-13 01:05:00,38.0,21.5,30.37,NW,315,0.0,0.0,51,0.00,,---,0.00,VWS V14.00,2013-03-13 06:05:00,
2013-03-13 01:06:00,38.0,21.5,30.37,NW,315,0.0,0.0,51,0.00,,---,0.00,VWS V14.00,2013-03-13 06:06:00,
2013-03-13 01:07:00,37.9,21.4,30.37,NW,315,0.0,0.0,51,0.00,,---,0.00,VWS V14.00,2013-03-13 06:07:00,
2013-03-13 01:08:00,37.9,21.9,30.37,NW,315,0.0,0.0,52,0.00,,---,0.00,VWS V14.00,2013-03-13 06:08:00,
2013-03-13 01:09:00,37.9,21.9,30.37,NW,315,0.0,0.0,52,0.00,,---,0.00,VWS V14.00,2013-03-13 06:09:00,
2013-03-13 01:10:00,37.8,21.3,30.37,NW,315,0.0,0.0,51,0.00,,---,0.00,VWS V14.00,2013-03-13 06:10:00,
2013-03-13 01:11:00,37.8,21.3,30.37,NW,315,0.0,0.0,51,0.00,,---,0.00,VWS V14.00,2013-03-13 06:11:00,
2013-03-13 01:12:00,37.8,21.8,30.37,NW,315,0.0,0.0,52,0.00,,---,0.00,VWS V14.00,2013-03-13 06:12:00,
2013-03-13 01:13:00,37.8,21.8,30.37,NW,315,0.0,0.0,52,0.00,,---,0.00,VWS V14.00,2013-03-13 06:13:00,
2013-03-13 01:14:00,37.6,22.0,30.37,NW,315,0.0,0.0,53,0.00,,---,0.00,VWS V14.00,2013-03-13 06:14:00,
2013-03-13 01:15:00,37.6,22.5,30.37,NW,315,0.0,0.0,54,0.00,,---,0.00,VWS V14.00,2013-03-13 06:15:00,
2013-03-13 01:16:00,37.6,22.5,30.37,NW,315,0.0,0.0,54,0.00,,---,0.00,VWS V14.00,2013-03-13 06:16:00,
2013-03-13 01:17:00,37.5,22.4,30.37,NW,315,0.0,0.0,54,0.00,,---,0.00,VWS V14.00,2013-03-13 06:17:00,
2013-03-13 01:18:00,37.5,22.8,30.37,NW,315,0.0,0.0,55,0.00,,---,0.00,VWS V14.00,2013-03-13 06:18:00,
2013-03-13 01:19:00,37.5,22.4,30.37,NW,315,0.0,0.0,54,0.00,,---,0.00,VWS V14.00,2013-03-13 06:19:00,
2013-03-13 01:20:00,37.3,22.6,30.37,NW,315,0.0,0.0,55,0.00,,---,0.00,VWS V14.00,2013-03-13 06:20:00,
2013-03-13 01:21:00,37.3,22.6,30.37,NW,315,0.0,0.0,55,0.00,,---,0.00,VWS V14.00,2013-03-13 06:21:00,
2013-03-13 01:22:00,37.2,22.5,30.37,NW,315,0.0,0.0,55,0.00,,---,0.00,VWS V14.00,2013-03-13 06:22:00,
2013-03-13 01:23:00,37.2,22.5,30.37,NW,315,0.0,0.0,55,0.00,,---,0.00,VWS V14.00,2013-03-13 06:23:00,
2013-03-13 01:24:00,37.0,22.4,30.37,NW,315,0.0,0.0,55,0.00,,---,0.00,VWS V14.00,2013-03-13 06:24:00,
2013-03-13 01:25:00,36.9,22.3,30.37,NW,315,0.0,0.0,55,0.00,,---,0.00,VWS V14.00,2013-03-13 06:25:00,
2013-03-13 01:26:00,36.9,22.3,30.37,NW,315,0.0,0.0,55,0.00,,---,0.00,VWS V14.00,2013-03-13 06:26:00,
2013-03-13 01:27:00,36.9,21.8,30.37,NW,315,0.0,0.0,54,0.00,,---,0.00,VWS V14.00,2013-03-13 06:27:00,
2013-03-13 01:28:00,36.8,22.2,30.37,NW,315,0.0,0.0,55,0.00,,---,0.00,VWS V14.00,2013-03-13 06:28:00,
2013-03-13 01:29:00,36.6,22.0,30.37,NW,315,0.0,0.0,55,0.00,,---,0.00,VWS V14.00,2013-03-13 06:29:00,
2013-03-13 01:30:00,36.6,22.4,30.37,NW,315,0.0,0.0,56,0.00,,---,0.00,VWS V14.00,2013-03-13 06:30:00,
2013-03-13 01:31:00,36.6,22.4,30.37,NW,315,0.0,0.0,56,0.00,,---,0.00,VWS V14.00,2013-03-13 06:31:00,
2013-03-13 01:32:00,36.6,22.8,30.37,NW,315,0.0,0.0,57,0.00,,---,0.00,VWS V14.00,2013-03-13 06:32:00,
2013-03-13 01:33:00,36.5,23.1,30.37,NW,315,0.0,0.0,58,0.00,,---,0.00,VWS V14.00,2013-03-13 06:33:00,
2013-03-13 01:34:00,36.5,22.7,30.37,NW,315,0.0,0.0,57,0.00,,---,0.00,VWS V14.00,2013-03-13 06:34:00,
2013-03-13 01:35:00,36.3,23.0,30.38,NW,315,0.0,0.0,58,0.00,,---,0.00,VWS V14.00,2013-03-13 06:35:00,
2013-03-13 01:36:00,36.3,23.0,30.38,NW,315,0.0,0.0,58,0.00,,---,0.00,VWS V14.00,2013-03-13 06:36:00,
2013-03-13 01:37:00,36.3,23.0,30.38,NW,315,0.0,0.0,58,0.00,,---,0.00,VWS V14.00,2013-03-13 06:37:00,
2013-03-13 01:38:00,36.2,22.9,30.38,NW,315,0.0,0.0,58,0.00,,---,0.00,VWS V14.00,2013-03-13 06:38:00,
2013-03-13 01:39:00,36.2,22.5,30.38,NW,315,0.0,0.0,57,0.00,,---,0.00,VWS V14.00,2013-03-13 06:39:00,
2013-03-13 01:40:00,36.0,22.3,30.38,NW,315,0.0,0.0,57,0.00,,---,0.00,VWS V14.00,2013-03-13 06:40:00,
2013-03-13 01:41:00,36.0,22.3,30.38,NW,315,0.0,0.0,57,0.00,,---,0.00,VWS V14.00,2013-03-13 06:41:00,
2013-03-13 01:42:00,36.0,22.7,30.38,NW,315,0.0,0.0,58,0.00,,---,0.00,VWS V14.00,2013-03-13 06:42:00,
2013-03-13 01:43:00,35.9,22.6,30.38,NW,315,0.0,0.0,58,0.00,,---,0.00,VWS V14.00,2013-03-13 06:43:00,
2013-03-13 01:44:00,35.9,22.6,30.38,NW,315,0.0,0.0,58,0.00,,---,0.00,VWS V14.00,2013-03-13 06:44:00,
2013-03-13 01:45:00,35.8,22.5,30.38,NW,315,0.0,0.0,58,0.00,,---,0.00,VWS V14.00,2013-03-13 06:45:00,
2013-03-13 01:46:00,35.8,22.5,30.38,NW,315,0.0,0.0,58,0.00,,---,0.00,VWS V14.00,2013-03-13 06:46:00,
2013-03-13 01:47:00,35.8,22.5,30.38,NW,315,0.0,0.0,58,0.00,,---,0.00,VWS V14.00,2013-03-13 06:47:00,
2013-03-13 01:48:00,35.6,22.7,30.38,NW,315,0.0,0.0,59,0.00,,---,0.00,VWS V14.00,2013-03-13 06:48:00,
2013-03-13 01:49:00,35.6,23.1,30.38,NW,315,0.0,0.0,60,0.00,,---,0.00,VWS V14.00,2013-03-13 06:49:00,
2013-03-13 01:50:00,35.5,23.4,30.38,NW,315,0.0,0.0,61,0.00,,---,0.00,VWS V14.00,2013-03-13 06:50:00,
2013-03-13 01:51:00,35.5,23.4,30.38,NW,315,0.0,0.0,61,0.00,,---,0.00,VWS V14.00,2013-03-13 06:51:00,
2013-03-13 01:52:00,35.5,23.4,30.38,NW,315,0.0,0.0,61,0.00,,---,0.00,VWS V14.00,2013-03-13 06:52:00,
2013-03-13 01:53:00,35.3,23.6,30.38,NW,315,0.0,0.0,62,0.00,,---,0.00,VWS V14.00,2013-03-13 06:53:00,
2013-03-13 01:54:00,35.3,23.6,30.38,NW,315,0.0,0.0,62,0.00,,---,0.00,VWS V14.00,2013-03-13 06:54:00,
2013-03-13 01:55:00,35.2,23.9,30.38,NW,315,0.0,0.0,63,0.00,,---,0.00,VWS V14.00,2013-03-13 06:55:00,
2013-03-13 01:56:00,35.2,23.9,30.38,NW,315,0.0,0.0,63,0.00,,---,0.00,VWS V14.00,2013-03-13 06:56:00,
2013-03-13 01:57:00,35.0,23.7,30.38,NW,315,0.0,0.0,63,0.00,,---,0.00,VWS V14.00,2013-03-13 06:57:00,
2013-03-13 01:58:00,35.0,23.7,30.38,NW,315,0.0,0.0,63,0.00,,---,0.00,VWS V14.00,2013-03-13 06:58:00,
2013-03-13 01:59:00,34.9,23.6,30.38,NW,315,0.0,0.0,63,0.00,,---,0.00,VWS V14.00,2013-03-13 06:59:00,
2013-03-13 02:00:00,34.7,23.8,30.37,NW,315,0.0,0.0,64,0.00,,---,0.00,VWS V14.00,2013-03-13 07:00:00,
2013-03-13 02:01:00,34.7,23.8,30.38,NW,315,0.0,0.0,64,0.00,,---,0.00,VWS V14.00,2013-03-13 07:01:00,
2013-03-13 02:02:00,34.7,23.8,30.37,NW,315,0.0,0.0,64,0.00,,---,0.00,VWS V14.00,2013-03-13 07:02:00,
2013-03-13 02:03:00,34.6,23.7,30.37,NW,315,0.0,0.0,64,0.00,,---,0.00,VWS V14.00,2013-03-13 07:03:00,
2013-03-13 02:04:00,34.4,23.5,30.38,NW,315,0.0,0.0,64,0.00,,---,0.00,VWS V14.00,2013-03-13 07:04:00,
2013-03-13 02:05:00,34.3,23.8,30.38,NW,315,0.0,0.0,65,0.00,,---,0.00,VWS V14.00,2013-03-13 07:05:00,
2013-03-13 02:06:00,34.3,23.8,30.38,NW,315,0.0,0.0,65,0.00,,---,0.00,VWS V14.00,2013-03-13 07:06:00,
2013-03-13 02:07:00,34.1,23.6,30.38,NW,315,0.0,0.0,65,0.00,,---,0.00,VWS V14.00,2013-03-13 07:07:00,
2013-03-13 02:08:00,34.1,23.6,30.38,NW,315,0.0,0.0,65,0.00,,---,0.00,VWS V14.00,2013-03-13 07:08:00,
2013-03-13 02:09:00,34.0,23.5,30.38,NW,315,0.0,0.0,65,0.00,,---,0.00,VWS V14.00,2013-03-13 07:09:00,
2013-03-13 02:10:00,33.8,23.7,30.38,NW,315,0.0,0.0,66,0.00,,---,0.00,VWS V14.00,2013-03-13 07:10:00,
2013-03-13 02:11:00,33.8,23.7,30.38,NW,315,0.0,0.0,66,0.00,,---,0.00,VWS V14.00,2013-03-13 07:11:00,
2013-03-13 02:12:00,33.8,23.7,30.38,NW,315,0.0,0.0,66,0.00,,---,0.00,VWS V14.00,2013-03-13 07:12:00,
2013-03-13 02:13:00,33.8,24.0,30.38,NW,315,0.0,0.0,67,0.00,,---,0.00,VWS V14.00,2013-03-13 07:13:00,
2013-03-13 02:14:00,33.7,23.9,30.38,NW,315,0.0,0.0,67,0.00,,---,0.00,VWS V14.00,2013-03-13 07:14:00,
2013-03-13 02:15:00,33.7,23.9,30.38,NW,315,0.0,0.0,67,0.00,,---,0.00,VWS V14.00,2013-03-13 07:15:00,
2013-03-13 02:16:00,33.7,23.9,30.38,NW,315,0.0,0.0,67,0.00,,---,0.00,VWS V14.00,2013-03-13 07:16:00,
2013-03-13 02:17:00,33.5,23.7,30.38,NW,315,0.0,0.0,67,0.00,,---,0.00,VWS V14.00,2013-03-13 07:17:00,
2013-03-13 02:18:00,33.5,24.1,30.38,NW,315,0.0,0.0,68,0.00,,---,0.00,VWS V14.00,2013-03-13 07:18:00,
2013-03-13 02:19:00,33.5,24.1,30.38,NW,315,0.0,0.0,68,0.00,,---,0.00,VWS V14.00,2013-03-13 07:19:00,
2013-03-13 02:20:00,33.4,24.0,30.38,NW,315,0.0,0.0,68,0.00,,---,0.00,VWS V14.00,2013-03-13 07:20:00,
2013-03-13 02:21:00,33.4,24.0,30.39,NW,315,0.0,0.0,68,0.00,,---,0.00,VWS V14.00,2013-03-13 07:21:00,
2013-03-13 02:22:00,33.2,23.8,30.38,NW,315,0.0,0.0,68,0.00,,---,0.00,VWS V14.00,2013-03-13 07:22:00,
2013-03-13 02:23:00,33.2,23.8,30.38,NW,315,0.0,0.0,68,0.00,,---,0.00,VWS V14.00,2013-03-13 07:23:00,
2013-03-13 02:24:00,33.2,23.8,30.39,NW,315,0.0,1.0,68,0.00,,---,0.00,VWS V14.00,2013-03-13 07:24:00,
2013-03-13 02:25:00,33.1,24.0,30.39,NW,315,0.0,0.0,69,0.00,,---,0.00,VWS V14.00,2013-03-13 07:25:00,
2013-03-13 02:26:00,33.1,24.0,30.39,NW,315,0.0,0.0,69,0.00,,---,0.00,VWS V14.00,2013-03-13 07:26:00,
2013-03-13 02:27:00,32.9,23.9,30.39,NW,315,0.0,0.0,69,0.00,,---,0.00,VWS V14.00,2013-03-13 07:27:00,
2013-03-13 02:28:00,32.9,23.9,30.39,NW,315,0.0,0.0,69,0.00,,---,0.00,VWS V14.00,2013-03-13 07:28:00,
2013-03-13 02:29:00,32.9,23.9,30.39,NW,315,0.0,0.0,69,0.00,,---,0.00,VWS V14.00,2013-03-13 07:29:00,
2013-03-13 02:30:00,32.8,23.8,30.39,NW,315,0.0,0.0,69,0.00,,---,0.00,VWS V14.00,2013-03-13 07:30:00,
2013-03-13 02:31:00,32.8,23.8,30.39,NW,315,0.0,0.0,69,0.00,,---,0.00,VWS V14.00,2013-03-13 07:31:00,
2013-03-13 02:32:00,32.7,23.7,30.39,NW,315,0.0,0.0,69,0.00,,---,0.00,VWS V14.00,2013-03-13 07:32:00,
2013-03-13 02:33:00,32.7,23.7,30.39,NW,315,0.0,0.0,69,0.00,,---,0.00,VWS V14.00,2013-03-13 07:33:00,
2013-03-13 02:34:00,32.7,23.7,30.39,NW,315,0.0,0.0,69,0.00,,---,0.00,VWS V14.00,2013-03-13 07:34:00,
2013-03-13 02:35:00,32.4,23.4,30.39,NW,315,0.0,0.0,69,0.00,,---,0.00,VWS V14.00,2013-03-13 07:35:00,
2013-03-13 02:36:00,32.5,23.5,30.39,NW,315,0.0,0.0,69,0.00,,---,0.00,VWS V14.00,2013-03-13 07:36:00,
2013-03-13 02:37:00,32.4,23.4,30.39,NW,315,0.0,0.0,69,0.00,,---,0.00,VWS V14.00,2013-03-13 07:37:00,
2013-03-13 02:38:00,32.4,23.4,30.39,NW,315,0.0,0.0,69,0.00,,---,0.00,VWS V14.00,2013-03-13 07:38:00,
2013-03-13 02:39:00,32.4,23.7,30.39,NW,315,0.0,0.0,70,0.00,,---,0.00,VWS V14.00,2013-03-13 07:39:00,
2013-03-13 02:40:00,32.2,23.5,30.39,NW,315,0.0,0.0,70,0.00,,---,0.00,VWS V14.00,2013-03-13 07:40:00,
2013-03-13 02:41:00,32.2,23.5,30.39,NW,315,0.0,0.0,70,0.00,,---,0.00,VWS V14.00,2013-03-13 07:41:00,
2013-03-13 02:42:00,32.2,23.5,30.39,NW,315,0.0,0.0,70,0.00,,---,0.00,VWS V14.00,2013-03-13 07:42:00,
2013-03-13 02:43:00,32.2,23.5,30.39,NW,315,0.0,0.0,70,0.00,,---,0.00,VWS V14.00,2013-03-13 07:43:00,
2013-03-13 02:44:00,32.1,23.4,30.39,NW,315,0.0,0.0,70,0.00,,---,0.00,VWS V14.00,2013-03-13 07:44:00,
2013-03-13 02:45:00,31.9,23.2,30.39,NW,315,0.0,0.0,70,0.00,,---,0.00,VWS V14.00,2013-03-13 07:45:00,
2013-03-13 02:46:00,32.1,23.4,30.39,NW,315,0.0,0.0,70,0.00,,---,0.00,VWS V14.00,2013-03-13 07:46:00,
2013-03-13 02:47:00,31.9,23.2,30.39,NW,315,0.0,0.0,70,0.00,,---,0.00,VWS V14.00,2013-03-13 07:47:00,
2013-03-13 02:48:00,31.9,23.2,30.39,NW,315,0.0,0.0,70,0.00,,---,0.00,VWS V14.00,2013-03-13 07:48:00,
2013-03-13 02:49:00,31.9,23.2,30.39,NW,315,0.0,0.0,70,0.00,,---,0.00,VWS V14.00,2013-03-13 07:49:00,
2013-03-13 02:50:00,31.9,23.2,30.39,NW,315,0.0,0.0,70,0.00,,---,0.00,VWS V14.00,2013-03-13 07:50:00,
2013-03-13 02:51:00,31.9,23.2,30.39,NW,315,0.0,0.0,70,0.00,,---,0.00,VWS V14.00,2013-03-13 07:51:00,
2013-03-13 02:52:00,31.9,23.2,30.39,NW,315,0.0,0.0,70,0.00,,---,0.00,VWS V14.00,2013-03-13 07:52:00,
2013-03-13 02:53:00,31.8,23.1,30.39,NW,315,0.0,0.0,70,0.00,,---,0.00,VWS V14.00,2013-03-13 07:53:00,
2013-03-13 02:54:00,31.8,23.1,30.39,NW,315,0.0,0.0,70,0.00,,---,0.00,VWS V14.00,2013-03-13 07:54:00,
2013-03-13 02:55:00,31.8,23.1,30.39,NW,315,0.0,0.0,70,0.00,,---,0.00,VWS V14.00,2013-03-13 07:55:00,
2013-03-13 02:56:00,31.8,23.5,30.39,NW,315,0.0,0.0,71,0.00,,---,0.00,VWS V14.00,2013-03-13 07:56:00,
2013-03-13 02:57:00,31.8,23.1,30.39,NW,315,0.0,0.0,70,0.00,,---,0.00,VWS V14.00,2013-03-13 07:57:00,
2013-03-13 02:58:00,31.8,23.1,30.39,NW,315,0.0,0.0,70,0.00,,---,0.00,VWS V14.00,2013-03-13 07:58:00,
2013-03-13 02:59:00,31.6,23.3,30.39,NW,315,0.0,0.0,71,0.00,,---,0.00,VWS V14.00,2013-03-13 07:59:00,
2013-03-13 03:00:00,31.6,23.3,30.39,NW,315,0.0,0.0,71,0.00,,---,0.00,VWS V14.00,2013-03-13 08:00:00,
2013-03-13 03:01:00,31.6,23.3,30.39,NW,315,0.0,0.0,71,0.00,,---,0.00,VWS V14.00,2013-03-13 08:01:00,
2013-03-13 03:02:00,31.6,23.3,30.39,NW,315,0.0,0.0,71,0.00,,---,0.00,VWS V14.00,2013-03-13 08:02:00,
2013-03-13 03:03:00,31.5,23.2,30.39,NW,315,0.0,0.0,71,0.00,,---,0.00,VWS V14.00,2013-03-13 08:03:00,
2013-03-13 03:04:00,31.5,23.2,30.39,NW,315,0.0,0.0,71,0.00,,---,0.00,VWS V14.00,2013-03-13 08:04:00,
2013-03-13 03:05:00,31.3,23.0,30.39,NW,315,0.0,0.0,71,0.00,,---,0.00,VWS V14.00,2013-03-13 08:05:00,
2013-03-13 03:06:00,31.3,23.0,30.39,NW,315,0.0,0.0,71,0.00,,---,0.00,VWS V14.00,2013-03-13 08:06:00,
2013-03-13 03:07:00,31.3,23.3,30.39,NW,315,0.0,0.0,72,0.00,,---,0.00,VWS V14.00,2013-03-13 08:07:00,
2013-03-13 03:08:00,31.3,23.3,30.39,NW,315,0.0,0.0,72,0.00,,---,0.00,VWS V14.00,2013-03-13 08:08:00,
2013-03-13 03:09:00,31.2,23.2,30.39,NW,315,0.0,0.0,72,0.00,,---,0.00,VWS V14.00,2013-03-13 08:09:00,
2013-03-13 03:10:00,31.2,23.2,30.39,NW,315,0.0,0.0,72,0.00,,---,0.00,VWS V14.00,2013-03-13 08:10:00,
2013-03-13 03:11:00,31.2,23.2,30.39,NW,315,0.0,0.0,72,0.00,,---,0.00,VWS V14.00,2013-03-13 08:11:00,
2013-03-13 03:12:00,31.0,23.0,30.39,NW,315,0.0,0.0,72,0.00,,---,0.00,VWS V14.00,2013-03-13 08:12:00,
2013-03-13 03:13:00,31.0,23.0,30.39,NW,315,0.0,0.0,72,0.00,,---,0.00,VWS V14.00,2013-03-13 08:13:00,
2013-03-13 03:14:00,31.0,23.0,30.39,NW,315,0.0,0.0,72,0.00,,---,0.00,VWS V14.00,2013-03-13 08:14:00,
2013-03-13 03:15:00,30.9,23.0,30.39,NW,315,0.0,0.0,72,0.00,,---,0.00,VWS V14.00,2013-03-13 08:15:00,
2013-03-13 03:16:00,30.9,23.0,30.39,NW,315,0.0,0.0,72,0.00,,---,0.00,VWS V14.00,2013-03-13 08:16:00,
2013-03-13 03:17:00,30.9,23.0,30.39,NW,315,0.0,0.0,72,0.00,,---,0.00,VWS V14.00,2013-03-13 08:17:00,
2013-03-13 03:18:00,30.7,23.1,30.39,NW,315,0.0,0.0,73,0.00,,---,0.00,VWS V14.00,2013-03-13 08:18:00,
2013-03-13 03:19:00,30.7,23.1,30.39,NW,315,0.0,0.0,73,0.00,,---,0.00,VWS V14.00,2013-03-13 08:19:00,
2013-03-13 03:20:00,30.7,23.1,30.39,NW,315,0.0,0.0,73,0.00,,---,0.00,VWS V14.00,2013-03-13 08:20:00,
2013-03-13 03:21:00,30.7,23.1,30.39,NW,315,0.0,0.0,73,0.00,,---,0.00,VWS V14.00,2013-03-13 08:21:00,
2013-03-13 03:22:00,30.7,23.1,30.39,NW,315,0.0,0.0,73,0.00,,---,0.00,VWS V14.00,2013-03-13 08:22:00,
2013-03-13 03:23:00,30.6,23.0,30.39,NW,315,0.0,0.0,73,0.00,,---,0.00,VWS V14.00,2013-03-13 08:23:00,
2013-03-13 03:24:00,30.6,23.0,30.39,NW,315,0.0,0.0,73,0.00,,---,0.00,VWS V14.00,2013-03-13 08:24:00,
2013-03-13 03:25:00,30.6,22.7,30.39,NW,315,0.0,0.0,72,0.00,,---,0.00,VWS V14.00,2013-03-13 08:25:00,
2013-03-13 03:26:00,30.6,22.7,30.39,NW,315,0.0,0.0,72,0.00,,---,0.00,VWS V14.00,2013-03-13 08:26:00,
2013-03-13 03:27:00,30.6,22.7,30.39,NW,315,0.0,0.0,72,0.00,,---,0.00,VWS V14.00,2013-03-13 08:27:00,
2013-03-13 03:28:00,30.6,22.7,30.39,NW,315,0.0,0.0,72,0.00,,---,0.00,VWS V14.00,2013-03-13 08:28:00,
2013-03-13 03:29:00,30.6,22.7,30.39,NW,315,0.0,0.0,72,0.00,,---,0.00,VWS V14.00,2013-03-13 08:29:00,
2013-03-13 03:30:00,30.4,22.5,30.39,NW,315,0.0,0.0,72,0.00,,---,0.00,VWS V14.00,2013-03-13 08:30:00,
2013-03-13 03:31:00,30.4,22.5,30.39,NW,315,0.0,0.0,72,0.00,,---,0.00,VWS V14.00,2013-03-13 08:31:00,
2013-03-13 03:32:00,30.4,22.5,30.39,NW,315,0.0,0.0,72,0.00,,---,0.00,VWS V14.00,2013-03-13 08:32:00,
2013-03-13 03:33:00,30.4,22.8,30.39,NW,315,0.0,0.0,73,0.00,,---,0.00,VWS V14.00,2013-03-13 08:33:00,
2013-03-13 03:34:00,30.4,22.8,30.40,NW,315,0.0,0.0,73,0.00,,---,0.00,VWS V14.00,2013-03-13 08:34:00,
2013-03-13 03:35:00,30.3,22.7,30.40,NW,315,0.0,0.0,73,0.00,,---,0.00,VWS V14.00,2013-03-13 08:35:00,
2013-03-13 03:36:00,30.3,22.7,30.40,NW,315,0.0,0.0,73,0.00,,---,0.00,VWS V14.00,2013-03-13 08:36:00,
2013-03-13 03:37:00,30.3,22.7,30.40,NW,315,0.0,0.0,73,0.00,,---,0.00,VWS V14.00,2013-03-13 08:37:00,
2013-03-13 03:38:00,30.3,22.7,30.40,NW,315,0.0,0.0,73,0.00,,---,0.00,VWS V14.00,2013-03-13 08:38:00,
2013-03-13 03:39:00,30.3,23.0,30.40,NW,315,0.0,0.0,74,0.00,,---,0.00,VWS V14.00,2013-03-13 08:39:00,
2013-03-13 03:40:00,30.3,23.0,30.40,NW,315,0.0,0.0,74,0.00,,---,0.00,VWS V14.00,2013-03-13 08:40:00,
2013-03-13 03:41:00,30.3,23.0,30.40,NW,315,0.0,0.0,74,0.00,,---,0.00,VWS V14.00,2013-03-13 08:41:00,
2013-03-13 03:42:00,30.3,23.0,30.40,NW,315,0.0,0.0,74,0.00,,---,0.00,VWS V14.00,2013-03-13 08:42:00,
2013-03-13 03:43:00,30.1,22.8,30.40,NW,315,0.0,0.0,74,0.00,,---,0.00,VWS V14.00,2013-03-13 08:43:00,
2013-03-13 03:44:00,30.1,22.8,30.40,NW,315,0.0,0.0,74,0.00,,---,0.00,VWS V14.00,2013-03-13 08:44:00,
2013-03-13 03:45:00,30.1,22.8,30.40,NW,315,0.0,0.0,74,0.00,,---,0.00,VWS V14.00,2013-03-13 08:45:00,
2013-03-13 03:46:00,30.1,22.8,30.40,NW,315,0.0,0.0,74,0.00,,---,0.00,VWS V14.00,2013-03-13 08:46:00,
2013-03-13 03:47:00,30.1,22.8,30.40,NW,315,0.0,0.0,74,0.00,,---,0.00,VWS V14.00,2013-03-13 08:47:00,
2013-03-13 03:48:00,30.1,22.8,30.40,NW,315,0.0,0.0,74,0.00,,---,0.00,VWS V14.00,2013-03-13 08:48:00,
2013-03-13 03:49:00,30.0,22.7,30.40,NW,315,0.0,0.0,74,0.00,,---,0.00,VWS V14.00,2013-03-13 08:49:00,
2013-03-13 03:50:00,30.0,22.7,30.40,NW,315,0.0,0.0,74,0.00,,---,0.00,VWS V14.00,2013-03-13 08:50:00,
2013-03-13 03:51:00,30.0,22.7,30.40,NW,315,0.0,0.0,74,0.00,,---,0.00,VWS V14.00,2013-03-13 08:51:00,
2013-03-13 03:52:00,30.0,22.7,30.40,NW,315,0.0,0.0,74,0.00,,---,0.00,VWS V14.00,2013-03-13 08:52:00,
2013-03-13 03:53:00,30.0,22.7,30.40,NW,315,0.0,0.0,74,0.00,,---,0.00,VWS V14.00,2013-03-13 08:53:00,
2013-03-13 03:54:00,30.0,22.7,30.40,NW,315,0.0,0.0,74,0.00,,---,0.00,VWS V14.00,2013-03-13 08:54:00,
2013-03-13 03:55:00,29.8,22.5,30.39,NW,315,0.0,0.0,74,0.00,,---,0.00,VWS V14.00,2013-03-13 08:55:00,
2013-03-13 03:56:00,29.8,22.5,30.39,NW,315,0.0,0.0,74,0.00,,---,0.00,VWS V14.00,2013-03-13 08:56:00,
2013-03-13 03:57:00,29.8,22.5,30.39,NW,315,0.0,0.0,74,0.00,,---,0.00,VWS V14.00,2013-03-13 08:57:00,
2013-03-13 03:58:00,29.7,22.4,30.39,NW,315,0.0,0.0,74,0.00,,---,0.00,VWS V14.00,2013-03-13 08:58:00,
2013-03-13 03:59:00,29.7,22.4,30.40,NW,315,0.0,0.0,74,0.00,,---,0.00,VWS V14.00,2013-03-13 08:59:00,
2013-03-13 04:00:00,29.8,22.9,30.40,NW,315,0.0,0.0,75,0.00,,---,0.00,VWS V14.00,2013-03-13 09:00:00,
2013-03-13 04:01:00,29.7,22.8,30.40,NW,315,0.0,0.0,75,0.00,,---,0.00,VWS V14.00,2013-03-13 09:01:00,
2013-03-13 04:02:00,29.8,22.9,30.40,NW,315,0.0,0.0,75,0.00,,---,0.00,VWS V14.00,2013-03-13 09:02:00,
2013-03-13 04:03:00,29.8,22.9,30.40,NW,315,0.0,0.0,75,0.00,,---,0.00,VWS V14.00,2013-03-13 09:03:00,
2013-03-13 04:04:00,29.8,22.9,30.40,NW,315,0.0,0.0,75,0.00,,---,0.00,VWS V14.00,2013-03-13 09:04:00,
2013-03-13 04:05:00,29.7,22.4,30.39,NW,315,0.0,0.0,74,0.00,,---,0.00,VWS V14.00,2013-03-13 09:05:00,
2013-03-13 04:06:00,29.7,22.4,30.40,NW,315,0.0,0.0,74,0.00,,---,0.00,VWS V14.00,2013-03-13 09:06:00,
2013-03-13 04:07:00,29.7,22.4,30.39,NW,315,0.0,0.0,74,0.00,,---,0.00,VWS V14.00,2013-03-13 09:07:00,
2013-03-13 04:08:00,29.7,22.4,30.39,NW,315,0.0,0.0,74,0.00,,---,0.00,VWS V14.00,2013-03-13 09:08:00,
2013-03-13 04:09:00,29.5,22.2,30.40,NW,315,0.0,0.0,74,0.00,,---,0.00,VWS V14.00,2013-03-13 09:09:00,
2013-03-13 04:10:00,29.5,22.2,30.39,NW,315,0.0,0.0,74,0.00,,---,0.00,VWS V14.00,2013-03-13 09:10:00,
2013-03-13 04:11:00,29.5,22.2,30.39,NW,315,0.0,0.0,74,0.00,,---,0.00,VWS V14.00,2013-03-13 09:11:00,
2013-03-13 04:12:00,29.5,22.2,30.39,NW,315,0.0,0.0,74,0.00,,---,0.00,VWS V14.00,2013-03-13 09:12:00,
2013-03-13 04:13:00,29.5,22.6,30.39,NW,315,0.0,0.0,75,0.00,,---,0.00,VWS V14.00,2013-03-13 09:13:00,
2013-03-13 04:14:00,29.4,22.5,30.40,NW,315,0.0,0.0,75,0.00,,---,0.00,VWS V14.00,2013-03-13 09:14:00,
2013-03-13 04:15:00,29.4,22.1,30.40,NW,315,0.0,0.0,74,0.00,,---,0.00,VWS V14.00,2013-03-13 09:15:00,
2013-03-13 04:16:00,29.4,22.1,30.40,NW,315,0.0,0.0,74,0.00,,---,0.00,VWS V14.00,2013-03-13 09:16:00,
2013-03-13 04:17:00,29.4,22.1,30.40,NW,315,0.0,0.0,74,0.00,,---,0.00,VWS V14.00,2013-03-13 09:17:00,
2013-03-13 04:18:00,29.4,22.5,30.40,NW,315,0.0,0.0,75,0.00,,---,0.00,VWS V14.00,2013-03-13 09:18:00,
2013-03-13 04:19:00,29.3,22.4,30.40,NW,315,0.0,0.0,75,0.00,,---,0.00,VWS V14.00,2013-03-13 09:19:00,
2013-03-13 04:20:00,29.3,22.4,30.40,NW,315,0.0,0.0,75,0.00,,---,0.00,VWS V14.00,2013-03-13 09:20:00,
2013-03-13 04:21:00,29.3,22.4,30.40,NW,315,0.0,0.0,75,0.00,,---,0.00,VWS V14.00,2013-03-13 09:21:00,
2013-03-13 04:22:00,29.3,22.4,30.40,NW,315,0.0,0.0,75,0.00,,---,0.00,VWS V14.00,2013-03-13 09:22:00,
2013-03-13 04:23:00,29.3,22.4,30.40,NW,315,0.0,0.0,75,0.00,,---,0.00,VWS V14.00,2013-03-13 09:23:00,
2013-03-13 04:24:00,29.3,22.4,30.40,NW,315,0.0,0.0,75,0.00,,---,0.00,VWS V14.00,2013-03-13 09:24:00,
2013-03-13 04:25:00,29.1,22.2,30.40,NW,315,0.0,0.0,75,0.00,,---,0.00,VWS V14.00,2013-03-13 09:25:00,
2013-03-13 04:26:00,29.1,22.2,30.40,NW,315,0.0,0.0,75,0.00,,---,0.00,VWS V14.00,2013-03-13 09:26:00,
2013-03-13 04:27:00,29.1,22.2,30.40,NW,315,0.0,0.0,75,0.00,,---,0.00,VWS V14.00,2013-03-13 09:27:00,
2013-03-13 04:28:00,29.1,22.2,30.40,NW,315,0.0,0.0,75,0.00,,---,0.00,VWS V14.00,2013-03-13 09:28:00,
2013-03-13 04:29:00,29.1,22.2,30.40,NW,315,0.0,0.0,75,0.00,,---,0.00,VWS V14.00,2013-03-13 09:29:00,
2013-03-13 04:30:00,29.0,22.4,30.40,NW,315,0.0,0.0,76,0.00,,---,0.00,VWS V14.00,2013-03-13 09:30:00,
2013-03-13 04:31:00,29.0,22.1,30.40,NW,315,0.0,0.0,75,0.00,,---,0.00,VWS V14.00,2013-03-13 09:31:00,
2013-03-13 04:32:00,29.0,22.1,30.40,NW,315,0.0,0.0,75,0.00,,---,0.00,VWS V14.00,2013-03-13 09:32:00,
2013-03-13 04:33:00,29.0,22.1,30.40,NW,315,0.0,0.0,75,0.00,,---,0.00,VWS V14.00,2013-03-13 09:33:00,
2013-03-13 04:34:00,29.0,22.1,30.40,NW,315,0.0,0.0,75,0.00,,---,0.00,VWS V14.00,2013-03-13 09:34:00,
2013-03-13 04:35:00,28.8,22.2,30.40,NW,315,0.0,0.0,76,0.00,,---,0.00,VWS V14.00,2013-03-13 09:35:00,
2013-03-13 04:36:00,28.8,21.9,30.40,NW,315,0.0,0.0,75,0.00,,---,0.00,VWS V14.00,2013-03-13 09:36:00,
2013-03-13 04:37:00,28.8,22.2,30.40,NW,315,0.0,0.0,76,0.00,,---,0.00,VWS V14.00,2013-03-13 09:37:00,
2013-03-13 04:38:00,28.8,22.2,30.40,NW,315,0.0,0.0,76,0.00,,---,0.00,VWS V14.00,2013-03-13 09:38:00,
2013-03-13 04:39:00,28.8,22.2,30.40,NW,315,0.0,0.0,76,0.00,,---,0.00,VWS V14.00,2013-03-13 09:39:00,
2013-03-13 04:40:00,28.8,22.2,30.40,NW,315,0.0,0.0,76,0.00,,---,0.00,VWS V14.00,2013-03-13 09:40:00,
2013-03-13 04:41:00,28.8,22.2,30.40,NW,315,0.0,0.0,76,0.00,,---,0.00,VWS V14.00,2013-03-13 09:41:00,
2013-03-13 04:42:00,28.8,22.2,30.40,NW,315,0.0,0.0,76,0.00,,---,0.00,VWS V14.00,2013-03-13 09:42:00,
2013-03-13 04:43:00,28.7,22.1,30.40,NW,315,0.0,0.0,76,0.00,,---,0.00,VWS V14.00,2013-03-13 09:43:00,
2013-03-13 04:44:00,28.7,22.1,30.40,NW,315,0.0,0.0,76,0.00,,---,0.00,VWS V14.00,2013-03-13 09:44:00,
2013-03-13 04:45:00,28.7,22.4,30.40,NW,315,0.0,0.0,77,0.00,,---,0.00,VWS V14.00,2013-03-13 09:45:00,
2013-03-13 04:46:00,28.7,22.4,30.40,NW,315,0.0,0.0,77,0.00,,---,0.00,VWS V14.00,2013-03-13 09:46:00,
2013-03-13 04:47:00,28.7,22.4,30.40,NW,315,0.0,0.0,77,0.00,,---,0.00,VWS V14.00,2013-03-13 09:47:00,
2013-03-13 04:48:00,28.7,22.4,30.40,NW,315,0.0,0.0,77,0.00,,---,0.00,VWS V14.00,2013-03-13 09:48:00,
2013-03-13 04:49:00,28.7,22.4,30.40,NW,315,0.0,0.0,77,0.00,,---,0.00,VWS V14.00,2013-03-13 09:49:00,
2013-03-13 04:50:00,28.7,22.4,30.40,NW,315,0.0,0.0,77,0.00,,---,0.00,VWS V14.00,2013-03-13 09:50:00,
2013-03-13 04:51:00,28.7,22.4,30.40,NW,315,0.0,0.0,77,0.00,,---,0.00,VWS V14.00,2013-03-13 09:51:00,
2013-03-13 04:52:00,28.7,22.4,30.40,NW,315,0.0,0.0,77,0.00,,---,0.00,VWS V14.00,2013-03-13 09:52:00,
2013-03-13 04:53:00,28.7,22.4,30.40,NW,315,0.0,0.0,77,0.00,,---,0.00,VWS V14.00,2013-03-13 09:53:00,
2013-03-13 04:54:00,28.7,22.4,30.40,NW,315,0.0,0.0,77,0.00,,---,0.00,VWS V14.00,2013-03-13 09:54:00,
2013-03-13 04:55:00,28.7,22.7,30.40,NW,315,0.0,0.0,78,0.00,,---,0.00,VWS V14.00,2013-03-13 09:55:00,
2013-03-13 04:56:00,28.7,22.7,30.40,NW,315,0.0,0.0,78,0.00,,---,0.00,VWS V14.00,2013-03-13 09:56:00,
2013-03-13 04:57:00,28.7,22.7,30.40,NW,315,0.0,0.0,78,0.00,,---,0.00,VWS V14.00,2013-03-13 09:57:00,
2013-03-13 04:58:00,28.7,22.7,30.40,NW,315,0.0,0.0,78,0.00,,---,0.00,VWS V14.00,2013-03-13 09:58:00,
2013-03-13 04:59:00,28.7,22.7,30.40,NW,315,0.0,0.0,78,0.00,,---,0.00,VWS V14.00,2013-03-13 09:59:00,
2013-03-13 05:00:00,28.7,22.7,30.40,NW,315,0.0,0.0,78,0.00,,---,0.00,VWS V14.00,2013-03-13 10:00:00,
2013-03-13 05:01:00,28.7,22.7,30.40,NW,315,0.0,0.0,78,0.00,,---,0.00,VWS V14.00,2013-03-13 10:01:00,
2013-03-13 05:02:00,28.7,22.7,30.40,NW,315,0.0,0.0,78,0.00,,---,0.00,VWS V14.00,2013-03-13 10:02:00,
2013-03-13 05:03:00,28.5,22.5,30.40,NW,315,0.0,0.0,78,0.00,,---,0.00,VWS V14.00,2013-03-13 10:03:00,
2013-03-13 05:04:00,28.5,22.5,30.40,NW,315,0.0,0.0,78,0.00,,---,0.00,VWS V14.00,2013-03-13 10:04:00,
2013-03-13 05:05:00,28.5,22.8,30.40,NW,315,0.0,0.0,79,0.00,,---,0.00,VWS V14.00,2013-03-13 10:05:00,
2013-03-13 05:06:00,28.5,22.8,30.40,NW,315,0.0,0.0,79,0.00,,---,0.00,VWS V14.00,2013-03-13 10:06:00,
2013-03-13 05:07:00,28.4,22.7,30.40,NW,315,0.0,0.0,79,0.00,,---,0.00,VWS V14.00,2013-03-13 10:07:00,
2013-03-13 05:08:00,28.4,22.7,30.40,NW,315,0.0,0.0,79,0.00,,---,0.00,VWS V14.00,2013-03-13 10:08:00,
2013-03-13 05:09:00,28.4,22.7,30.40,NW,315,0.0,0.0,79,0.00,,---,0.00,VWS V14.00,2013-03-13 10:09:00,
2013-03-13 05:10:00,28.4,22.7,30.40,NW,315,0.0,0.0,79,0.00,,---,0.00,VWS V14.00,2013-03-13 10:10:00,
2013-03-13 05:11:00,28.4,22.7,30.40,NW,315,0.0,0.0,79,0.00,,---,0.00,VWS V14.00,2013-03-13 10:11:00,
2013-03-13 05:12:00,28.4,22.7,30.40,NW,315,0.0,0.0,79,0.00,,---,0.00,VWS V14.00,2013-03-13 10:12:00,
2013-03-13 05:13:00,28.4,22.7,30.41,NW,315,0.0,0.0,79,0.00,,---,0.00,VWS V14.00,2013-03-13 10:13:00,
2013-03-13 05:14:00,28.2,22.5,30.41,NW,315,0.0,0.0,79,0.00,,---,0.00,VWS V14.00,2013-03-13 10:14:00,
2013-03-13 05:15:00,28.2,22.5,30.41,NW,315,0.0,0.0,79,0.00,,---,0.00,VWS V14.00,2013-03-13 10:15:00,
2013-03-13 05:16:00,28.2,22.5,30.41,NW,315,0.0,0.0,79,0.00,,---,0.00,VWS V14.00,2013-03-13 10:16:00,
2013-03-13 05:17:00,28.2,22.5,30.41,NW,315,0.0,0.0,79,0.00,,---,0.00,VWS V14.00,2013-03-13 10:17:00,
2013-03-13 05:18:00,28.2,22.5,30.41,NW,315,0.0,0.0,79,0.00,,---,0.00,VWS V14.00,2013-03-13 10:18:00,
2013-03-13 05:19:00,28.2,22.5,30.40,NW,315,0.0,0.0,79,0.00,,---,0.00,VWS V14.00,2013-03-13 10:19:00,
2013-03-13 05:20:00,28.2,22.5,30.40,NW,315,0.0,0.0,79,0.00,,---,0.00,VWS V14.00,2013-03-13 10:20:00,
2013-03-13 05:21:00,28.2,22.5,30.41,NW,315,0.0,0.0,79,0.00,,---,0.00,VWS V14.00,2013-03-13 10:21:00,
2013-03-13 05:22:00,28.2,22.5,30.40,NW,315,0.0,0.0,79,0.00,,---,0.00,VWS V14.00,2013-03-13 10:22:00,
2013-03-13 05:23:00,28.2,22.5,30.41,NW,315,0.0,0.0,79,0.00,,---,0.00,VWS V14.00,2013-03-13 10:23:00,
2013-03-13 05:24:00,28.2,22.5,30.41,NW,315,0.0,0.0,79,0.00,,---,0.00,VWS V14.00,2013-03-13 10:24:00,
2013-03-13 05:25:00,28.1,22.4,30.41,NW,315,0.0,0.0,79,0.00,,---,0.00,VWS V14.00,2013-03-13 10:25:00,
2013-03-13 05:26:00,28.1,22.4,30.41,NW,315,0.0,0.0,79,0.00,,---,0.00,VWS V14.00,2013-03-13 10:26:00,
2013-03-13 05:27:00,28.1,22.7,30.41,NW,315,0.0,0.0,80,0.00,,---,0.00,VWS V14.00,2013-03-13 10:27:00,
2013-03-13 05:28:00,28.1,22.7,30.41,NW,315,0.0,0.0,80,0.00,,---,0.00,VWS V14.00,2013-03-13 10:28:00,
2013-03-13 05:29:00,28.1,22.4,30.41,NW,315,0.0,0.0,79,0.00,,---,0.00,VWS V14.00,2013-03-13 10:29:00,
2013-03-13 05:30:00,27.9,22.5,30.41,NW,315,0.0,0.0,80,0.00,,---,0.00,VWS V14.00,2013-03-13 10:30:00,
2013-03-13 05:31:00,27.9,22.5,30.41,NW,315,0.0,0.0,80,0.00,,---,0.00,VWS V14.00,2013-03-13 10:31:00,
2013-03-13 05:32:00,27.9,22.5,30.41,NW,315,0.0,0.0,80,0.00,,---,0.00,VWS V14.00,2013-03-13 10:32:00,
2013-03-13 05:33:00,27.9,22.5,30.42,NW,315,0.0,0.0,80,0.00,,---,0.00,VWS V14.00,2013-03-13 10:33:00,
2013-03-13 05:34:00,27.9,22.5,30.42,NW,315,0.0,0.0,80,0.00,,---,0.00,VWS V14.00,2013-03-13 10:34:00,
2013-03-13 05:35:00,27.9,22.5,30.42,NW,315,0.0,0.0,80,0.00,,---,0.00,VWS V14.00,2013-03-13 10:35:00,
2013-03-13 05:36:00,27.9,22.5,30.42,NW,315,0.0,0.0,80,0.00,,---,0.00,VWS V14.00,2013-03-13 10:36:00,
2013-03-13 05:37:00,27.8,22.4,30.42,NW,315,0.0,0.0,80,0.00,,---,0.00,VWS V14.00,2013-03-13 10:37:00,
2013-03-13 05:38:00,27.8,22.4,30.42,NW,315,0.0,0.0,80,0.00,,---,0.00,VWS V14.00,2013-03-13 10:38:00,
2013-03-13 05:39:00,27.8,22.4,30.42,NW,315,0.0,0.0,80,0.00,,---,0.00,VWS V14.00,2013-03-13 10:39:00,
2013-03-13 05:40:00,27.6,22.2,30.42,NW,315,0.0,0.0,80,0.00,,---,0.00,VWS V14.00,2013-03-13 10:40:00,
2013-03-13 05:41:00,27.6,22.2,30.42,NW,315,0.0,0.0,80,0.00,,---,0.00,VWS V14.00,2013-03-13 10:41:00,
2013-03-13 05:42:00,27.6,22.2,30.42,NW,315,0.0,0.0,80,0.00,,---,0.00,VWS V14.00,2013-03-13 10:42:00,
2013-03-13 05:43:00,27.6,22.2,30.42,NW,315,0.0,0.0,80,0.00,,---,0.00,VWS V14.00,2013-03-13 10:43:00,
2013-03-13 05:44:00,27.6,22.2,30.42,NW,315,0.0,0.0,80,0.00,,---,0.00,VWS V14.00,2013-03-13 10:44:00,
2013-03-13 05:45:00,27.5,22.5,30.42,NW,315,0.0,0.0,81,0.00,,---,0.00,VWS V14.00,2013-03-13 10:45:00,
2013-03-13 05:46:00,27.5,22.5,30.42,NW,315,0.0,0.0,81,0.00,,---,0.00,VWS V14.00,2013-03-13 10:46:00,
2013-03-13 05:47:00,27.5,22.5,30.42,NW,315,0.0,0.0,81,0.00,,---,0.00,VWS V14.00,2013-03-13 10:47:00,
2013-03-13 05:48:00,27.5,22.5,30.42,NW,315,0.0,0.0,81,0.00,,---,0.00,VWS V14.00,2013-03-13 10:48:00,
2013-03-13 05:49:00,27.5,22.5,30.42,NW,315,0.0,0.0,81,0.00,,---,0.00,VWS V14.00,2013-03-13 10:49:00,
2013-03-13 05:50:00,27.5,22.5,30.42,NW,315,0.0,0.0,81,0.00,,---,0.00,VWS V14.00,2013-03-13 10:50:00,
2013-03-13 05:51:00,27.5,22.5,30.42,NW,315,0.0,0.0,81,0.00,,---,0.00,VWS V14.00,2013-03-13 10:51:00,
2013-03-13 05:52:00,27.5,22.5,30.42,NW,315,0.0,0.0,81,0.00,,---,0.00,VWS V14.00,2013-03-13 10:52:00,
2013-03-13 05:53:00,27.5,22.5,30.42,NW,315,0.0,0.0,81,0.00,,---,0.00,VWS V14.00,2013-03-13 10:53:00,
2013-03-13 05:54:00,27.5,22.7,30.42,NW,315,0.0,0.0,82,0.00,,---,0.00,VWS V14.00,2013-03-13 10:54:00,
2013-03-13 05:55:00,27.6,22.8,30.42,NW,315,0.0,0.0,82,0.00,,---,0.00,VWS V14.00,2013-03-13 10:55:00,
2013-03-13 05:56:00,27.6,22.8,30.42,NW,315,0.0,0.0,82,0.00,,---,0.00,VWS V14.00,2013-03-13 10:56:00,
2013-03-13 05:57:00,27.6,22.8,30.42,NW,315,0.0,0.0,82,0.00,,---,0.00,VWS V14.00,2013-03-13 10:57:00,
2013-03-13 05:58:00,27.6,22.8,30.42,NW,315,0.0,0.0,82,0.00,,---,0.00,VWS V14.00,2013-03-13 10:58:00,
2013-03-13 05:59:00,27.6,22.8,30.42,NW,315,0.0,0.0,82,0.00,,---,0.00,VWS V14.00,2013-03-13 10:59:00,
2013-03-13 06:00:00,27.6,22.8,30.42,NW,315,0.0,0.0,82,0.00,,---,0.00,VWS V14.00,2013-03-13 11:00:00,
2013-03-13 06:01:00,27.6,22.8,30.42,NW,315,0.0,0.0,82,0.00,,---,0.00,VWS V14.00,2013-03-13 11:01:00,
2013-03-13 06:02:00,27.6,22.8,30.42,NW,315,0.0,0.0,82,0.00,,---,0.00,VWS V14.00,2013-03-13 11:02:00,
2013-03-13 06:03:00,27.6,22.8,30.42,NW,315,0.0,0.0,82,0.00,,---,0.00,VWS V14.00,2013-03-13 11:03:00,
2013-03-13 06:04:00,27.6,22.8,30.43,NW,315,0.0,0.0,82,0.00,,---,0.00,VWS V14.00,2013-03-13 11:04:00,
2013-03-13 06:05:00,27.6,22.8,30.43,NW,315,0.0,0.0,82,0.00,,---,0.00,VWS V14.00,2013-03-13 11:05:00,
2013-03-13 06:06:00,27.6,22.8,30.43,NW,315,0.0,0.0,82,0.00,,---,0.00,VWS V14.00,2013-03-13 11:06:00,
2013-03-13 06:07:00,27.6,22.8,30.43,NW,315,0.0,0.0,82,0.00,,---,0.00,VWS V14.00,2013-03-13 11:07:00,
2013-03-13 06:08:00,27.6,22.8,30.43,NW,315,0.0,0.0,82,0.00,,---,0.00,VWS V14.00,2013-03-13 11:08:00,
2013-03-13 06:09:00,27.5,22.7,30.43,NW,315,0.0,0.0,82,0.00,,---,0.00,VWS V14.00,2013-03-13 11:09:00,
2013-03-13 06:10:00,27.5,22.7,30.43,NW,315,0.0,0.0,82,0.00,,---,0.00,VWS V14.00,2013-03-13 11:10:00,
2013-03-13 06:11:00,27.5,22.7,30.43,NW,315,0.0,0.0,82,0.00,,---,0.00,VWS V14.00,2013-03-13 11:11:00,
2013-03-13 06:12:00,27.5,22.7,30.43,NW,315,0.0,0.0,82,0.00,,---,0.00,VWS V14.00,2013-03-13 11:12:00,
2013-03-13 06:13:00,27.5,22.7,30.43,NW,315,0.0,0.0,82,0.00,,---,0.00,VWS V14.00,2013-03-13 11:13:00,
2013-03-13 06:14:00,27.5,22.7,30.43,NW,315,0.0,0.0,82,0.00,,---,0.00,VWS V14.00,2013-03-13 11:14:00,
2013-03-13 06:15:00,27.3,22.5,30.43,NW,315,0.0,0.0,82,0.00,,---,0.00,VWS V14.00,2013-03-13 11:15:00,
2013-03-13 06:16:00,27.3,22.5,30.43,NW,315,0.0,0.0,82,0.00,,---,0.00,VWS V14.00,2013-03-13 11:16:00,
2013-03-13 06:17:00,27.3,22.5,30.43,NW,315,0.0,0.0,82,0.00,,---,0.00,VWS V14.00,2013-03-13 11:17:00,
2013-03-13 06:18:00,27.3,22.5,30.44,NW,315,0.0,0.0,82,0.00,,---,0.00,VWS V14.00,2013-03-13 11:18:00,
2013-03-13 06:19:00,27.3,22.5,30.44,NW,315,0.0,0.0,82,0.00,,---,0.00,VWS V14.00,2013-03-13 11:19:00,
2013-03-13 06:20:00,27.3,22.5,30.44,NW,315,0.0,0.0,82,0.00,,---,0.00,VWS V14.00,2013-03-13 11:20:00,
2013-03-13 06:21:00,27.3,22.5,30.44,NW,315,0.0,0.0,82,0.00,,---,0.00,VWS V14.00,2013-03-13 11:21:00,
2013-03-13 06:22:00,27.3,22.5,30.44,NW,315,0.0,0.0,82,0.00,,---,0.00,VWS V14.00,2013-03-13 11:22:00,
2013-03-13 06:23:00,27.5,22.7,30.44,NW,315,0.0,0.0,82,0.00,,---,0.00,VWS V14.00,2013-03-13 11:23:00,
2013-03-13 06:24:00,27.5,23.0,30.44,NW,315,0.0,0.0,83,0.00,,---,0.00,VWS V14.00,2013-03-13 11:24:00,
2013-03-13 06:25:00,27.5,23.0,30.44,NW,315,0.0,0.0,83,0.00,,---,0.00,VWS V14.00,2013-03-13 11:25:00,
2013-03-13 06:26:00,27.5,23.0,30.44,NW,315,0.0,0.0,83,0.00,,---,0.00,VWS V14.00,2013-03-13 11:26:00,
2013-03-13 06:27:00,27.3,22.8,30.44,NW,315,0.0,0.0,83,0.00,,---,0.00,VWS V14.00,2013-03-13 11:27:00,
2013-03-13 06:28:00,27.3,22.8,30.44,NW,315,0.0,0.0,83,0.00,,---,0.00,VWS V14.00,2013-03-13 11:28:00,
2013-03-13 06:29:00,27.3,22.8,30.44,NW,315,0.0,0.0,83,0.00,,---,0.00,VWS V14.00,2013-03-13 11:29:00,
2013-03-13 06:30:00,27.3,22.8,30.44,NW,315,0.0,0.0,83,0.00,,---,0.00,VWS V14.00,2013-03-13 11:30:00,
2013-03-13 06:31:00,27.3,22.8,30.44,NW,315,0.0,0.0,83,0.00,,---,0.00,VWS V14.00,2013-03-13 11:31:00,
2013-03-13 06:32:00,27.3,22.8,30.44,NW,315,0.0,0.0,83,0.00,,---,0.00,VWS V14.00,2013-03-13 11:32:00,
2013-03-13 06:33:00,27.2,22.7,30.44,NW,315,0.0,0.0,83,0.00,,---,0.00,VWS V14.00,2013-03-13 11:33:00,
2013-03-13 06:34:00,27.2,22.7,30.44,NW,315,0.0,0.0,83,0.00,,---,0.00,VWS V14.00,2013-03-13 11:34:00,
2013-03-13 06:35:00,27.2,22.7,30.44,NW,315,0.0,0.0,83,0.00,,---,0.00,VWS V14.00,2013-03-13 11:35:00,
2013-03-13 06:36:00,27.2,22.7,30.44,NW,315,0.0,0.0,83,0.00,,---,0.00,VWS V14.00,2013-03-13 11:36:00,
2013-03-13 06:37:00,27.2,22.7,30.44,NW,315,0.0,0.0,83,0.00,,---,0.00,VWS V14.00,2013-03-13 11:37:00,
2013-03-13 06:38:00,27.2,22.7,30.45,NW,315,0.0,0.0,83,0.00,,---,0.00,VWS V14.00,2013-03-13 11:38:00,
2013-03-13 06:39:00,27.3,22.8,30.45,NW,315,0.0,0.0,83,0.00,,---,0.00,VWS V14.00,2013-03-13 11:39:00,
2013-03-13 06:40:00,27.3,22.8,30.45,NW,315,0.0,0.0,83,0.00,,---,0.00,VWS V14.00,2013-03-13 11:40:00,
2013-03-13 06:41:00,27.3,22.8,30.45,NW,315,0.0,0.0,83,0.00,,---,0.00,VWS V14.00,2013-03-13 11:41:00,
2013-03-13 06:42:00,27.5,23.3,30.45,NW,315,0.0,0.0,84,0.00,,---,0.00,VWS V14.00,2013-03-13 11:42:00,
2013-03-13 06:43:00,27.5,23.3,30.44,NW,315,0.0,0.0,84,0.00,,---,0.00,VWS V14.00,2013-03-13 11:43:00,
2013-03-13 06:44:00,27.3,22.8,30.45,NW,315,0.0,0.0,83,0.00,,---,0.00,VWS V14.00,2013-03-13 11:44:00,
2013-03-13 06:45:00,27.5,23.0,30.45,NW,315,0.0,0.0,83,0.00,,---,0.00,VWS V14.00,2013-03-13 11:45:00,
2013-03-13 06:46:00,27.5,23.0,30.45,NW,315,0.0,0.0,83,0.00,,---,0.00,VWS V14.00,2013-03-13 11:46:00,
2013-03-13 06:47:00,27.3,22.8,30.45,NW,315,0.0,0.0,83,0.00,,---,0.00,VWS V14.00,2013-03-13 11:47:00,
2013-03-13 06:48:00,27.3,22.8,30.45,NW,315,0.0,0.0,83,0.00,,---,0.00,VWS V14.00,2013-03-13 11:48:00,
2013-03-13 06:49:00,27.2,22.7,30.45,NW,315,0.0,0.0,83,0.00,,---,0.00,VWS V14.00,2013-03-13 11:49:00,
2013-03-13 06:50:00,27.2,22.7,30.45,NW,315,0.0,0.0,83,0.00,,---,0.00,VWS V14.00,2013-03-13 11:50:00,
2013-03-13 06:51:00,27.2,22.7,30.45,NW,315,0.0,0.0,83,0.00,,---,0.00,VWS V14.00,2013-03-13 11:51:00,
2013-03-13 06:52:00,27.2,22.7,30.45,NW,315,0.0,0.0,83,0.00,,---,0.00,VWS V14.00,2013-03-13 11:52:00,
2013-03-13 06:53:00,27.2,22.7,30.45,NW,315,0.0,0.0,83,0.00,,---,0.00,VWS V14.00,2013-03-13 11:53:00,
2013-03-13 06:54:00,27.0,22.5,30.45,NW,315,0.0,0.0,83,0.00,,---,0.00,VWS V14.00,2013-03-13 11:54:00,
2013-03-13 06:55:00,27.2,22.7,30.45,NW,315,0.0,0.0,83,0.00,,---,0.00,VWS V14.00,2013-03-13 11:55:00,
2013-03-13 06:56:00,27.0,22.5,30.45,NW,315,0.0,0.0,83,0.00,,---,0.00,VWS V14.00,2013-03-13 11:56:00,
2013-03-13 06:57:00,27.0,22.5,30.45,NW,315,0.0,0.0,83,0.00,,---,0.00,VWS V14.00,2013-03-13 11:57:00,
2013-03-13 06:58:00,27.0,22.5,30.45,NW,315,0.0,0.0,83,0.00,,---,0.00,VWS V14.00,2013-03-13 11:58:00,
2013-03-13 06:59:00,27.0,22.5,30.45,NW,315,0.0,0.0,83,0.00,,---,0.00,VWS V14.00,2013-03-13 11:59:00,
2013-03-13 07:00:00,27.0,22.5,30.45,NW,315,0.0,0.0,83,0.00,,---,0.00,VWS V14.00,2013-03-13 12:00:00,
2013-03-13 07:01:00,27.0,22.5,30.45,NW,315,0.0,0.0,83,0.00,,---,0.00,VWS V14.00,2013-03-13 12:01:00,
2013-03-13 07:02:00,27.0,22.5,30.46,NW,315,0.0,0.0,83,0.00,,---,0.00,VWS V14.00,2013-03-13 12:02:00,
2013-03-13 07:03:00,27.2,22.7,30.46,NW,315,0.0,0.0,83,0.00,,---,0.00,VWS V14.00,2013-03-13 12:03:00,
2013-03-13 07:04:00,27.3,23.1,30.47,NW,315,0.0,0.0,84,0.00,,---,0.00,VWS V14.00,2013-03-13 12:04:00,
2013-03-13 07:05:00,27.3,23.1,30.46,NW,315,0.0,0.0,84,0.00,,---,0.00,VWS V14.00,2013-03-13 12:05:00,
2013-03-13 07:06:00,27.3,23.1,30.47,NW,315,0.0,0.0,84,0.00,,---,0.00,VWS V14.00,2013-03-13 12:06:00,
2013-03-13 07:07:00,27.5,23.3,30.47,NW,315,0.0,0.0,84,0.00,,---,0.00,VWS V14.00,2013-03-13 12:07:00,
2013-03-13 07:08:00,27.5,23.3,30.47,NW,315,0.0,0.0,84,0.00,,---,0.00,VWS V14.00,2013-03-13 12:08:00,
2013-03-13 07:09:00,27.6,23.4,30.47,NW,315,0.0,0.0,84,0.00,,---,0.00,VWS V14.00,2013-03-13 12:09:00,
2013-03-13 07:10:00,27.5,23.3,30.47,NW,315,0.0,0.0,84,0.00,,---,0.00,VWS V14.00,2013-03-13 12:10:00,
2013-03-13 07:11:00,27.6,23.4,30.47,NW,315,0.0,0.0,84,0.00,,---,0.00,VWS V14.00,2013-03-13 12:11:00,
2013-03-13 07:12:00,27.6,23.4,30.47,NW,315,0.0,0.0,84,0.00,,---,0.00,VWS V14.00,2013-03-13 12:12:00,
2013-03-13 07:13:00,27.6,23.4,30.47,NW,315,0.0,0.0,84,0.00,,---,0.00,VWS V14.00,2013-03-13 12:13:00,
2013-03-13 07:14:00,27.6,23.4,30.47,NW,315,0.0,0.0,84,0.00,,---,0.00,VWS V14.00,2013-03-13 12:14:00,
2013-03-13 07:15:00,27.6,23.4,30.47,NW,315,0.0,0.0,84,0.00,,---,0.00,VWS V14.00,2013-03-13 12:15:00,
2013-03-13 07:16:00,27.6,23.4,30.47,NW,315,0.0,0.0,84,0.00,,---,0.00,VWS V14.00,2013-03-13 12:16:00,
2013-03-13 07:17:00,27.6,23.4,30.47,NW,315,0.0,0.0,84,0.00,,---,0.00,VWS V14.00,2013-03-13 12:17:00,
2013-03-13 07:18:00,27.6,23.4,30.47,NW,315,0.0,0.0,84,0.00,,---,0.00,VWS V14.00,2013-03-13 12:18:00,
2013-03-13 07:19:00,27.8,23.9,30.47,NW,315,0.0,0.0,85,0.00,,---,0.00,VWS V14.00,2013-03-13 12:19:00,
2013-03-13 07:20:00,27.8,23.9,30.47,NW,315,0.0,0.0,85,0.00,,---,0.00,VWS V14.00,2013-03-13 12:20:00,
2013-03-13 07:21:00,27.8,23.9,30.47,NW,315,0.0,0.0,85,0.00,,---,0.00,VWS V14.00,2013-03-13 12:21:00,
2013-03-13 07:22:00,27.8,23.9,30.47,NW,315,0.0,0.0,85,0.00,,---,0.00,VWS V14.00,2013-03-13 12:22:00,
2013-03-13 07:23:00,27.8,23.9,30.47,NW,315,0.0,0.0,85,0.00,,---,0.00,VWS V14.00,2013-03-13 12:23:00,
2013-03-13 07:24:00,27.8,23.9,30.47,NW,315,0.0,0.0,85,0.00,,---,0.00,VWS V14.00,2013-03-13 12:24:00,
2013-03-13 07:25:00,27.8,23.9,30.47,NW,315,0.0,0.0,85,0.00,,---,0.00,VWS V14.00,2013-03-13 12:25:00,
2013-03-13 07:26:00,27.8,23.9,30.47,NW,315,0.0,0.0,85,0.00,,---,0.00,VWS V14.00,2013-03-13 12:26:00,
2013-03-13 07:27:00,27.8,23.9,30.47,NW,315,0.0,0.0,85,0.00,,---,0.00,VWS V14.00,2013-03-13 12:27:00,
2013-03-13 07:28:00,27.8,23.9,30.47,NW,315,0.0,0.0,85,0.00,,---,0.00,VWS V14.00,2013-03-13 12:28:00,
2013-03-13 07:29:00,27.8,23.9,30.47,NW,315,0.0,0.0,85,0.00,,---,0.00,VWS V14.00,2013-03-13 12:29:00,
2013-03-13 07:30:00,27.8,23.9,30.47,NW,315,0.0,0.0,85,0.00,,---,0.00,VWS V14.00,2013-03-13 12:30:00,
2013-03-13 07:31:00,27.8,23.9,30.47,NW,315,0.0,0.0,85,0.00,,---,0.00,VWS V14.00,2013-03-13 12:31:00,
2013-03-13 07:32:00,27.8,23.9,30.47,NW,315,0.0,0.0,85,0.00,,---,0.00,VWS V14.00,2013-03-13 12:32:00,
2013-03-13 07:33:00,27.8,23.6,30.47,NW,315,0.0,0.0,84,0.00,,---,0.00,VWS V14.00,2013-03-13 12:33:00,
2013-03-13 07:34:00,27.8,23.6,30.47,NW,315,0.0,0.0,84,0.00,,---,0.00,VWS V14.00,2013-03-13 12:34:00,
2013-03-13 07:35:00,27.8,23.6,30.47,NW,315,0.0,0.0,84,0.00,,---,0.00,VWS V14.00,2013-03-13 12:35:00,
2013-03-13 07:36:00,27.8,23.6,30.47,NW,315,0.0,0.0,84,0.00,,---,0.00,VWS V14.00,2013-03-13 12:36:00,
2013-03-13 07:37:00,27.8,23.6,30.47,NW,315,0.0,0.0,84,0.00,,---,0.00,VWS V14.00,2013-03-13 12:37:00,
2013-03-13 07:38:00,27.9,23.7,30.47,NW,315,0.0,0.0,84,0.00,,---,0.00,VWS V14.00,2013-03-13 12:38:00,
2013-03-13 07:39:00,27.9,23.7,30.47,NW,315,0.0,0.0,84,0.00,,---,0.00,VWS V14.00,2013-03-13 12:39:00,
2013-03-13 07:40:00,27.9,23.7,30.47,NW,315,0.0,0.0,84,0.00,,---,0.00,VWS V14.00,2013-03-13 12:40:00,
2013-03-13 07:41:00,27.9,23.7,30.47,NW,315,0.0,0.0,84,0.00,,---,0.00,VWS V14.00,2013-03-13 12:41:00,
2013-03-13 07:42:00,27.9,23.7,30.47,NW,315,0.0,0.0,84,0.00,,---,0.00,VWS V14.00,2013-03-13 12:42:00,
2013-03-13 07:43:00,27.9,23.7,30.47,NW,315,0.0,0.0,84,0.00,,---,0.00,VWS V14.00,2013-03-13 12:43:00,
2013-03-13 07:44:00,28.1,23.9,30.47,NW,315,0.0,0.0,84,0.00,,---,0.00,VWS V14.00,2013-03-13 12:44:00,
2013-03-13 07:45:00,27.9,23.7,30.47,NW,315,0.0,0.0,84,0.00,,---,0.00,VWS V14.00,2013-03-13 12:45:00,
2013-03-13 07:46:00,28.1,23.9,30.47,NW,315,0.0,0.0,84,0.00,,---,0.00,VWS V14.00,2013-03-13 12:46:00,
2013-03-13 07:47:00,28.1,23.9,30.47,NW,315,0.0,0.0,84,0.00,,---,0.00,VWS V14.00,2013-03-13 12:47:00,
2013-03-13 07:48:00,28.1,23.9,30.47,NW,315,0.0,0.0,84,0.00,,---,0.00,VWS V14.00,2013-03-13 12:48:00,
2013-03-13 07:49:00,28.2,23.7,30.47,NW,315,0.0,0.0,83,0.00,,---,0.00,VWS V14.00,2013-03-13 12:49:00,
2013-03-13 07:50:00,28.1,23.9,30.47,NW,315,0.0,0.0,84,0.00,,---,0.00,VWS V14.00,2013-03-13 12:50:00,
2013-03-13 07:51:00,28.2,23.7,30.47,NW,315,0.0,0.0,83,0.00,,---,0.00,VWS V14.00,2013-03-13 12:51:00,
2013-03-13 07:52:00,28.2,23.7,30.47,NW,315,0.0,0.0,83,0.00,,---,0.00,VWS V14.00,2013-03-13 12:52:00,
2013-03-13 07:53:00,28.2,23.7,30.47,NW,315,0.0,0.0,83,0.00,,---,0.00,VWS V14.00,2013-03-13 12:53:00,
2013-03-13 07:54:00,28.4,23.6,30.47,NW,315,0.0,0.0,82,0.00,,---,0.00,VWS V14.00,2013-03-13 12:54:00,
2013-03-13 07:55:00,28.4,23.9,30.47,NW,315,0.0,0.0,83,0.00,,---,0.00,VWS V14.00,2013-03-13 12:55:00,
2013-03-13 07:56:00,28.4,23.6,30.47,NW,315,0.0,0.0,82,0.00,,---,0.00,VWS V14.00,2013-03-13 12:56:00,
2013-03-13 07:57:00,28.5,23.7,30.47,NW,315,0.0,0.0,82,0.00,,---,0.00,VWS V14.00,2013-03-13 12:57:00,
2013-03-13 07:58:00,28.7,23.9,30.47,NW,315,0.0,0.0,82,0.00,,---,0.00,VWS V14.00,2013-03-13 12:58:00,
2013-03-13 07:59:00,28.8,23.7,30.47,NW,315,2.0,2.0,81,0.00,,---,0.00,VWS V14.00,2013-03-13 12:59:00,
2013-03-13 08:00:00,28.7,23.6,30.47,NW,315,1.0,1.0,81,0.00,,---,0.00,VWS V14.00,2013-03-13 13:00:00,
2013-03-13 08:01:00,28.8,23.7,30.47,NW,315,2.0,2.0,81,0.00,,---,0.00,VWS V14.00,2013-03-13 13:01:00,
2013-03-13 08:02:00,29.0,23.6,30.47,NW,315,1.0,2.0,80,0.00,,---,0.00,VWS V14.00,2013-03-13 13:02:00,
2013-03-13 08:03:00,29.0,23.6,30.47,NW,315,3.0,3.0,80,0.00,,---,0.00,VWS V14.00,2013-03-13 13:03:00,
2013-03-13 08:04:00,29.3,23.6,30.48,NW,315,0.0,0.0,79,0.00,,---,0.00,VWS V14.00,2013-03-13 13:04:00,
2013-03-13 08:05:00,29.1,23.4,30.47,NW,315,0.0,3.0,79,0.00,,---,0.00,VWS V14.00,2013-03-13 13:05:00,
2013-03-13 08:06:00,29.3,23.6,30.48,NW,315,0.0,0.0,79,0.00,,---,0.00,VWS V14.00,2013-03-13 13:06:00,
2013-03-13 08:07:00,29.3,23.6,30.48,NW,315,0.0,0.0,79,0.00,,---,0.00,VWS V14.00,2013-03-13 13:07:00,
2013-03-13 08:08:00,29.4,23.7,30.48,NW,315,0.0,0.0,79,0.00,,---,0.00,VWS V14.00,2013-03-13 13:08:00,
2013-03-13 08:09:00,29.5,23.5,30.48,NW,315,2.0,2.0,78,0.00,,---,0.00,VWS V14.00,2013-03-13 13:09:00,
2013-03-13 08:10:00,29.4,23.7,30.48,NW,315,0.0,0.0,79,0.00,,---,0.00,VWS V14.00,2013-03-13 13:10:00,
2013-03-13 08:11:00,29.5,23.5,30.48,NW,315,2.0,2.0,78,0.00,,---,0.00,VWS V14.00,2013-03-13 13:11:00,
2013-03-13 08:12:00,29.5,23.5,30.48,NW,315,1.0,4.0,78,0.00,,---,0.00,VWS V14.00,2013-03-13 13:12:00,
2013-03-13 08:13:00,29.5,23.5,30.48,NW,315,0.0,2.0,78,0.00,,---,0.00,VWS V14.00,2013-03-13 13:13:00,
2013-03-13 08:14:00,29.8,23.8,30.48,NW,315,0.0,4.0,78,0.00,,---,0.00,VWS V14.00,2013-03-13 13:14:00,
2013-03-13 08:15:00,29.7,23.7,30.48,NW,315,0.0,0.0,78,0.00,,---,0.00,VWS V14.00,2013-03-13 13:15:00,
2013-03-13 08:16:00,29.8,23.8,30.48,NW,315,0.0,4.0,78,0.00,,---,0.00,VWS V14.00,2013-03-13 13:16:00,
2013-03-13 08:17:00,29.8,23.5,30.48,NW,315,3.0,5.0,77,0.00,,---,0.00,VWS V14.00,2013-03-13 13:17:00,
2013-03-13 08:18:00,30.0,23.7,30.48,NW,315,2.0,3.0,77,0.00,,---,0.00,VWS V14.00,2013-03-13 13:18:00,
2013-03-13 08:19:00,30.4,23.8,30.48,NW,315,3.0,5.0,76,0.00,,---,0.00,VWS V14.00,2013-03-13 13:19:00,
2013-03-13 08:20:00,30.3,24.0,30.48,NW,315,4.0,4.0,77,0.00,,---,0.00,VWS V14.00,2013-03-13 13:20:00,
2013-03-13 08:21:00,30.4,23.8,30.48,NW,315,3.0,5.0,76,0.00,,---,0.00,VWS V14.00,2013-03-13 13:21:00,
2013-03-13 08:22:00,30.4,23.8,30.48,NW,315,1.0,3.0,76,0.00,,---,0.00,VWS V14.00,2013-03-13 13:22:00,
2013-03-13 08:23:00,30.6,24.0,30.48,NW,315,1.0,5.0,76,0.00,,---,0.00,VWS V14.00,2013-03-13 13:23:00,
2013-03-13 08:24:00,30.9,23.9,30.49,NW,315,0.0,2.0,75,0.00,,---,0.00,VWS V14.00,2013-03-13 13:24:00,
2013-03-13 08:25:00,30.9,23.9,30.48,NW,315,0.0,3.0,75,0.00,,---,0.00,VWS V14.00,2013-03-13 13:25:00,
2013-03-13 08:26:00,31.0,24.0,30.49,NW,315,0.0,2.0,75,0.00,,---,0.00,VWS V14.00,2013-03-13 13:26:00,
2013-03-13 08:27:00,31.0,24.0,30.49,NW,315,2.0,4.0,75,0.00,,---,0.00,VWS V14.00,2013-03-13 13:27:00,
2013-03-13 08:28:00,31.2,24.2,30.49,NW,315,1.0,4.0,75,0.00,,---,0.00,VWS V14.00,2013-03-13 13:28:00,
2013-03-13 08:29:00,31.5,24.5,30.49,NW,315,3.0,4.0,75,0.00,,---,0.00,VWS V14.00,2013-03-13 13:29:00,
2013-03-13 08:30:00,31.3,24.0,30.49,NW,315,0.0,2.0,74,0.00,,---,0.00,VWS V14.00,2013-03-13 13:30:00,
2013-03-13 08:31:00,31.5,24.5,30.49,NW,315,4.0,4.0,75,0.00,,---,0.00,VWS V14.00,2013-03-13 13:31:00,
2013-03-13 08:32:00,31.6,24.6,30.49,NW,315,2.0,4.0,75,0.00,,---,0.00,VWS V14.00,2013-03-13 13:32:00,
2013-03-13 08:33:00,31.8,24.5,30.49,NW,315,3.0,4.0,74,0.00,,---,0.00,VWS V14.00,2013-03-13 13:33:00,
2013-03-13 08:34:00,31.9,23.9,30.49,NW,315,4.0,6.0,72,0.00,,---,0.00,VWS V14.00,2013-03-13 13:34:00,
2013-03-13 08:35:00,31.8,24.1,30.49,NW,315,6.0,8.0,73,0.00,,---,0.00,VWS V14.00,2013-03-13 13:35:00,
2013-03-13 08:36:00,31.9,23.9,30.49,NW,315,3.0,6.0,72,0.00,,---,0.00,VWS V14.00,2013-03-13 13:36:00,
2013-03-13 08:37:00,31.9,23.9,30.49,NW,315,5.0,5.0,72,0.00,,---,0.00,VWS V14.00,2013-03-13 13:37:00,
2013-03-13 08:38:00,31.9,23.6,30.49,NW,315,2.0,6.0,71,0.00,,---,0.00,VWS V14.00,2013-03-13 13:38:00,
2013-03-13 08:39:00,32.1,23.4,30.49,NW,315,4.0,4.0,70,0.00,,---,0.00,VWS V14.00,2013-03-13 13:39:00,
2013-03-13 08:40:00,32.1,23.8,30.49,NW,315,4.0,7.0,71,0.00,,---,0.00,VWS V14.00,2013-03-13 13:40:00,
2013-03-13 08:41:00,32.1,23.4,30.49,NW,315,4.0,4.0,70,0.00,,---,0.00,VWS V14.00,2013-03-13 13:41:00,
2013-03-13 08:42:00,32.1,23.4,30.49,NW,315,0.0,4.0,70,0.00,,---,0.00,VWS V14.00,2013-03-13 13:42:00,
2013-03-13 08:43:00,32.1,23.8,30.49,NW,315,0.0,3.0,71,0.00,,---,0.00,VWS V14.00,2013-03-13 13:43:00,
2013-03-13 08:44:00,32.2,23.5,30.49,NW,315,4.0,6.0,70,0.00,,---,0.00,VWS V14.00,2013-03-13 13:44:00,
2013-03-13 08:45:00,32.2,23.5,30.49,NW,315,4.0,5.0,70,0.00,,---,0.00,VWS V14.00,2013-03-13 13:45:00,
2013-03-13 08:46:00,32.2,23.5,30.49,NW,315,5.0,6.0,70,0.00,,---,0.00,VWS V14.00,2013-03-13 13:46:00,
2013-03-13 08:47:00,32.2,23.2,30.49,NW,315,1.0,7.0,69,0.00,,---,0.00,VWS V14.00,2013-03-13 13:47:00,
2013-03-13 08:48:00,32.4,23.0,30.49,NW,315,2.0,2.0,68,0.00,,---,0.00,VWS V14.00,2013-03-13 13:48:00,
2013-03-13 08:49:00,32.4,23.0,30.50,NW,315,6.0,6.0,68,0.00,,---,0.00,VWS V14.00,2013-03-13 13:49:00,
2013-03-13 08:50:00,32.4,23.4,30.50,NW,315,3.0,4.0,69,0.00,,---,0.00,VWS V14.00,2013-03-13 13:50:00,
2013-03-13 08:51:00,32.4,23.0,30.50,NW,315,6.0,6.0,68,0.00,,---,0.00,VWS V14.00,2013-03-13 13:51:00,
2013-03-13 08:52:00,32.4,23.0,30.50,NW,315,4.0,7.0,68,0.00,,---,0.00,VWS V14.00,2013-03-13 13:52:00,
2013-03-13 08:53:00,32.4,23.0,30.50,NW,315,6.0,6.0,68,0.00,,---,0.00,VWS V14.00,2013-03-13 13:53:00,
2013-03-13 08:54:00,32.4,22.3,30.50,NW,320,5.0,7.0,66,0.00,,---,0.00,VWS V14.00,2013-03-13 13:54:00,
2013-03-13 08:55:00,32.4,22.7,30.50,NW,319,2.0,4.0,67,0.00,,---,0.00,VWS V14.00,2013-03-13 13:55:00,
2013-03-13 08:56:00,32.4,22.3,30.50,NW,320,4.0,7.0,66,0.00,,---,0.00,VWS V14.00,2013-03-13 13:56:00,
2013-03-13 08:57:00,32.4,22.3,30.50,NW,318,9.0,12.0,66,0.00,,---,0.00,VWS V14.00,2013-03-13 13:57:00,
2013-03-13 08:58:00,32.4,22.0,30.50,NW,314,6.0,12.0,65,0.00,,---,0.00,VWS V14.00,2013-03-13 13:58:00,
2013-03-13 08:59:00,32.5,22.1,30.50,NW,316,4.0,9.0,65,0.00,,---,0.00,VWS V14.00,2013-03-13 13:59:00,
2013-03-13 09:00:00,32.5,22.1,30.50,NW,315,7.0,10.0,65,0.00,,---,0.00,VWS V14.00,2013-03-13 14:00:00,
2013-03-13 09:01:00,32.5,22.1,30.50,NW,316,4.0,9.0,65,0.00,,---,0.00,VWS V14.00,2013-03-13 14:01:00,
2013-03-13 09:02:00,32.5,22.1,30.50,NW,316,7.0,8.0,65,0.00,,---,0.00,VWS V14.00,2013-03-13 14:02:00,
2013-03-13 09:03:00,32.5,21.7,30.50,NW,314,7.0,9.0,64,0.00,,---,0.00,VWS V14.00,2013-03-13 14:03:00,
2013-03-13 09:04:00,32.5,21.7,30.50,North,5,6.0,10.0,64,0.00,,---,0.00,VWS V14.00,2013-03-13 14:04:00,
2013-03-13 09:05:00,32.5,22.1,30.50,North,5,5.0,11.0,65,0.00,,---,0.00,VWS V14.00,2013-03-13 14:05:00,
2013-03-13 09:06:00,32.5,21.7,30.50,North,5,6.0,10.0,64,0.00,,---,0.00,VWS V14.00,2013-03-13 14:06:00,
2013-03-13 09:07:00,32.7,21.9,30.50,NNE,12,3.0,7.0,64,0.00,,---,0.00,VWS V14.00,2013-03-13 14:07:00,
2013-03-13 09:08:00,32.7,22.6,30.50,North,360,5.0,6.0,66,0.00,,---,0.00,VWS V14.00,2013-03-13 14:08:00,
2013-03-13 09:09:00,32.8,22.0,30.50,North,360,2.0,6.0,64,0.00,,---,0.00,VWS V14.00,2013-03-13 14:09:00,
2013-03-13 09:10:00,32.8,22.3,30.50,North,360,4.0,7.0,65,0.00,,---,0.00,VWS V14.00,2013-03-13 14:10:00,
2013-03-13 09:11:00,32.9,22.1,30.50,North,360,2.0,6.0,64,0.00,,---,0.00,VWS V14.00,2013-03-13 14:11:00,
2013-03-13 09:12:00,32.9,22.1,30.50,North,360,2.0,4.0,64,0.00,,---,0.00,VWS V14.00,2013-03-13 14:12:00,
2013-03-13 09:13:00,32.9,22.1,30.50,North,360,3.0,4.0,64,0.00,,---,0.00,VWS V14.00,2013-03-13 14:13:00,
2013-03-13 09:14:00,33.1,21.9,30.50,North,360,7.0,7.0,63,0.00,,---,0.00,VWS V14.00,2013-03-13 14:14:00,
2013-03-13 09:15:00,33.1,22.3,30.50,North,360,2.0,6.0,64,0.00,,---,0.00,VWS V14.00,2013-03-13 14:15:00,
2013-03-13 09:16:00,33.1,21.9,30.50,North,360,6.0,7.0,63,0.00,,---,0.00,VWS V14.00,2013-03-13 14:16:00,
2013-03-13 09:17:00,33.1,21.9,30.50,North,360,5.0,7.0,63,0.00,,---,0.00,VWS V14.00,2013-03-13 14:17:00,
2013-03-13 09:18:00,33.1,21.9,30.50,North,360,5.0,8.0,63,0.00,,---,0.00,VWS V14.00,2013-03-13 14:18:00,
2013-03-13 09:19:00,33.2,22.0,30.50,North,360,5.0,6.0,63,0.00,,---,0.00,VWS V14.00,2013-03-13 14:19:00,
2013-03-13 09:20:00,33.1,21.5,30.50,North,360,6.0,7.0,62,0.00,,---,0.00,VWS V14.00,2013-03-13 14:20:00,
2013-03-13 09:21:00,33.2,22.0,30.50,North,360,6.0,7.0,63,0.00,,---,0.00,VWS V14.00,2013-03-13 14:21:00,
2013-03-13 09:22:00,33.2,22.0,30.50,NNW,345,8.0,8.0,63,0.00,,---,0.00,VWS V14.00,2013-03-13 14:22:00,
2013-03-13 09:23:00,33.2,21.6,30.50,NNW,336,3.0,10.0,62,0.00,,---,0.00,VWS V14.00,2013-03-13 14:23:00,
2013-03-13 09:24:00,33.4,21.8,30.50,NNW,333,6.0,7.0,62,0.00,,---,0.00,VWS V14.00,2013-03-13 14:24:00,
2013-03-13 09:25:00,33.4,21.8,30.50,NNW,336,4.0,9.0,62,0.00,,---,0.00,VWS V14.00,2013-03-13 14:25:00,
2013-03-13 09:26:00,33.4,21.8,30.50,NNW,333,6.0,7.0,62,0.00,,---,0.00,VWS V14.00,2013-03-13 14:26:00,
2013-03-13 09:27:00,33.4,21.8,30.50,NNW,333,5.0,7.0,62,0.00,,---,0.00,VWS V14.00,2013-03-13 14:27:00,
2013-03-13 09:28:00,33.4,21.8,30.50,NNW,333,3.0,5.0,62,0.00,,---,0.00,VWS V14.00,2013-03-13 14:28:00,
2013-03-13 09:29:00,33.5,21.9,30.50,NNW,333,2.0,4.0,62,0.00,,---,0.00,VWS V14.00,2013-03-13 14:29:00,
2013-03-13 09:30:00,33.5,21.9,30.50,NNW,333,4.0,6.0,62,0.00,,---,0.00,VWS V14.00,2013-03-13 14:30:00,
2013-03-13 09:31:00,33.7,22.1,30.50,NNW,333,3.0,4.0,62,0.00,,---,0.00,VWS V14.00,2013-03-13 14:31:00,
2013-03-13 09:32:00,33.7,22.1,30.50,NNW,333,3.0,7.0,62,0.00,,---,0.00,VWS V14.00,2013-03-13 14:32:00,
2013-03-13 09:33:00,33.7,21.7,30.50,NNW,333,6.0,7.0,61,0.00,,---,0.00,VWS V14.00,2013-03-13 14:33:00,
2013-03-13 09:34:00,33.8,21.4,30.51,NNW,336,7.0,9.0,60,0.00,,---,0.00,VWS V14.00,2013-03-13 14:34:00,
2013-03-13 09:35:00,33.7,21.3,30.51,NNW,334,3.0,9.0,60,0.00,,---,0.00,VWS V14.00,2013-03-13 14:35:00,
2013-03-13 09:36:00,33.8,21.8,30.51,NNW,336,5.0,9.0,61,0.00,,---,0.00,VWS V14.00,2013-03-13 14:36:00,
2013-03-13 09:37:00,33.8,21.4,30.50,NNW,336,4.0,9.0,60,0.00,,---,0.00,VWS V14.00,2013-03-13 14:37:00,
2013-03-13 09:38:00,33.8,21.4,30.50,NNW,336,5.0,7.0,60,0.00,,---,0.00,VWS V14.00,2013-03-13 14:38:00,
2013-03-13 09:39:00,34.0,21.6,30.51,NNW,332,6.0,6.0,60,0.00,,---,0.00,VWS V14.00,2013-03-13 14:39:00,
2013-03-13 09:40:00,34.0,21.6,30.51,NNW,332,2.0,9.0,60,0.00,,---,0.00,VWS V14.00,2013-03-13 14:40:00,
2013-03-13 09:41:00,34.0,21.6,30.51,NNW,332,5.0,6.0,60,0.00,,---,0.00,VWS V14.00,2013-03-13 14:41:00,
2013-03-13 09:42:00,34.1,21.7,30.51,NNW,332,5.0,5.0,60,0.00,,---,0.00,VWS V14.00,2013-03-13 14:42:00,
2013-03-13 09:43:00,34.1,21.7,30.51,NNW,333,7.0,10.0,60,0.00,,---,0.00,VWS V14.00,2013-03-13 14:43:00,
2013-03-13 09:44:00,34.3,21.9,30.51,NNW,333,5.0,9.0,60,0.00,,---,0.00,VWS V14.00,2013-03-13 14:44:00,
2013-03-13 09:45:00,34.1,21.7,30.51,NNW,333,7.0,7.0,60,0.00,,---,0.00,VWS V14.00,2013-03-13 14:45:00,
2013-03-13 09:46:00,34.3,21.9,30.51,NNW,333,4.0,9.0,60,0.00,,---,0.00,VWS V14.00,2013-03-13 14:46:00,
2013-03-13 09:47:00,34.3,21.5,30.51,NNW,333,3.0,5.0,59,0.00,,---,0.00,VWS V14.00,2013-03-13 14:47:00,
2013-03-13 09:48:00,34.3,21.9,30.51,NNW,333,0.0,5.0,60,0.00,,---,0.00,VWS V14.00,2013-03-13 14:48:00,
2013-03-13 09:49:00,34.6,21.8,30.51,NW,311,8.0,11.0,59,0.00,,---,0.00,VWS V14.00,2013-03-13 14:49:00,
2013-03-13 09:50:00,34.4,21.6,30.51,NNW,333,6.0,9.0,59,0.00,,---,0.00,VWS V14.00,2013-03-13 14:50:00,
2013-03-13 09:51:00,34.6,21.8,30.51,NW,311,9.0,11.0,59,0.00,,---,0.00,VWS V14.00,2013-03-13 14:51:00,
2013-03-13 09:52:00,34.6,21.4,30.51,NW,309,9.0,11.0,58,0.00,,---,0.00,VWS V14.00,2013-03-13 14:52:00,
2013-03-13 09:53:00,34.7,21.5,30.51,NW,307,7.0,10.0,58,0.00,,---,0.00,VWS V14.00,2013-03-13 14:53:00,
2013-03-13 09:54:00,34.9,21.6,30.51,NW,307,5.0,7.0,58,0.00,,---,0.00,VWS V14.00,2013-03-13 14:54:00,
2013-03-13 09:55:00,34.7,21.5,30.51,NW,306,5.0,11.0,58,0.00,,---,0.00,VWS V14.00,2013-03-13 14:55:00,
2013-03-13 09:56:00,34.9,21.6,30.51,NW,307,6.0,7.0,58,0.00,,---,0.00,VWS V14.00,2013-03-13 14:56:00,
2013-03-13 09:57:00,35.0,22.1,30.51,NW,307,4.0,6.0,59,0.00,,---,0.00,VWS V14.00,2013-03-13 14:57:00,
2013-03-13 09:58:00,35.0,21.7,30.51,North,355,0.0,11.0,58,0.00,,---,0.00,VWS V14.00,2013-03-13 14:58:00,
2013-03-13 09:59:00,35.2,21.5,30.51,North,351,8.0,8.0,57,0.00,,---,0.00,VWS V14.00,2013-03-13 14:59:00,
2013-03-13 10:00:00,35.2,21.1,30.51,North,355,5.0,6.0,56,0.00,,---,0.00,VWS V14.00,2013-03-13 15:00:00,
2013-03-13 10:01:00,35.2,21.5,30.51,North,351,5.0,8.0,57,0.00,,---,0.00,VWS V14.00,2013-03-13 15:01:00,
2013-03-13 10:02:00,35.2,21.1,30.51,North,355,5.0,12.0,56,0.00,,---,0.00,VWS V14.00,2013-03-13 15:02:00,
2013-03-13 10:03:00,35.2,21.1,30.51,North,355,6.0,10.0,56,0.00,,---,0.00,VWS V14.00,2013-03-13 15:03:00,
2013-03-13 10:04:00,35.2,21.1,30.52,NW,323,5.0,11.0,56,0.00,,---,0.00,VWS V14.00,2013-03-13 15:04:00,
2013-03-13 10:05:00,35.2,21.1,30.52,NW,320,8.0,9.0,56,0.00,,---,0.00,VWS V14.00,2013-03-13 15:05:00,
2013-03-13 10:06:00,35.2,21.1,30.52,NW,323,5.0,11.0,56,0.00,,---,0.00,VWS V14.00,2013-03-13 15:06:00,
2013-03-13 10:07:00,35.2,21.1,30.52,NNW,332,7.0,9.0,56,0.00,,---,0.00,VWS V14.00,2013-03-13 15:07:00,
2013-03-13 10:08:00,35.2,20.7,30.52,NNW,333,6.0,10.0,55,0.00,,---,0.00,VWS V14.00,2013-03-13 15:08:00,
2013-03-13 10:09:00,35.0,20.5,30.52,NNW,334,2.0,5.0,55,0.00,,---,0.00,VWS V14.00,2013-03-13 15:09:00,
2013-03-13 10:10:00,35.0,20.5,30.52,NNW,334,5.0,7.0,55,0.00,,---,0.00,VWS V14.00,2013-03-13 15:10:00,
2013-03-13 10:11:00,35.0,20.9,30.52,NNW,334,1.0,5.0,56,0.00,,---,0.00,VWS V14.00,2013-03-13 15:11:00,
2013-03-13 10:12:00,35.2,21.1,30.52,NNW,335,7.0,9.0,56,0.00,,---,0.00,VWS V14.00,2013-03-13 15:12:00,
2013-03-13 10:13:00,35.2,21.1,30.52,NNW,333,5.0,12.0,56,0.00,,---,0.00,VWS V14.00,2013-03-13 15:13:00,
2013-03-13 10:14:00,35.3,21.2,30.53,NW,324,5.0,9.0,56,0.00,,---,0.00,VWS V14.00,2013-03-13 15:14:00,
2013-03-13 10:15:00,35.2,20.7,30.53,NW,323,7.0,10.0,55,0.00,,---,0.00,VWS V14.00,2013-03-13 15:15:00,
2013-03-13 10:16:00,35.3,21.2,30.53,NW,324,4.0,9.0,56,0.00,,---,0.00,VWS V14.00,2013-03-13 15:16:00,
2013-03-13 10:17:00,35.3,21.6,30.53,NW,324,4.0,7.0,57,0.00,,---,0.00,VWS V14.00,2013-03-13 15:17:00,
2013-03-13 10:18:00,35.3,20.8,30.53,NW,324,0.0,4.0,55,0.00,,---,0.00,VWS V14.00,2013-03-13 15:18:00,
2013-03-13 10:19:00,35.6,21.0,30.52,NW,313,6.0,6.0,55,0.00,,---,0.00,VWS V14.00,2013-03-13 15:19:00,
2013-03-13 10:20:00,35.5,21.4,30.52,NW,313,5.0,10.0,56,0.00,,---,0.00,VWS V14.00,2013-03-13 15:20:00,
2013-03-13 10:21:00,35.6,21.0,30.52,NW,315,10.0,10.0,55,0.00,,---,0.00,VWS V14.00,2013-03-13 15:21:00,
2013-03-13 10:22:00,35.6,21.5,30.52,NNW,327,2.0,10.0,56,0.00,,---,0.00,VWS V14.00,2013-03-13 15:22:00,
2013-03-13 10:23:00,35.8,21.2,30.52,NNW,327,3.0,13.0,55,0.00,,---,0.00,VWS V14.00,2013-03-13 15:23:00,
2013-03-13 10:24:00,35.9,21.3,30.53,NNE,12,7.0,10.0,55,0.00,,---,0.00,VWS V14.00,2013-03-13 15:24:00,
2013-03-13 10:25:00,35.8,21.2,30.53,NNW,344,5.0,11.0,55,0.00,,---,0.00,VWS V14.00,2013-03-13 15:25:00,
2013-03-13 10:26:00,35.9,21.3,30.53,NNE,12,7.0,10.0,55,0.00,,---,0.00,VWS V14.00,2013-03-13 15:26:00,
2013-03-13 10:27:00,35.9,20.9,30.53,North,11,6.0,10.0,54,0.00,,---,0.00,VWS V14.00,2013-03-13 15:27:00,
2013-03-13 10:28:00,35.9,20.9,30.53,North,9,3.0,7.0,54,0.00,,---,0.00,VWS V14.00,2013-03-13 15:28:00,
2013-03-13 10:29:00,36.0,21.0,30.52,NNW,336,8.0,9.0,54,0.00,,---,0.00,VWS V14.00,2013-03-13 15:29:00,
2013-03-13 10:30:00,35.9,20.9,30.52,NNW,335,3.0,11.0,54,0.00,,---,0.00,VWS V14.00,2013-03-13 15:30:00,
2013-03-13 10:31:00,36.0,21.0,30.52,NNW,336,6.0,9.0,54,0.00,,---,0.00,VWS V14.00,2013-03-13 15:31:00,
2013-03-13 10:32:00,36.0,21.0,30.52,NNW,336,6.0,9.0,54,0.00,,---,0.00,VWS V14.00,2013-03-13 15:32:00,
2013-03-13 10:33:00,36.0,21.0,30.52,NNW,347,7.0,11.0,54,0.00,,---,0.00,VWS V14.00,2013-03-13 15:33:00,
2013-03-13 10:34:00,36.0,20.5,30.52,NNW,346,5.0,9.0,53,0.00,,---,0.00,VWS V14.00,2013-03-13 15:34:00,
2013-03-13 10:35:00,36.0,21.0,30.52,NNW,347,4.0,7.0,54,0.00,,---,0.00,VWS V14.00,2013-03-13 15:35:00,
2013-03-13 10:36:00,36.0,20.5,30.52,NNW,346,5.0,9.0,53,0.00,,---,0.00,VWS V14.00,2013-03-13 15:36:00,
2013-03-13 10:37:00,36.0,20.5,30.52,NNW,340,4.0,7.0,53,0.00,,---,0.00,VWS V14.00,2013-03-13 15:37:00,
2013-03-13 10:38:00,36.0,20.5,30.52,NNW,327,6.0,7.0,53,0.00,,---,0.00,VWS V14.00,2013-03-13 15:38:00,
2013-03-13 10:39:00,36.2,21.2,30.52,NNW,328,4.0,10.0,54,0.00,,---,0.00,VWS V14.00,2013-03-13 15:39:00,
2013-03-13 10:40:00,36.2,20.7,30.52,NNW,328,10.0,10.0,53,0.00,,---,0.00,VWS V14.00,2013-03-13 15:40:00,
2013-03-13 10:41:00,36.2,20.7,30.52,NNW,328,4.0,10.0,53,0.00,,---,0.00,VWS V14.00,2013-03-13 15:41:00,
2013-03-13 10:42:00,36.2,20.7,30.52,NNW,327,5.0,6.0,53,0.00,,---,0.00,VWS V14.00,2013-03-13 15:42:00,
2013-03-13 10:43:00,36.2,20.7,30.52,NNW,328,3.0,8.0,53,0.00,,---,0.00,VWS V14.00,2013-03-13 15:43:00,
2013-03-13 10:44:00,36.3,20.4,30.52,NNW,330,6.0,9.0,52,0.00,,---,0.00,VWS V14.00,2013-03-13 15:44:00,
2013-03-13 10:45:00,36.3,20.8,30.52,NNW,330,8.0,11.0,53,0.00,,---,0.00,VWS V14.00,2013-03-13 15:45:00,
2013-03-13 10:46:00,36.3,20.4,30.52,NNW,330,4.0,9.0,52,0.00,,---,0.00,VWS V14.00,2013-03-13 15:46:00,
2013-03-13 10:47:00,36.3,20.8,30.52,NNW,330,4.0,5.0,53,0.00,,---,0.00,VWS V14.00,2013-03-13 15:47:00,
2013-03-13 10:48:00,36.5,20.6,30.52,NNW,331,5.0,10.0,52,0.00,,---,0.00,VWS V14.00,2013-03-13 15:48:00,
2013-03-13 10:49:00,36.6,20.2,30.52,NW,320,4.0,10.0,51,0.00,,---,0.00,VWS V14.00,2013-03-13 15:49:00,
2013-03-13 10:50:00,36.5,20.6,30.52,NNE,13,6.0,9.0,52,0.00,,---,0.00,VWS V14.00,2013-03-13 15:50:00,
2013-03-13 10:51:00,36.6,20.2,30.52,NW,320,4.0,10.0,51,0.00,,---,0.00,VWS V14.00,2013-03-13 15:51:00,
2013-03-13 10:52:00,36.6,20.2,30.52,North,9,8.0,13.0,51,0.00,,---,0.00,VWS V14.00,2013-03-13 15:52:00,
2013-03-13 10:53:00,36.8,20.4,30.52,North,360,9.0,10.0,51,0.00,,---,0.00,VWS V14.00,2013-03-13 15:53:00,
2013-03-13 10:54:00,36.9,20.9,30.52,NNW,344,6.0,9.0,52,0.00,,---,0.00,VWS V14.00,2013-03-13 15:54:00,
2013-03-13 10:55:00,36.9,20.5,30.52,North,355,4.0,9.0,51,0.00,,---,0.00,VWS V14.00,2013-03-13 15:55:00,
2013-03-13 10:56:00,36.9,20.9,30.52,NNW,344,5.0,9.0,52,0.00,,---,0.00,VWS V14.00,2013-03-13 15:56:00,
2013-03-13 10:57:00,36.9,20.5,30.52,NNW,344,3.0,6.0,51,0.00,,---,0.00,VWS V14.00,2013-03-13 15:57:00,
2013-03-13 10:58:00,37.0,20.6,30.52,NNW,344,3.0,5.0,51,0.00,,---,0.00,VWS V14.00,2013-03-13 15:58:00,
2013-03-13 10:59:00,37.2,20.3,30.52,NNW,343,2.0,6.0,50,0.00,,---,0.00,VWS V14.00,2013-03-13 15:59:00,
2013-03-13 11:00:00,37.2,20.8,30.52,NNW,343,6.0,8.0,51,0.00,,---,0.00,VWS V14.00,2013-03-13 16:00:00,
2013-03-13 11:01:00,37.2,20.3,30.52,NNW,343,1.0,6.0,50,0.00,,---,0.00,VWS V14.00,2013-03-13 16:01:00,
2013-03-13 11:02:00,37.3,20.9,30.52,NNW,347,4.0,11.0,51,0.00,,---,0.00,VWS V14.00,2013-03-13 16:02:00,
2013-03-13 11:03:00,37.3,20.9,30.52,North,349,5.0,10.0,51,0.00,,---,0.00,VWS V14.00,2013-03-13 16:03:00,
2013-03-13 11:04:00,37.6,21.6,30.52,NNW,348,3.0,6.0,52,0.00,,---,0.00,VWS V14.00,2013-03-13 16:04:00,
2013-03-13 11:05:00,37.5,21.0,30.52,NNW,348,1.0,9.0,51,0.00,,---,0.00,VWS V14.00,2013-03-13 16:05:00,
2013-03-13 11:06:00,37.6,21.6,30.52,NNW,348,5.0,6.0,52,0.00,,---,0.00,VWS V14.00,2013-03-13 16:06:00,
2013-03-13 11:07:00,37.6,21.1,30.52,North,350,8.0,8.0,51,0.00,,---,0.00,VWS V14.00,2013-03-13 16:07:00,
2013-03-13 11:08:00,37.8,21.3,30.52,NNW,339,9.0,10.0,51,0.00,,---,0.00,VWS V14.00,2013-03-13 16:08:00,
2013-03-13 11:09:00,37.6,20.7,30.52,NNW,337,5.0,7.0,50,0.00,,---,0.00,VWS V14.00,2013-03-13 16:09:00,
2013-03-13 11:10:00,37.6,20.7,30.52,NNW,339,3.0,5.0,50,0.00,,---,0.00,VWS V14.00,2013-03-13 16:10:00,
2013-03-13 11:11:00,37.6,20.7,30.52,NNW,337,2.0,7.0,50,0.00,,---,0.00,VWS V14.00,2013-03-13 16:11:00,
2013-03-13 11:12:00,37.8,20.8,30.52,NNW,337,3.0,3.0,50,0.00,,---,0.00,VWS V14.00,2013-03-13 16:12:00,
2013-03-13 11:13:00,37.8,20.8,30.52,NNW,337,5.0,9.0,50,0.00,,---,0.00,VWS V14.00,2013-03-13 16:13:00,
2013-03-13 11:14:00,37.8,20.8,30.52,NNW,342,5.0,7.0,50,0.00,,---,0.00,VWS V14.00,2013-03-13 16:14:00,
2013-03-13 11:15:00,37.8,19.9,30.52,NNW,343,2.0,6.0,48,0.00,,---,0.00,VWS V14.00,2013-03-13 16:15:00,
2013-03-13 11:16:00,37.8,20.4,30.52,NNW,342,5.0,7.0,49,0.00,,---,0.00,VWS V14.00,2013-03-13 16:16:00,
2013-03-13 11:17:00,37.8,19.9,30.52,NNW,338,7.0,8.0,48,0.00,,---,0.00,VWS V14.00,2013-03-13 16:17:00,
2013-03-13 11:18:00,37.8,19.9,30.52,NNW,335,5.0,7.0,48,0.00,,---,0.00,VWS V14.00,2013-03-13 16:18:00,
2013-03-13 11:19:00,37.9,20.0,30.52,NNW,331,3.0,6.0,48,0.00,,---,0.00,VWS V14.00,2013-03-13 16:19:00,
2013-03-13 11:20:00,37.8,19.9,30.52,NNW,331,6.0,7.0,48,0.00,,---,0.00,VWS V14.00,2013-03-13 16:20:00,
2013-03-13 11:21:00,37.9,20.0,30.52,NNW,331,1.0,6.0,48,0.00,,---,0.00,VWS V14.00,2013-03-13 16:21:00,
2013-03-13 11:22:00,37.9,20.0,30.52,NNW,331,5.0,6.0,48,0.00,,---,0.00,VWS V14.00,2013-03-13 16:22:00,
2013-03-13 11:23:00,37.9,20.0,30.52,NNW,330,5.0,12.0,48,0.00,,---,0.00,VWS V14.00,2013-03-13 16:23:00,
2013-03-13 11:24:00,37.9,19.0,30.52,NW,326,12.0,12.0,46,0.00,,---,0.00,VWS V14.00,2013-03-13 16:24:00,
2013-03-13 11:25:00,38.0,19.6,30.52,NNW,329,11.0,13.0,47,0.00,,---,0.00,VWS V14.00,2013-03-13 16:25:00,
2013-03-13 11:26:00,37.9,19.0,30.52,NW,325,9.0,12.0,46,0.00,,---,0.00,VWS V14.00,2013-03-13 16:26:00,
2013-03-13 11:27:00,38.0,19.1,30.52,NW,325,4.0,11.0,46,0.00,,---,0.00,VWS V14.00,2013-03-13 16:27:00,
2013-03-13 11:28:00,38.0,19.1,30.52,NNW,328,7.0,10.0,46,0.00,,---,0.00,VWS V14.00,2013-03-13 16:28:00,
2013-03-13 11:29:00,38.0,19.6,30.52,NW,306,10.0,12.0,47,0.00,,---,0.00,VWS V14.00,2013-03-13 16:29:00,
2013-03-13 11:30:00,38.0,19.6,30.52,NNW,331,7.0,11.0,47,0.00,,---,0.00,VWS V14.00,2013-03-13 16:30:00,
2013-03-13 11:31:00,38.0,19.6,30.52,NW,326,11.0,12.0,47,0.00,,---,0.00,VWS V14.00,2013-03-13 16:31:00,
2013-03-13 11:32:00,38.2,19.8,30.52,NW,322,11.0,11.0,47,0.00,,---,0.00,VWS V14.00,2013-03-13 16:32:00,
2013-03-13 11:33:00,38.3,19.9,30.52,NW,321,6.0,11.0,47,0.00,,---,0.00,VWS V14.00,2013-03-13 16:33:00,
2013-03-13 11:34:00,38.5,20.0,30.52,NNW,334,4.0,6.0,47,0.00,,---,0.00,VWS V14.00,2013-03-13 16:34:00,
2013-03-13 11:35:00,38.5,20.0,30.52,NNW,335,3.0,11.0,47,0.00,,---,0.00,VWS V14.00,2013-03-13 16:35:00,
2013-03-13 11:36:00,38.5,20.0,30.52,NNW,334,3.0,6.0,47,0.00,,---,0.00,VWS V14.00,2013-03-13 16:36:00,
2013-03-13 11:37:00,38.5,20.5,30.52,NNW,335,7.0,9.0,48,0.00,,---,0.00,VWS V14.00,2013-03-13 16:37:00,
2013-03-13 11:38:00,38.5,20.0,30.52,NNW,333,9.0,9.0,47,0.00,,---,0.00,VWS V14.00,2013-03-13 16:38:00,
2013-03-13 11:39:00,38.5,19.5,30.52,NNW,331,10.0,10.0,46,0.00,,---,0.00,VWS V14.00,2013-03-13 16:39:00,
2013-03-13 11:40:00,38.5,19.0,30.52,NNW,334,5.0,9.0,45,0.00,,---,0.00,VWS V14.00,2013-03-13 16:40:00,
2013-03-13 11:41:00,38.5,19.5,30.52,NNW,331,7.0,10.0,46,0.00,,---,0.00,VWS V14.00,2013-03-13 16:41:00,
2013-03-13 11:42:00,38.5,19.5,30.52,NNW,333,9.0,11.0,46,0.00,,---,0.00,VWS V14.00,2013-03-13 16:42:00,
2013-03-13 11:43:00,38.5,19.5,30.52,NNW,328,5.0,11.0,46,0.00,,---,0.00,VWS V14.00,2013-03-13 16:43:00,
2013-03-13 11:44:00,38.5,19.5,30.52,NW,318,5.0,8.0,46,0.00,,---,0.00,VWS V14.00,2013-03-13 16:44:00,
2013-03-13 11:45:00,38.5,19.5,30.52,NW,318,3.0,10.0,46,0.00,,---,0.00,VWS V14.00,2013-03-13 16:45:00,
2013-03-13 11:46:00,38.5,19.5,30.52,NW,318,3.0,8.0,46,0.00,,---,0.00,VWS V14.00,2013-03-13 16:46:00,
2013-03-13 11:47:00,38.6,19.1,30.52,NW,321,9.0,11.0,45,0.00,,---,0.00,VWS V14.00,2013-03-13 16:47:00,
2013-03-13 11:48:00,38.6,19.1,30.51,NW,321,9.0,11.0,45,0.00,,---,0.00,VWS V14.00,2013-03-13 16:48:00,
2013-03-13 11:49:00,38.8,19.8,30.51,NW,323,5.0,8.0,46,0.00,,---,0.00,VWS V14.00,2013-03-13 16:49:00,
2013-03-13 11:50:00,38.6,19.1,30.51,NW,321,7.0,7.0,45,0.00,,---,0.00,VWS V14.00,2013-03-13 16:50:00,
2013-03-13 11:51:00,38.8,19.3,30.51,NW,323,3.0,8.0,45,0.00,,---,0.00,VWS V14.00,2013-03-13 16:51:00,
2013-03-13 11:52:00,38.8,19.8,30.51,NNW,348,4.0,13.0,46,0.00,,---,0.00,VWS V14.00,2013-03-13 16:52:00,
2013-03-13 11:53:00,38.8,19.8,30.51,NW,321,5.0,10.0,46,0.00,,---,0.00,VWS V14.00,2013-03-13 16:53:00,
2013-03-13 11:54:00,38.8,19.8,30.51,NW,322,0.0,0.0,46,0.00,,---,0.00,VWS V14.00,2013-03-13 16:54:00,
2013-03-13 11:55:00,38.8,19.3,30.52,NW,322,0.0,4.0,45,0.00,,---,0.00,VWS V14.00,2013-03-13 16:55:00,
2013-03-13 11:56:00,38.8,19.8,30.51,NW,322,0.0,0.0,46,0.00,,---,0.00,VWS V14.00,2013-03-13 16:56:00,
2013-03-13 11:57:00,38.9,19.9,30.51,NW,322,1.0,1.0,46,0.00,,---,0.00,VWS V14.00,2013-03-13 16:57:00,
2013-03-13 11:58:00,39.1,20.1,30.51,NW,322,3.0,3.0,46,0.00,,---,0.00,VWS V14.00,2013-03-13 16:58:00,
2013-03-13 11:59:00,39.2,20.2,30.51,NW,322,3.0,7.0,46,0.00,,---,0.00,VWS V14.00,2013-03-13 16:59:00,
2013-03-13 12:00:00,39.2,20.2,30.51,NW,322,4.0,6.0,46,0.00,,---,0.00,VWS V14.00,2013-03-13 17:00:00,
2013-03-13 12:01:00,39.2,20.2,30.51,NW,322,2.0,7.0,46,0.00,,---,0.00,VWS V14.00,2013-03-13 17:01:00,
2013-03-13 12:02:00,39.2,19.7,30.52,NW,322,1.0,3.0,45,0.00,,---,0.00,VWS V14.00,2013-03-13 17:02:00,
2013-03-13 12:03:00,39.2,19.7,30.52,NW,322,5.0,5.0,45,0.00,,---,0.00,VWS V14.00,2013-03-13 17:03:00,
2013-03-13 12:04:00,39.3,19.8,30.52,NW,322,0.0,4.0,45,0.00,,---,0.00,VWS V14.00,2013-03-13 17:04:00,
2013-03-13 12:05:00,39.3,19.8,30.52,NW,322,4.0,4.0,45,0.00,,---,0.00,VWS V14.00,2013-03-13 17:05:00,
2013-03-13 12:06:00,39.5,19.9,30.52,NW,322,0.0,4.0,45,0.00,,---,0.00,VWS V14.00,2013-03-13 17:06:00,
2013-03-13 12:07:00,39.5,19.9,30.51,NW,322,5.0,5.0,45,0.00,,---,0.00,VWS V14.00,2013-03-13 17:07:00,
2013-03-13 12:08:00,39.5,20.5,30.51,NW,322,3.0,6.0,46,0.00,,---,0.00,VWS V14.00,2013-03-13 17:08:00,
2013-03-13 12:09:00,39.8,20.2,30.51,NW,322,3.0,3.0,45,0.00,,---,0.00,VWS V14.00,2013-03-13 17:09:00,
2013-03-13 12:10:00,39.6,20.0,30.51,NW,322,0.0,2.0,45,0.00,,---,0.00,VWS V14.00,2013-03-13 17:10:00,
2013-03-13 12:11:00,39.8,20.2,30.51,NW,322,1.0,3.0,45,0.00,,---,0.00,VWS V14.00,2013-03-13 17:11:00,
2013-03-13 12:12:00,39.8,20.2,30.51,NW,322,2.0,3.0,45,0.00,,---,0.00,VWS V14.00,2013-03-13 17:12:00,
2013-03-13 12:13:00,39.9,20.3,30.52,NW,321,6.0,7.0,45,0.00,,---,0.00,VWS V14.00,2013-03-13 17:13:00,
2013-03-13 12:14:00,40.2,20.6,30.52,NW,321,1.0,1.0,45,0.00,,---,0.00,VWS V14.00,2013-03-13 17:14:00,
2013-03-13 12:15:00,40.2,20.6,30.52,NW,321,0.0,7.0,45,0.00,,---,0.00,VWS V14.00,2013-03-13 17:15:00,
2013-03-13 12:16:00,40.2,20.6,30.52,NW,321,1.0,3.0,45,0.00,,---,0.00,VWS V14.00,2013-03-13 17:16:00,
2013-03-13 12:17:00,40.3,20.1,30.51,NW,321,0.0,1.0,44,0.00,,---,0.00,VWS V14.00,2013-03-13 17:17:00,
2013-03-13 12:18:00,40.5,20.3,30.51,NW,321,4.0,4.0,44,0.00,,---,0.00,VWS V14.00,2013-03-13 17:18:00,
2013-03-13 12:19:00,40.8,20.6,30.51,NW,319,2.0,3.0,44,0.00,,---,0.00,VWS V14.00,2013-03-13 17:19:00,
2013-03-13 12:20:00,40.6,20.4,30.51,NW,319,3.0,9.0,44,0.00,,---,0.00,VWS V14.00,2013-03-13 17:20:00,
2013-03-13 12:21:00,40.8,20.6,30.51,NW,319,6.0,6.0,44,0.00,,---,0.00,VWS V14.00,2013-03-13 17:21:00,
2013-03-13 12:22:00,40.9,20.1,30.51,NW,318,3.0,7.0,43,0.00,,---,0.00,VWS V14.00,2013-03-13 17:22:00,
2013-03-13 12:23:00,40.9,20.1,30.51,NW,317,5.0,6.0,43,0.00,,---,0.00,VWS V14.00,2013-03-13 17:23:00,
2013-03-13 12:24:00,40.9,20.1,30.51,NW,315,4.0,4.0,43,0.00,,---,0.00,VWS V14.00,2013-03-13 17:24:00,
2013-03-13 12:25:00,40.9,20.1,30.51,NW,315,0.0,2.0,43,0.00,,---,0.00,VWS V14.00,2013-03-13 17:25:00,
2013-03-13 12:26:00,40.9,20.1,30.51,NW,316,5.0,5.0,43,0.00,,---,0.00,VWS V14.00,2013-03-13 17:26:00,
2013-03-13 12:27:00,40.9,19.6,30.51,North,5,10.0,10.0,42,0.00,,---,0.00,VWS V14.00,2013-03-13 17:27:00,
2013-03-13 12:28:00,40.8,18.9,30.51,NNE,19,7.0,12.0,41,0.00,,---,0.00,VWS V14.00,2013-03-13 17:28:00,
2013-03-13 12:29:00,40.8,19.5,30.52,NW,319,9.0,10.0,42,0.00,,---,0.00,VWS V14.00,2013-03-13 17:29:00,
2013-03-13 12:30:00,40.8,18.9,30.52,NNW,343,4.0,7.0,41,0.00,,---,0.00,VWS V14.00,2013-03-13 17:30:00,
2013-03-13 12:31:00,40.8,19.5,30.52,NW,318,7.0,10.0,42,0.00,,---,0.00,VWS V14.00,2013-03-13 17:31:00,
2013-03-13 12:32:00,40.8,19.5,30.52,NW,317,9.0,11.0,42,0.00,,---,0.00,VWS V14.00,2013-03-13 17:32:00,
2013-03-13 12:33:00,40.8,19.5,30.52,NW,316,8.0,11.0,42,0.00,,---,0.00,VWS V14.00,2013-03-13 17:33:00,
2013-03-13 12:34:00,40.9,19.6,30.52,NW,320,5.0,10.0,42,0.00,,---,0.00,VWS V14.00,2013-03-13 17:34:00,
2013-03-13 12:35:00,40.9,19.6,30.52,NW,317,9.0,9.0,42,0.00,,---,0.00,VWS V14.00,2013-03-13 17:35:00,
2013-03-13 12:36:00,40.9,19.6,30.52,NW,320,5.0,10.0,42,0.00,,---,0.00,VWS V14.00,2013-03-13 17:36:00,
2013-03-13 12:37:00,40.9,19.0,30.51,NW,321,5.0,10.0,41,0.00,,---,0.00,VWS V14.00,2013-03-13 17:37:00,
2013-03-13 12:38:00,40.9,19.0,30.52,NW,321,5.0,9.0,41,0.00,,---,0.00,VWS V14.00,2013-03-13 17:38:00,
2013-03-13 12:39:00,41.1,19.2,30.52,NW,321,4.0,5.0,41,0.00,,---,0.00,VWS V14.00,2013-03-13 17:39:00,
2013-03-13 12:40:00,41.1,19.2,30.52,NW,321,4.0,7.0,41,0.00,,---,0.00,VWS V14.00,2013-03-13 17:40:00,
2013-03-13 12:41:00,41.1,19.2,30.52,NW,321,7.0,7.0,41,0.00,,---,0.00,VWS V14.00,2013-03-13 17:41:00,
2013-03-13 12:42:00,41.1,19.2,30.52,NW,321,3.0,8.0,41,0.00,,---,0.00,VWS V14.00,2013-03-13 17:42:00,
2013-03-13 12:43:00,41.2,18.7,30.52,NW,321,4.0,4.0,40,0.00,,---,0.00,VWS V14.00,2013-03-13 17:43:00,
2013-03-13 12:44:00,41.3,18.8,30.52,NW,321,3.0,6.0,40,0.00,,---,0.00,VWS V14.00,2013-03-13 17:44:00,
2013-03-13 12:45:00,41.3,18.2,30.52,NW,321,5.0,9.0,39,0.00,,---,0.00,VWS V14.00,2013-03-13 17:45:00,
2013-03-13 12:46:00,41.3,18.8,30.52,NW,321,3.0,6.0,40,0.00,,---,0.00,VWS V14.00,2013-03-13 17:46:00,
2013-03-13 12:47:00,41.5,19.6,30.52,NW,321,4.0,8.0,41,0.00,,---,0.00,VWS V14.00,2013-03-13 17:47:00,
2013-03-13 12:48:00,41.6,19.1,30.51,NW,321,4.0,7.0,40,0.00,,---,0.00,VWS V14.00,2013-03-13 17:48:00,
2013-03-13 12:49:00,41.8,19.3,30.51,NW,323,7.0,11.0,40,0.00,,---,0.00,VWS V14.00,2013-03-13 17:49:00,
2013-03-13 12:50:00,41.8,19.3,30.51,NW,321,11.0,11.0,40,0.00,,---,0.00,VWS V14.00,2013-03-13 17:50:00,
2013-03-13 12:51:00,41.8,19.3,30.51,NW,323,7.0,11.0,40,0.00,,---,0.00,VWS V14.00,2013-03-13 17:51:00,
2013-03-13 12:52:00,41.9,18.8,30.51,NW,313,11.0,14.0,39,0.00,,---,0.00,VWS V14.00,2013-03-13 17:52:00,
2013-03-13 12:53:00,41.9,18.8,30.51,NW,312,4.0,14.0,39,0.00,,---,0.00,VWS V14.00,2013-03-13 17:53:00,
2013-03-13 12:54:00,42.2,19.0,30.51,NW,313,4.0,5.0,39,0.00,,---,0.00,VWS V14.00,2013-03-13 17:54:00,
2013-03-13 12:55:00,42.1,19.0,30.51,NW,313,3.0,3.0,39,0.00,,---,0.00,VWS V14.00,2013-03-13 17:55:00,
2013-03-13 12:56:00,42.2,19.0,30.51,NW,313,10.0,10.0,39,0.00,,---,0.00,VWS V14.00,2013-03-13 17:56:00,
2013-03-13 12:57:00,42.2,19.0,30.51,NW,317,5.0,10.0,39,0.00,,---,0.00,VWS V14.00,2013-03-13 17:57:00,
2013-03-13 12:58:00,42.2,18.4,30.51,NW,317,1.0,5.0,38,0.00,,---,0.00,VWS V14.00,2013-03-13 17:58:00,
2013-03-13 12:59:00,42.3,17.9,30.51,NNW,346,9.0,12.0,37,0.00,,---,0.00,VWS V14.00,2013-03-13 17:59:00,
2013-03-13 13:00:00,42.3,18.5,30.51,NNW,345,12.0,14.0,38,0.00,,---,0.00,VWS V14.00,2013-03-13 18:00:00,
2013-03-13 13:01:00,42.3,17.9,30.51,NNW,346,8.0,12.0,37,0.00,,---,0.00,VWS V14.00,2013-03-13 18:01:00,
2013-03-13 13:02:00,42.3,17.3,30.52,NNW,346,0.0,8.0,36,0.00,,---,0.00,VWS V14.00,2013-03-13 18:02:00,
2013-03-13 13:03:00,42.3,17.9,30.52,NNW,346,1.0,3.0,37,0.00,,---,0.00,VWS V14.00,2013-03-13 18:03:00,
2013-03-13 13:04:00,42.5,18.1,30.52,WNW,298,5.0,7.0,37,0.00,,---,0.00,VWS V14.00,2013-03-13 18:04:00,
2013-03-13 13:05:00,42.3,17.9,30.52,NW,310,5.0,9.0,37,0.00,,---,0.00,VWS V14.00,2013-03-13 18:05:00,
2013-03-13 13:06:00,42.5,18.1,30.52,WNW,298,5.0,7.0,37,0.00,,---,0.00,VWS V14.00,2013-03-13 18:06:00,
2013-03-13 13:07:00,42.5,18.1,30.52,WNW,300,9.0,10.0,37,0.00,,---,0.00,VWS V14.00,2013-03-13 18:07:00,
2013-03-13 13:08:00,42.6,18.8,30.52,NW,319,10.0,10.0,38,0.00,,---,0.00,VWS V14.00,2013-03-13 18:08:00,
2013-03-13 13:09:00,42.9,19.1,30.52,NNW,335,7.0,10.0,38,0.00,,---,0.00,VWS V14.00,2013-03-13 18:09:00,
2013-03-13 13:10:00,42.8,19.0,30.52,NNW,333,4.0,7.0,38,0.00,,---,0.00,VWS V14.00,2013-03-13 18:10:00,
2013-03-13 13:11:00,42.9,19.1,30.52,NNW,335,3.0,10.0,38,0.00,,---,0.00,VWS V14.00,2013-03-13 18:11:00,
2013-03-13 13:12:00,43.1,18.6,30.52,NNW,335,6.0,6.0,37,0.00,,---,0.00,VWS V14.00,2013-03-13 18:12:00,
2013-03-13 13:13:00,43.1,19.2,30.52,NNW,335,4.0,6.0,38,0.00,,---,0.00,VWS V14.00,2013-03-13 18:13:00,
2013-03-13 13:14:00,43.3,18.8,30.52,NW,321,5.0,9.0,37,0.00,,---,0.00,VWS V14.00,2013-03-13 18:14:00,
2013-03-13 13:15:00,43.3,18.8,30.52,NW,320,3.0,10.0,37,0.00,,---,0.00,VWS V14.00,2013-03-13 18:15:00,
2013-03-13 13:16:00,43.3,18.8,30.52,NW,323,11.0,11.0,37,0.00,,---,0.00,VWS V14.00,2013-03-13 18:16:00,
2013-03-13 13:17:00,43.5,18.3,30.52,NW,324,0.0,11.0,36,0.00,,---,0.00,VWS V14.00,2013-03-13 18:17:00,
2013-03-13 13:18:00,43.5,18.3,30.52,NW,319,5.0,8.0,36,0.00,,---,0.00,VWS V14.00,2013-03-13 18:18:00,
2013-03-13 13:19:00,43.8,18.0,30.52,NNE,13,5.0,7.0,35,0.00,,---,0.00,VWS V14.00,2013-03-13 18:19:00,
2013-03-13 13:20:00,43.8,18.0,30.52,North,11,6.0,7.0,35,0.00,,---,0.00,VWS V14.00,2013-03-13 18:20:00,
2013-03-13 13:21:00,43.8,18.0,30.52,NNE,13,3.0,7.0,35,0.00,,---,0.00,VWS V14.00,2013-03-13 18:21:00,
2013-03-13 13:22:00,43.9,18.7,30.52,North,360,5.0,6.0,36,0.00,,---,0.00,VWS V14.00,2013-03-13 18:22:00,
2013-03-13 13:23:00,44.1,19.5,30.52,WNW,302,1.0,7.0,37,0.00,,---,0.00,VWS V14.00,2013-03-13 18:23:00,
2013-03-13 13:24:00,44.2,19.0,30.52,NW,306,0.0,0.0,36,0.00,,---,0.00,VWS V14.00,2013-03-13 18:24:00,
2013-03-13 13:25:00,44.1,18.9,30.52,NW,306,0.0,4.0,36,0.00,,---,0.00,VWS V14.00,2013-03-13 18:25:00,
2013-03-13 13:26:00,44.2,19.0,30.52,NW,306,5.0,5.0,36,0.00,,---,0.00,VWS V14.00,2013-03-13 18:26:00,
2013-03-13 13:27:00,44.3,19.7,30.51,NW,306,5.0,6.0,37,0.00,,---,0.00,VWS V14.00,2013-03-13 18:27:00,
2013-03-13 13:28:00,44.3,19.7,30.51,NW,307,0.0,7.0,37,0.00,,---,0.00,VWS V14.00,2013-03-13 18:28:00,
2013-03-13 13:29:00,44.6,19.3,30.50,NW,307,5.0,7.0,36,0.00,,---,0.00,VWS V14.00,2013-03-13 18:29:00,
2013-03-13 13:30:00,44.6,19.3,30.50,NW,307,1.0,3.0,36,0.00,,---,0.00,VWS V14.00,2013-03-13 18:30:00,
2013-03-13 13:31:00,44.6,18.7,30.50,NW,308,5.0,7.0,35,0.00,,---,0.00,VWS V14.00,2013-03-13 18:31:00,
2013-03-13 13:32:00,44.8,19.5,30.50,NW,308,0.0,5.0,36,0.00,,---,0.00,VWS V14.00,2013-03-13 18:32:00,
2013-03-13 13:33:00,44.9,19.6,30.50,NW,308,0.0,0.0,36,0.00,,---,0.00,VWS V14.00,2013-03-13 18:33:00,
2013-03-13 13:34:00,45.2,19.9,30.50,NW,308,0.0,1.0,36,0.00,,---,0.00,VWS V14.00,2013-03-13 18:34:00,
2013-03-13 13:35:00,45.1,19.8,30.50,NW,308,0.0,0.0,36,0.00,,---,0.00,VWS V14.00,2013-03-13 18:35:00,
2013-03-13 13:36:00,45.2,19.9,30.50,NW,308,0.0,1.0,36,0.00,,---,0.00,VWS V14.00,2013-03-13 18:36:00,
2013-03-13 13:37:00,45.4,20.0,30.50,NW,308,0.0,2.0,36,0.00,,---,0.00,VWS V14.00,2013-03-13 18:37:00,
2013-03-13 13:38:00,45.5,20.1,30.50,NW,308,0.0,2.0,36,0.00,,---,0.00,VWS V14.00,2013-03-13 18:38:00,
2013-03-13 13:39:00,45.8,19.7,30.50,NW,308,2.0,2.0,35,0.00,,---,0.00,VWS V14.00,2013-03-13 18:39:00,
2013-03-13 13:40:00,45.7,20.3,30.50,NW,308,2.0,4.0,36,0.00,,---,0.00,VWS V14.00,2013-03-13 18:40:00,
2013-03-13 13:41:00,45.8,19.7,30.50,NW,308,6.0,6.0,35,0.00,,---,0.00,VWS V14.00,2013-03-13 18:41:00,
2013-03-13 13:42:00,45.8,18.4,30.50,NW,314,7.0,10.0,33,0.00,,---,0.00,VWS V14.00,2013-03-13 18:42:00,
2013-03-13 13:43:00,45.8,19.0,30.50,NW,315,4.0,7.0,34,0.00,,---,0.00,VWS V14.00,2013-03-13 18:43:00,
2013-03-13 13:44:00,46.0,18.5,30.50,NW,315,0.0,3.0,33,0.00,,---,0.00,VWS V14.00,2013-03-13 18:44:00,
2013-03-13 13:45:00,46.0,18.5,30.50,NW,315,3.0,3.0,33,0.00,,---,0.00,VWS V14.00,2013-03-13 18:45:00,
2013-03-13 13:46:00,46.0,18.5,30.50,NW,315,7.0,7.0,33,0.00,,---,0.00,VWS V14.00,2013-03-13 18:46:00,
2013-03-13 13:47:00,46.0,18.5,30.50,NW,323,11.0,12.0,33,0.00,,---,0.00,VWS V14.00,2013-03-13 18:47:00,
2013-03-13 13:48:00,45.8,16.9,30.50,NW,323,8.0,11.0,31,0.00,,---,0.00,VWS V14.00,2013-03-13 18:48:00,
2013-03-13 13:49:00,45.7,16.1,30.50,NW,326,8.0,13.0,30,0.00,,---,0.00,VWS V14.00,2013-03-13 18:49:00,
2013-03-13 13:50:00,45.7,16.8,30.50,NW,322,11.0,11.0,31,0.00,,---,0.00,VWS V14.00,2013-03-13 18:50:00,
2013-03-13 13:51:00,45.7,16.1,30.50,NNW,339,10.0,13.0,30,0.00,,---,0.00,VWS V14.00,2013-03-13 18:51:00,
2013-03-13 13:52:00,45.7,16.1,30.50,NNW,341,7.0,11.0,30,0.00,,---,0.00,VWS V14.00,2013-03-13 18:52:00,
2013-03-13 13:53:00,45.5,15.9,30.50,NNW,337,14.0,16.0,30,0.00,,---,0.00,VWS V14.00,2013-03-13 18:53:00,
2013-03-13 13:54:00,45.5,15.1,30.50,NNW,338,7.0,15.0,29,0.00,,---,0.00,VWS V14.00,2013-03-13 18:54:00,
2013-03-13 13:55:00,45.5,15.9,30.50,NW,323,11.0,13.0,30,0.00,,---,0.00,VWS V14.00,2013-03-13 18:55:00,
2013-03-13 13:56:00,45.5,15.1,30.50,NNW,327,9.0,15.0,29,0.00,,---,0.00,VWS V14.00,2013-03-13 18:56:00,
2013-03-13 13:57:00,45.5,15.9,30.50,NNW,333,13.0,13.0,30,0.00,,---,0.00,VWS V14.00,2013-03-13 18:57:00,
2013-03-13 13:58:00,45.5,15.1,30.50,NW,325,11.0,13.0,29,0.00,,---,0.00,VWS V14.00,2013-03-13 18:58:00,
2013-03-13 13:59:00,45.7,15.3,30.50,NW,319,11.0,14.0,29,0.00,,---,0.00,VWS V14.00,2013-03-13 18:59:00,
2013-03-13 14:00:00,45.7,15.3,30.50,NNW,333,10.0,13.0,29,0.00,,---,0.00,VWS V14.00,2013-03-13 19:00:00,
2013-03-13 14:01:00,45.7,16.1,30.50,NNW,335,8.0,14.0,30,0.00,,---,0.00,VWS V14.00,2013-03-13 19:01:00,
2013-03-13 14:02:00,45.7,16.8,30.50,NNW,338,14.0,15.0,31,0.00,,---,0.00,VWS V14.00,2013-03-13 19:02:00,
2013-03-13 14:03:00,45.7,14.5,30.50,NNW,335,10.0,16.0,28,0.00,,---,0.00,VWS V14.00,2013-03-13 19:03:00,
2013-03-13 14:04:00,45.7,15.3,30.50,NNW,340,13.0,14.0,29,0.00,,---,0.00,VWS V14.00,2013-03-13 19:04:00,
2013-03-13 14:05:00,45.7,15.3,30.50,NNW,331,7.0,12.0,29,0.00,,---,0.00,VWS V14.00,2013-03-13 19:05:00,
2013-03-13 14:06:00,45.7,15.3,30.50,NNW,340,6.0,14.0,29,0.00,,---,0.00,VWS V14.00,2013-03-13 19:06:00,
2013-03-13 14:07:00,45.7,15.3,30.50,NNW,337,8.0,9.0,29,0.00,,---,0.00,VWS V14.00,2013-03-13 19:07:00,
2013-03-13 14:08:00,45.7,15.3,30.50,NNW,331,10.0,12.0,29,0.00,,---,0.00,VWS V14.00,2013-03-13 19:08:00,
2013-03-13 14:09:00,45.7,15.3,30.50,NNW,335,6.0,6.0,29,0.00,,---,0.00,VWS V14.00,2013-03-13 19:09:00,
2013-03-13 14:10:00,45.7,15.3,30.50,NNW,335,4.0,10.0,29,0.00,,---,0.00,VWS V14.00,2013-03-13 19:10:00,
2013-03-13 14:11:00,45.7,15.3,30.50,NNE,33,9.0,10.0,29,0.00,,---,0.00,VWS V14.00,2013-03-13 19:11:00,
2013-03-13 14:12:00,45.8,16.9,30.50,North,360,6.0,11.0,31,0.00,,---,0.00,VWS V14.00,2013-03-13 19:12:00,
2013-03-13 14:13:00,45.8,15.4,30.49,NW,322,12.0,12.0,29,0.00,,---,0.00,VWS V14.00,2013-03-13 19:13:00,
2013-03-13 14:14:00,45.8,15.4,30.50,NW,314,3.0,11.0,29,0.00,,---,0.00,VWS V14.00,2013-03-13 19:14:00,
2013-03-13 14:15:00,45.8,14.6,30.50,NNW,333,9.0,11.0,28,0.00,,---,0.00,VWS V14.00,2013-03-13 19:15:00,
2013-03-13 14:16:00,45.8,15.4,30.50,NW,314,3.0,11.0,29,0.00,,---,0.00,VWS V14.00,2013-03-13 19:16:00,
2013-03-13 14:17:00,45.8,15.4,30.50,NW,319,4.0,9.0,29,0.00,,---,0.00,VWS V14.00,2013-03-13 19:17:00,
2013-03-13 14:18:00,45.8,15.4,30.50,NW,322,8.0,13.0,29,0.00,,---,0.00,VWS V14.00,2013-03-13 19:18:00,
2013-03-13 14:19:00,45.8,16.1,30.50,NW,321,7.0,7.0,30,0.00,,---,0.00,VWS V14.00,2013-03-13 19:19:00,
2013-03-13 14:20:00,45.8,16.1,30.50,NW,321,2.0,9.0,30,0.00,,---,0.00,VWS V14.00,2013-03-13 19:20:00,
2013-03-13 14:21:00,45.8,16.1,30.50,NW,321,11.0,11.0,30,0.00,,---,0.00,VWS V14.00,2013-03-13 19:21:00,
2013-03-13 14:22:00,45.8,16.1,30.50,NW,322,6.0,11.0,30,0.00,,---,0.00,VWS V14.00,2013-03-13 19:22:00,
2013-03-13 14:23:00,45.8,16.1,30.49,NW,323,4.0,7.0,30,0.00,,---,0.00,VWS V14.00,2013-03-13 19:23:00,
2013-03-13 14:24:00,45.8,16.9,30.49,North,355,6.0,9.0,31,0.00,,---,0.00,VWS V14.00,2013-03-13 19:24:00,
2013-03-13 14:25:00,45.8,15.4,30.49,North,9,6.0,12.0,29,0.00,,---,0.00,VWS V14.00,2013-03-13 19:25:00,
2013-03-13 14:26:00,45.8,16.9,30.49,North,355,4.0,9.0,31,0.00,,---,0.00,VWS V14.00,2013-03-13 19:26:00,
2013-03-13 14:27:00,45.8,17.6,30.49,NNW,344,5.0,10.0,32,0.00,,---,0.00,VWS V14.00,2013-03-13 19:27:00,
2013-03-13 14:28:00,46.0,17.1,30.49,NNW,335,9.0,13.0,31,0.00,,---,0.00,VWS V14.00,2013-03-13 19:28:00,
2013-03-13 14:29:00,46.0,14.7,30.49,NNW,336,3.0,3.0,28,0.00,,---,0.00,VWS V14.00,2013-03-13 19:29:00,
2013-03-13 14:30:00,46.0,14.7,30.49,NNW,336,0.0,7.0,28,0.00,,---,0.00,VWS V14.00,2013-03-13 19:30:00,
2013-03-13 14:31:00,46.0,15.5,30.49,NNW,336,0.0,3.0,29,0.00,,---,0.00,VWS V14.00,2013-03-13 19:31:00,
2013-03-13 14:32:00,46.0,16.3,30.49,NNW,331,9.0,9.0,30,0.00,,---,0.00,VWS V14.00,2013-03-13 19:32:00,
2013-03-13 14:33:00,46.0,16.3,30.49,NNW,342,10.0,14.0,30,0.00,,---,0.00,VWS V14.00,2013-03-13 19:33:00,
2013-03-13 14:34:00,46.0,16.3,30.49,NNW,334,11.0,12.0,30,0.00,,---,0.00,VWS V14.00,2013-03-13 19:34:00,
2013-03-13 14:35:00,46.0,16.3,30.49,NNW,338,8.0,12.0,30,0.00,,---,0.00,VWS V14.00,2013-03-13 19:35:00,
2013-03-13 14:36:00,46.0,15.5,30.49,NNW,333,8.0,12.0,29,0.00,,---,0.00,VWS V14.00,2013-03-13 19:36:00,
2013-03-13 14:37:00,46.0,15.5,30.49,NNW,339,11.0,11.0,29,0.00,,---,0.00,VWS V14.00,2013-03-13 19:37:00,
2013-03-13 14:38:00,46.0,14.7,30.49,NNW,346,6.0,12.0,28,0.00,,---,0.00,VWS V14.00,2013-03-13 19:38:00,
2013-03-13 14:39:00,46.0,16.3,30.49,NNW,340,6.0,7.0,30,0.00,,---,0.00,VWS V14.00,2013-03-13 19:39:00,
2013-03-13 14:40:00,46.0,16.3,30.49,NNW,341,7.0,11.0,30,0.00,,---,0.00,VWS V14.00,2013-03-13 19:40:00,
2013-03-13 14:41:00,46.1,16.4,30.49,NNW,340,5.0,7.0,30,0.00,,---,0.00,VWS V14.00,2013-03-13 19:41:00,
2013-03-13 14:42:00,46.1,16.4,30.49,NNW,340,10.0,10.0,30,0.00,,---,0.00,VWS V14.00,2013-03-13 19:42:00,
2013-03-13 14:43:00,46.1,15.6,30.49,NNW,344,7.0,12.0,29,0.00,,---,0.00,VWS V14.00,2013-03-13 19:43:00,
2013-03-13 14:44:00,46.2,18.0,30.48,NNW,329,10.0,11.0,32,0.00,,---,0.00,VWS V14.00,2013-03-13 19:44:00,
2013-03-13 14:45:00,46.2,16.5,30.48,NNW,336,8.0,13.0,30,0.00,,---,0.00,VWS V14.00,2013-03-13 19:45:00,
2013-03-13 14:46:00,46.2,18.0,30.48,NNW,328,5.0,11.0,32,0.00,,---,0.00,VWS V14.00,2013-03-13 19:46:00,
2013-03-13 14:47:00,46.2,16.5,30.48,WNW,293,11.0,11.0,30,0.00,,---,0.00,VWS V14.00,2013-03-13 19:47:00,
2013-03-13 14:48:00,46.4,16.7,30.48,WNW,292,2.0,11.0,30,0.00,,---,0.00,VWS V14.00,2013-03-13 19:48:00,
2013-03-13 14:49:00,46.5,16.8,30.48,North,355,4.0,10.0,30,0.00,,---,0.00,VWS V14.00,2013-03-13 19:49:00,
2013-03-13 14:50:00,46.5,16.8,30.48,North,355,10.0,11.0,30,0.00,,---,0.00,VWS V14.00,2013-03-13 19:50:00,
2013-03-13 14:51:00,46.5,16.8,30.48,North,355,2.0,10.0,30,0.00,,---,0.00,VWS V14.00,2013-03-13 19:51:00,
2013-03-13 14:52:00,46.5,16.8,30.48,NNW,348,10.0,12.0,30,0.00,,---,0.00,VWS V14.00,2013-03-13 19:52:00,
2013-03-13 14:53:00,46.4,15.9,30.48,NNW,348,4.0,10.0,29,0.00,,---,0.00,VWS V14.00,2013-03-13 19:53:00,
2013-03-13 14:54:00,46.2,17.2,30.48,NNW,347,4.0,7.0,31,0.00,,---,0.00,VWS V14.00,2013-03-13 19:54:00,
2013-03-13 14:55:00,46.4,15.9,30.48,NNW,348,7.0,10.0,29,0.00,,---,0.00,VWS V14.00,2013-03-13 19:55:00,
2013-03-13 14:56:00,46.2,17.2,30.48,NNW,347,5.0,7.0,31,0.00,,---,0.00,VWS V14.00,2013-03-13 19:56:00,
2013-03-13 14:57:00,46.2,16.5,30.48,NNW,347,4.0,5.0,30,0.00,,---,0.00,VWS V14.00,2013-03-13 19:57:00,
2013-03-13 14:58:00,46.2,16.5,30.48,NNW,344,5.0,12.0,30,0.00,,---,0.00,VWS V14.00,2013-03-13 19:58:00,
2013-03-13 14:59:00,46.4,16.7,30.48,NW,308,7.0,10.0,30,0.00,,---,0.00,VWS V14.00,2013-03-13 19:59:00,
2013-03-13 15:00:00,46.4,16.7,30.48,NNW,332,9.0,9.0,30,0.00,,---,0.00,VWS V14.00,2013-03-13 20:00:00,
2013-03-13 15:01:00,46.4,16.7,30.48,NW,307,6.0,10.0,30,0.00,,---,0.00,VWS V14.00,2013-03-13 20:01:00,
2013-03-13 15:02:00,46.5,16.8,30.48,NW,309,5.0,10.0,30,0.00,,---,0.00,VWS V14.00,2013-03-13 20:02:00,
2013-03-13 15:03:00,46.7,16.9,30.48,WNW,301,10.0,11.0,30,0.00,,---,0.00,VWS V14.00,2013-03-13 20:03:00,
2013-03-13 15:04:00,46.7,16.1,30.48,NW,304,9.0,10.0,29,0.00,,---,0.00,VWS V14.00,2013-03-13 20:04:00,
2013-03-13 15:05:00,46.7,16.1,30.48,WNW,302,6.0,7.0,29,0.00,,---,0.00,VWS V14.00,2013-03-13 20:05:00,
2013-03-13 15:06:00,46.7,16.1,30.48,NW,306,11.0,11.0,29,0.00,,---,0.00,VWS V14.00,2013-03-13 20:06:00,
2013-03-13 15:07:00,46.8,17.0,30.48,NW,316,9.0,11.0,30,0.00,,---,0.00,VWS V14.00,2013-03-13 20:07:00,
2013-03-13 15:08:00,46.8,16.2,30.47,NW,315,3.0,9.0,29,0.00,,---,0.00,VWS V14.00,2013-03-13 20:08:00,
2013-03-13 15:09:00,47.0,17.2,30.47,NNW,346,2.0,9.0,30,0.00,,---,0.00,VWS V14.00,2013-03-13 20:09:00,
2013-03-13 15:10:00,47.0,17.2,30.47,NW,318,5.0,10.0,30,0.00,,---,0.00,VWS V14.00,2013-03-13 20:10:00,
2013-03-13 15:11:00,47.0,17.2,30.47,NNW,346,2.0,9.0,30,0.00,,---,0.00,VWS V14.00,2013-03-13 20:11:00,
2013-03-13 15:12:00,47.0,18.0,30.47,NNW,347,2.0,7.0,31,0.00,,---,0.00,VWS V14.00,2013-03-13 20:12:00,
2013-03-13 15:13:00,47.0,17.2,30.47,NNW,347,1.0,2.0,30,0.00,,---,0.00,VWS V14.00,2013-03-13 20:13:00,
2013-03-13 15:14:00,47.0,18.0,30.47,NNW,348,10.0,10.0,31,0.00,,---,0.00,VWS V14.00,2013-03-13 20:14:00,
2013-03-13 15:15:00,47.0,17.2,30.47,North,360,2.0,7.0,30,0.00,,---,0.00,VWS V14.00,2013-03-13 20:15:00,
2013-03-13 15:16:00,47.0,18.0,30.47,NNW,348,7.0,10.0,31,0.00,,---,0.00,VWS V14.00,2013-03-13 20:16:00,
2013-03-13 15:17:00,47.0,18.0,30.47,NNW,337,8.0,10.0,31,0.00,,---,0.00,VWS V14.00,2013-03-13 20:17:00,
2013-03-13 15:18:00,47.0,16.4,30.47,NNW,336,4.0,10.0,29,0.00,,---,0.00,VWS V14.00,2013-03-13 20:18:00,
2013-03-13 15:19:00,47.0,17.2,30.47,NNW,328,5.0,5.0,30,0.00,,---,0.00,VWS V14.00,2013-03-13 20:19:00,
2013-03-13 15:20:00,47.1,18.0,30.47,NNW,328,3.0,7.0,31,0.00,,---,0.00,VWS V14.00,2013-03-13 20:20:00,
2013-03-13 15:21:00,47.1,17.3,30.47,NW,326,8.0,9.0,30,0.00,,---,0.00,VWS V14.00,2013-03-13 20:21:00,
2013-03-13 15:22:00,47.0,16.4,30.47,NW,323,2.0,8.0,29,0.00,,---,0.00,VWS V14.00,2013-03-13 20:22:00,
2013-03-13 15:23:00,47.0,16.4,30.47,NW,323,0.0,3.0,29,0.00,,---,0.00,VWS V14.00,2013-03-13 20:23:00,
2013-03-13 15:24:00,47.3,17.5,30.47,NW,323,5.0,5.0,30,0.00,,---,0.00,VWS V14.00,2013-03-13 20:24:00,
2013-03-13 15:25:00,47.1,17.3,30.47,NW,323,1.0,6.0,30,0.00,,---,0.00,VWS V14.00,2013-03-13 20:25:00,
2013-03-13 15:26:00,47.3,17.5,30.47,NW,325,9.0,9.0,30,0.00,,---,0.00,VWS V14.00,2013-03-13 20:26:00,
2013-03-13 15:27:00,47.3,17.5,30.47,NNW,327,10.0,11.0,30,0.00,,---,0.00,VWS V14.00,2013-03-13 20:27:00,
2013-03-13 15:28:00,47.3,15.9,30.47,NNW,330,9.0,10.0,28,0.00,,---,0.00,VWS V14.00,2013-03-13 20:28:00,
2013-03-13 15:29:00,47.1,15.7,30.47,WNW,288,9.0,12.0,28,0.00,,---,0.00,VWS V14.00,2013-03-13 20:29:00,
2013-03-13 15:30:00,47.3,16.7,30.47,NW,311,5.0,10.0,29,0.00,,---,0.00,VWS V14.00,2013-03-13 20:30:00,
2013-03-13 15:31:00,47.1,15.7,30.47,WNW,288,9.0,12.0,28,0.00,,---,0.00,VWS V14.00,2013-03-13 20:31:00,
2013-03-13 15:32:00,47.3,15.9,30.47,WNW,288,4.0,10.0,28,0.00,,---,0.00,VWS V14.00,2013-03-13 20:32:00,
2013-03-13 15:33:00,47.3,15.9,30.47,WNW,288,8.0,10.0,28,0.00,,---,0.00,VWS V14.00,2013-03-13 20:33:00,
2013-03-13 15:34:00,47.3,15.9,30.46,WNW,286,7.0,10.0,28,0.00,,---,0.00,VWS V14.00,2013-03-13 20:34:00,
2013-03-13 15:35:00,47.3,15.9,30.47,WNW,288,6.0,6.0,28,0.00,,---,0.00,VWS V14.00,2013-03-13 20:35:00,
2013-03-13 15:36:00,47.3,15.9,30.46,WNW,288,8.0,10.0,28,0.00,,---,0.00,VWS V14.00,2013-03-13 20:36:00,
2013-03-13 15:37:00,47.4,15.9,30.46,NW,309,5.0,10.0,28,0.00,,---,0.00,VWS V14.00,2013-03-13 20:37:00,
2013-03-13 15:38:00,47.4,15.9,30.46,NW,306,4.0,7.0,28,0.00,,---,0.00,VWS V14.00,2013-03-13 20:38:00,
2013-03-13 15:39:00,47.6,16.1,30.46,NW,304,5.0,7.0,28,0.00,,---,0.00,VWS V14.00,2013-03-13 20:39:00,
2013-03-13 15:40:00,47.6,16.1,30.46,NW,307,3.0,5.0,28,0.00,,---,0.00,VWS V14.00,2013-03-13 20:40:00,
2013-03-13 15:41:00,47.7,16.2,30.46,WNW,303,7.0,8.0,28,0.00,,---,0.00,VWS V14.00,2013-03-13 20:41:00,
2013-03-13 15:42:00,47.9,17.2,30.46,WNW,303,5.0,9.0,29,0.00,,---,0.00,VWS V14.00,2013-03-13 20:42:00,
2013-03-13 15:43:00,47.9,16.4,30.46,WNW,303,4.0,6.0,28,0.00,,---,0.00,VWS V14.00,2013-03-13 20:43:00,
2013-03-13 15:44:00,48.0,16.5,30.45,WNW,303,1.0,2.0,28,0.00,,---,0.00,VWS V14.00,2013-03-13 20:44:00,
2013-03-13 15:45:00,48.0,16.5,30.45,WNW,303,2.0,6.0,28,0.00,,---,0.00,VWS V14.00,2013-03-13 20:45:00,
2013-03-13 15:46:00,48.0,16.5,30.45,WNW,303,0.0,2.0,28,0.00,,---,0.00,VWS V14.00,2013-03-13 20:46:00,
2013-03-13 15:47:00,48.0,15.6,30.45,WNW,303,4.0,4.0,27,0.00,,---,0.00,VWS V14.00,2013-03-13 20:47:00,
2013-03-13 15:48:00,48.0,16.5,30.45,WNW,303,1.0,4.0,28,0.00,,---,0.00,VWS V14.00,2013-03-13 20:48:00,
2013-03-13 15:49:00,48.0,16.5,30.45,WNW,303,4.0,4.0,28,0.00,,---,0.00,VWS V14.00,2013-03-13 20:49:00,
2013-03-13 15:50:00,48.0,15.6,30.45,WNW,303,4.0,6.0,27,0.00,,---,0.00,VWS V14.00,2013-03-13 20:50:00,
2013-03-13 15:51:00,48.0,16.5,30.45,NW,304,5.0,6.0,28,0.00,,---,0.00,VWS V14.00,2013-03-13 20:51:00,
2013-03-13 15:52:00,48.0,16.5,30.45,NW,305,3.0,7.0,28,0.00,,---,0.00,VWS V14.00,2013-03-13 20:52:00,
2013-03-13 15:53:00,48.2,16.6,30.45,NW,305,10.0,10.0,28,0.00,,---,0.00,VWS V14.00,2013-03-13 20:53:00,
2013-03-13 15:54:00,48.2,16.6,30.45,NW,305,3.0,4.0,28,0.00,,---,0.00,VWS V14.00,2013-03-13 20:54:00,
2013-03-13 15:55:00,48.2,15.8,30.45,NW,305,0.0,4.0,27,0.00,,---,0.00,VWS V14.00,2013-03-13 20:55:00,
2013-03-13 15:56:00,48.2,16.6,30.45,NW,305,2.0,4.0,28,0.00,,---,0.00,VWS V14.00,2013-03-13 20:56:00,
2013-03-13 15:57:00,48.2,15.8,30.45,NW,305,5.0,6.0,27,0.00,,---,0.00,VWS V14.00,2013-03-13 20:57:00,
2013-03-13 15:58:00,48.2,16.6,30.45,NW,305,6.0,6.0,28,0.00,,---,0.00,VWS V14.00,2013-03-13 20:58:00,
2013-03-13 15:59:00,48.5,16.9,30.45,NW,306,5.0,9.0,28,0.00,,---,0.00,VWS V14.00,2013-03-13 20:59:00,
2013-03-13 16:00:00,48.5,16.9,30.45,NW,306,9.0,9.0,28,0.00,,---,0.00,VWS V14.00,2013-03-13 21:00:00,
2013-03-13 16:01:00,48.5,16.9,30.45,NW,306,3.0,9.0,28,0.00,,---,0.00,VWS V14.00,2013-03-13 21:01:00,
2013-03-13 16:02:00,48.6,17.0,30.45,NW,306,2.0,4.0,28,0.00,,---,0.00,VWS V14.00,2013-03-13 21:02:00,
2013-03-13 16:03:00,48.6,17.0,30.45,NW,306,0.0,2.0,28,0.00,,---,0.00,VWS V14.00,2013-03-13 21:03:00,
2013-03-13 16:04:00,48.8,16.3,30.45,NW,306,3.0,3.0,27,0.00,,---,0.00,VWS V14.00,2013-03-13 21:04:00,
2013-03-13 16:05:00,48.8,17.2,30.45,NW,306,2.0,6.0,28,0.00,,---,0.00,VWS V14.00,2013-03-13 21:05:00,
2013-03-13 16:06:00,48.8,16.3,30.45,NW,306,4.0,6.0,27,0.00,,---,0.00,VWS V14.00,2013-03-13 21:06:00,
2013-03-13 16:07:00,48.8,17.2,30.45,NW,306,5.0,7.0,28,0.00,,---,0.00,VWS V14.00,2013-03-13 21:07:00,
2013-03-13 16:08:00,48.8,16.3,30.45,NW,306,7.0,9.0,27,0.00,,---,0.00,VWS V14.00,2013-03-13 21:08:00,
2013-03-13 16:09:00,48.6,17.0,30.45,NW,306,4.0,4.0,28,0.00,,---,0.00,VWS V14.00,2013-03-13 21:09:00,
2013-03-13 16:10:00,48.6,16.1,30.45,NW,306,4.0,7.0,27,0.00,,---,0.00,VWS V14.00,2013-03-13 21:10:00,
2013-03-13 16:11:00,48.6,17.0,30.45,NW,306,5.0,5.0,28,0.00,,---,0.00,VWS V14.00,2013-03-13 21:11:00,
2013-03-13 16:12:00,48.6,17.0,30.45,NW,306,4.0,6.0,28,0.00,,---,0.00,VWS V14.00,2013-03-13 21:12:00,
2013-03-13 16:13:00,48.6,16.1,30.45,NW,304,7.0,11.0,27,0.00,,---,0.00,VWS V14.00,2013-03-13 21:13:00,
2013-03-13 16:14:00,48.8,16.3,30.45,NW,305,5.0,8.0,27,0.00,,---,0.00,VWS V14.00,2013-03-13 21:14:00,
2013-03-13 16:15:00,48.8,16.3,30.45,NW,305,6.0,11.0,27,0.00,,---,0.00,VWS V14.00,2013-03-13 21:15:00,
2013-03-13 16:16:00,48.8,15.4,30.45,NW,305,4.0,8.0,26,0.00,,---,0.00,VWS V14.00,2013-03-13 21:16:00,
2013-03-13 16:17:00,48.8,16.3,30.45,NW,305,7.0,7.0,27,0.00,,---,0.00,VWS V14.00,2013-03-13 21:17:00,
2013-03-13 16:18:00,48.8,16.3,30.45,NW,306,3.0,9.0,27,0.00,,---,0.00,VWS V14.00,2013-03-13 21:18:00,
2013-03-13 16:19:00,48.9,15.5,30.45,NW,305,7.0,9.0,26,0.00,,---,0.00,VWS V14.00,2013-03-13 21:19:00,
2013-03-13 16:20:00,48.9,16.4,30.45,NW,305,6.0,10.0,27,0.00,,---,0.00,VWS V14.00,2013-03-13 21:20:00,
2013-03-13 16:21:00,48.9,15.5,30.45,NW,305,6.0,9.0,26,0.00,,---,0.00,VWS V14.00,2013-03-13 21:21:00,
2013-03-13 16:22:00,49.1,16.6,30.45,NW,305,6.0,7.0,27,0.00,,---,0.00,VWS V14.00,2013-03-13 21:22:00,
2013-03-13 16:23:00,49.1,16.6,30.45,NW,305,8.0,8.0,27,0.00,,---,0.00,VWS V14.00,2013-03-13 21:23:00,
2013-03-13 16:24:00,49.1,15.7,30.45,NW,305,4.0,7.0,26,0.00,,---,0.00,VWS V14.00,2013-03-13 21:24:00,
2013-03-13 16:25:00,49.1,15.7,30.45,NW,305,2.0,7.0,26,0.00,,---,0.00,VWS V14.00,2013-03-13 21:25:00,
2013-03-13 16:26:00,49.1,14.8,30.45,NW,305,10.0,10.0,25,0.00,,---,0.00,VWS V14.00,2013-03-13 21:26:00,
2013-03-13 16:27:00,49.1,13.9,30.45,NW,305,7.0,11.0,24,0.00,,---,0.00,VWS V14.00,2013-03-13 21:27:00,
2013-03-13 16:28:00,49.1,14.8,30.45,NW,305,3.0,8.0,25,0.00,,---,0.00,VWS V14.00,2013-03-13 21:28:00,
2013-03-13 16:29:00,49.1,13.9,30.45,NW,305,4.0,6.0,24,0.00,,---,0.00,VWS V14.00,2013-03-13 21:29:00,
2013-03-13 16:30:00,49.1,13.9,30.45,NW,305,4.0,6.0,24,0.00,,---,0.00,VWS V14.00,2013-03-13 21:30:00,
2013-03-13 16:31:00,49.1,13.9,30.45,NW,305,6.0,6.0,24,0.00,,---,0.00,VWS V14.00,2013-03-13 21:31:00,
2013-03-13 16:32:00,49.2,14.0,30.45,NW,305,9.0,10.0,24,0.00,,---,0.00,VWS V14.00,2013-03-13 21:32:00,
2013-03-13 16:33:00,49.2,14.9,30.45,NW,305,7.0,9.0,25,0.00,,---,0.00,VWS V14.00,2013-03-13 21:33:00,
2013-03-13 16:34:00,49.2,14.9,30.45,NW,305,5.0,10.0,25,0.00,,---,0.00,VWS V14.00,2013-03-13 21:34:00,
2013-03-13 16:35:00,49.2,15.8,30.45,NW,305,4.0,5.0,26,0.00,,---,0.00,VWS V14.00,2013-03-13 21:35:00,
2013-03-13 16:36:00,49.2,14.9,30.45,NW,305,4.0,10.0,25,0.00,,---,0.00,VWS V14.00,2013-03-13 21:36:00,
2013-03-13 16:37:00,49.2,17.5,30.45,NW,306,3.0,10.0,28,0.00,,---,0.00,VWS V14.00,2013-03-13 21:37:00,
2013-03-13 16:38:00,49.4,15.1,30.45,NW,308,5.0,8.0,25,0.00,,---,0.00,VWS V14.00,2013-03-13 21:38:00,
2013-03-13 16:39:00,49.4,14.1,30.45,NW,311,6.0,9.0,24,0.00,,---,0.00,VWS V14.00,2013-03-13 21:39:00,
2013-03-13 16:40:00,49.4,15.1,30.45,NW,309,6.0,7.0,25,0.00,,---,0.00,VWS V14.00,2013-03-13 21:40:00,
2013-03-13 16:41:00,49.4,14.1,30.45,NW,311,3.0,9.0,24,0.00,,---,0.00,VWS V14.00,2013-03-13 21:41:00,
2013-03-13 16:42:00,49.4,15.1,30.45,NW,311,5.0,7.0,25,0.00,,---,0.00,VWS V14.00,2013-03-13 21:42:00,
2013-03-13 16:43:00,49.4,14.1,30.44,NW,311,6.0,6.0,24,0.00,,---,0.00,VWS V14.00,2013-03-13 21:43:00,
2013-03-13 16:44:00,49.4,14.1,30.44,NW,311,9.0,10.0,24,0.00,,---,0.00,VWS V14.00,2013-03-13 21:44:00,
2013-03-13 16:45:00,49.4,14.1,30.44,NW,311,7.0,7.0,24,0.00,,---,0.00,VWS V14.00,2013-03-13 21:45:00,
2013-03-13 16:46:00,49.4,14.1,30.44,NW,311,7.0,10.0,24,0.00,,---,0.00,VWS V14.00,2013-03-13 21:46:00,
2013-03-13 16:47:00,49.5,15.1,30.44,NW,311,1.0,7.0,25,0.00,,---,0.00,VWS V14.00,2013-03-13 21:47:00,
2013-03-13 16:48:00,49.5,15.1,30.44,NW,311,5.0,7.0,25,0.00,,---,0.00,VWS V14.00,2013-03-13 21:48:00,
2013-03-13 16:49:00,49.5,15.1,30.44,NW,311,6.0,7.0,25,0.00,,---,0.00,VWS V14.00,2013-03-13 21:49:00,
2013-03-13 16:50:00,49.5,15.1,30.44,NW,311,4.0,6.0,25,0.00,,---,0.00,VWS V14.00,2013-03-13 21:50:00,
2013-03-13 16:51:00,49.5,14.2,30.44,NW,311,5.0,7.0,24,0.00,,---,0.00,VWS V14.00,2013-03-13 21:51:00,
2013-03-13 16:52:00,49.5,13.2,30.44,NW,311,5.0,7.0,23,0.00,,---,0.00,VWS V14.00,2013-03-13 21:52:00,
2013-03-13 16:53:00,49.5,13.2,30.44,NW,311,4.0,5.0,23,0.00,,---,0.00,VWS V14.00,2013-03-13 21:53:00,
2013-03-13 16:54:00,49.6,13.3,30.44,NW,311,5.0,6.0,23,0.00,,---,0.00,VWS V14.00,2013-03-13 21:54:00,
2013-03-13 16:55:00,49.5,13.2,30.44,NW,311,4.0,6.0,23,0.00,,---,0.00,VWS V14.00,2013-03-13 21:55:00,
2013-03-13 16:56:00,49.6,14.3,30.44,NW,311,4.0,7.0,24,0.00,,---,0.00,VWS V14.00,2013-03-13 21:56:00,
2013-03-13 16:57:00,49.6,14.3,30.44,NW,311,4.0,6.0,24,0.00,,---,0.00,VWS V14.00,2013-03-13 21:57:00,
2013-03-13 16:58:00,49.6,13.3,30.44,NW,311,7.0,7.0,23,0.00,,---,0.00,VWS V14.00,2013-03-13 21:58:00,
2013-03-13 16:59:00,49.6,13.3,30.44,NW,311,4.0,4.0,23,0.00,,---,0.00,VWS V14.00,2013-03-13 21:59:00,
2013-03-13 17:00:00,49.6,13.3,30.44,NW,311,2.0,7.0,23,0.00,,---,0.00,VWS V14.00,2013-03-13 22:00:00,
2013-03-13 17:01:00,49.6,13.3,30.44,NW,311,2.0,4.0,23,0.00,,---,0.00,VWS V14.00,2013-03-13 22:01:00,
2013-03-13 17:02:00,49.6,13.3,30.44,NW,311,4.0,6.0,23,0.00,,---,0.00,VWS V14.00,2013-03-13 22:02:00,
2013-03-13 17:03:00,49.6,14.3,30.44,NW,311,3.0,4.0,24,0.00,,---,0.00,VWS V14.00,2013-03-13 22:03:00,
2013-03-13 17:04:00,49.6,13.3,30.43,NW,311,0.0,2.0,23,0.00,,---,0.00,VWS V14.00,2013-03-13 22:04:00,
2013-03-13 17:05:00,49.6,13.3,30.43,NW,311,2.0,4.0,23,0.00,,---,0.00,VWS V14.00,2013-03-13 22:05:00,
2013-03-13 17:06:00,49.6,13.3,30.43,NW,311,0.0,2.0,23,0.00,,---,0.00,VWS V14.00,2013-03-13 22:06:00,
2013-03-13 17:07:00,49.6,14.3,30.43,NW,311,2.0,3.0,24,0.00,,---,0.00,VWS V14.00,2013-03-13 22:07:00,
2013-03-13 17:08:00,49.6,13.3,30.43,NW,311,0.0,2.0,23,0.00,,---,0.00,VWS V14.00,2013-03-13 22:08:00,
2013-03-13 17:09:00,49.6,14.3,30.43,NW,311,0.0,1.0,24,0.00,,---,0.00,VWS V14.00,2013-03-13 22:09:00,
2013-03-13 17:10:00,49.6,14.3,30.43,NW,311,0.0,0.0,24,0.00,,---,0.00,VWS V14.00,2013-03-13 22:10:00,
2013-03-13 17:11:00,49.6,14.3,30.43,NW,311,0.0,1.0,24,0.00,,---,0.00,VWS V14.00,2013-03-13 22:11:00,
2013-03-13 17:12:00,49.6,14.3,30.43,NW,311,3.0,6.0,24,0.00,,---,0.00,VWS V14.00,2013-03-13 22:12:00,
2013-03-13 17:13:00,49.6,14.3,30.43,NW,311,3.0,5.0,24,0.00,,---,0.00,VWS V14.00,2013-03-13 22:13:00,
2013-03-13 17:14:00,49.8,15.4,30.43,NW,311,4.0,4.0,25,0.00,,---,0.00,VWS V14.00,2013-03-13 22:14:00,
2013-03-13 17:15:00,49.8,14.5,30.43,NW,311,4.0,7.0,24,0.00,,---,0.00,VWS V14.00,2013-03-13 22:15:00,
2013-03-13 17:16:00,49.8,15.4,30.43,NW,311,2.0,5.0,25,0.00,,---,0.00,VWS V14.00,2013-03-13 22:16:00,
2013-03-13 17:17:00,49.8,16.3,30.43,NW,311,6.0,7.0,26,0.00,,---,0.00,VWS V14.00,2013-03-13 22:17:00,
2013-03-13 17:18:00,49.8,14.5,30.43,NW,311,2.0,6.0,24,0.00,,---,0.00,VWS V14.00,2013-03-13 22:18:00,
2013-03-13 17:19:00,49.8,14.5,30.43,NW,311,4.0,4.0,24,0.00,,---,0.00,VWS V14.00,2013-03-13 22:19:00,
2013-03-13 17:20:00,49.8,14.5,30.43,NW,311,3.0,5.0,24,0.00,,---,0.00,VWS V14.00,2013-03-13 22:20:00,
2013-03-13 17:21:00,49.8,16.3,30.43,NW,311,2.0,4.0,26,0.00,,---,0.00,VWS V14.00,2013-03-13 22:21:00,
2013-03-13 17:22:00,49.8,16.3,30.43,NW,311,4.0,4.0,26,0.00,,---,0.00,VWS V14.00,2013-03-13 22:22:00,
2013-03-13 17:23:00,49.8,16.3,30.43,NW,311,3.0,4.0,26,0.00,,---,0.00,VWS V14.00,2013-03-13 22:23:00,
2013-03-13 17:24:00,49.8,14.5,30.43,NW,311,4.0,4.0,24,0.00,,---,0.00,VWS V14.00,2013-03-13 22:24:00,
2013-03-13 17:25:00,49.8,14.5,30.43,NW,311,1.0,4.0,24,0.00,,---,0.00,VWS V14.00,2013-03-13 22:25:00,
2013-03-13 17:26:00,49.6,14.3,30.43,NW,312,4.0,4.0,24,0.00,,---,0.00,VWS V14.00,2013-03-13 22:26:00,
2013-03-13 17:27:00,49.8,13.5,30.43,NW,312,3.0,4.0,23,0.00,,---,0.00,VWS V14.00,2013-03-13 22:27:00,
2013-03-13 17:28:00,49.8,13.5,30.43,NW,311,2.0,3.0,23,0.00,,---,0.00,VWS V14.00,2013-03-13 22:28:00,
2013-03-13 17:29:00,49.8,14.5,30.43,NW,311,0.0,0.0,24,0.00,,---,0.00,VWS V14.00,2013-03-13 22:29:00,
2013-03-13 17:30:00,49.8,13.5,30.43,NW,311,0.0,0.0,23,0.00,,---,0.00,VWS V14.00,2013-03-13 22:30:00,
2013-03-13 17:31:00,49.8,14.5,30.43,NW,311,0.0,0.0,24,0.00,,---,0.00,VWS V14.00,2013-03-13 22:31:00,
2013-03-13 17:32:00,49.8,14.5,30.43,NW,311,0.0,0.0,24,0.00,,---,0.00,VWS V14.00,2013-03-13 22:32:00,
2013-03-13 17:33:00,49.8,14.5,30.43,NW,311,0.0,0.0,24,0.00,,---,0.00,VWS V14.00,2013-03-13 22:33:00,
2013-03-13 17:34:00,49.9,14.6,30.43,NW,311,2.0,5.0,24,0.00,,---,0.00,VWS V14.00,2013-03-13 22:34:00,
2013-03-13 17:35:00,49.9,14.6,30.43,NW,312,3.0,3.0,24,0.00,,---,0.00,VWS V14.00,2013-03-13 22:35:00,
2013-03-13 17:36:00,49.9,14.6,30.43,NW,311,5.0,5.0,24,0.00,,---,0.00,VWS V14.00,2013-03-13 22:36:00,
2013-03-13 17:37:00,50.1,14.7,30.43,NW,311,5.0,5.0,24,0.00,,---,0.00,VWS V14.00,2013-03-13 22:37:00,
2013-03-13 17:38:00,50.1,14.7,30.43,NW,311,2.0,5.0,24,0.00,,---,0.00,VWS V14.00,2013-03-13 22:38:00,
2013-03-13 17:39:00,50.1,13.8,30.43,NW,311,5.0,6.0,23,0.00,,---,0.00,VWS V14.00,2013-03-13 22:39:00,
2013-03-13 17:40:00,50.1,14.7,30.43,NW,311,6.0,6.0,24,0.00,,---,0.00,VWS V14.00,2013-03-13 22:40:00,
2013-03-13 17:41:00,50.1,13.8,30.43,NW,311,5.0,6.0,23,0.00,,---,0.00,VWS V14.00,2013-03-13 22:41:00,
2013-03-13 17:42:00,50.1,13.8,30.43,NW,311,5.0,5.0,23,0.00,,---,0.00,VWS V14.00,2013-03-13 22:42:00,
2013-03-13 17:43:00,50.1,13.8,30.43,NW,311,3.0,5.0,23,0.00,,---,0.00,VWS V14.00,2013-03-13 22:43:00,
2013-03-13 17:44:00,50.1,14.7,30.43,NW,311,4.0,7.0,24,0.00,,---,0.00,VWS V14.00,2013-03-13 22:44:00,
2013-03-13 17:45:00,50.1,14.7,30.43,NW,312,5.0,5.0,24,0.00,,---,0.00,VWS V14.00,2013-03-13 22:45:00,
2013-03-13 17:46:00,50.1,14.7,30.43,NW,311,5.0,7.0,24,0.00,,---,0.00,VWS V14.00,2013-03-13 22:46:00,
2013-03-13 17:47:00,50.1,13.8,30.43,NW,311,3.0,5.0,23,0.00,,---,0.00,VWS V14.00,2013-03-13 22:47:00,
2013-03-13 17:48:00,50.1,13.8,30.43,NW,311,2.0,4.0,23,0.00,,---,0.00,VWS V14.00,2013-03-13 22:48:00,
2013-03-13 17:49:00,50.1,14.7,30.43,NW,311,0.0,2.0,24,0.00,,---,0.00,VWS V14.00,2013-03-13 22:49:00,
2013-03-13 17:50:00,50.1,14.7,30.43,NW,311,1.0,1.0,24,0.00,,---,0.00,VWS V14.00,2013-03-13 22:50:00,
2013-03-13 17:51:00,50.1,14.7,30.43,NW,311,0.0,2.0,24,0.00,,---,0.00,VWS V14.00,2013-03-13 22:51:00,
2013-03-13 17:52:00,50.1,13.8,30.43,NW,311,0.0,0.0,23,0.00,,---,0.00,VWS V14.00,2013-03-13 22:52:00,
2013-03-13 17:53:00,50.1,13.8,30.43,NW,311,2.0,2.0,23,0.00,,---,0.00,VWS V14.00,2013-03-13 22:53:00,
2013-03-13 17:54:00,50.1,12.8,30.44,NW,311,2.0,2.0,22,0.00,,---,0.00,VWS V14.00,2013-03-13 22:54:00,
2013-03-13 17:55:00,50.1,12.8,30.43,NW,311,0.0,4.0,22,0.00,,---,0.00,VWS V14.00,2013-03-13 22:55:00,
2013-03-13 17:56:00,50.1,13.8,30.44,NW,311,3.0,4.0,23,0.00,,---,0.00,VWS V14.00,2013-03-13 22:56:00,
2013-03-13 17:57:00,50.1,12.8,30.43,NW,311,3.0,4.0,22,0.00,,---,0.00,VWS V14.00,2013-03-13 22:57:00,
2013-03-13 17:58:00,50.1,12.8,30.44,NW,311,2.0,3.0,22,0.00,,---,0.00,VWS V14.00,2013-03-13 22:58:00,
2013-03-13 17:59:00,50.1,12.8,30.44,NW,311,1.0,3.0,22,0.00,,---,0.00,VWS V14.00,2013-03-13 22:59:00,
2013-03-13 18:00:00,50.1,12.8,30.44,NW,311,2.0,2.0,22,0.00,,---,0.00,VWS V14.00,2013-03-13 23:00:00,
2013-03-13 18:01:00,50.1,13.8,30.44,NW,311,2.0,3.0,23,0.00,,---,0.00,VWS V14.00,2013-03-13 23:01:00,
2013-03-13 18:02:00,50.1,13.8,30.44,NW,311,0.0,4.0,23,0.00,,---,0.00,VWS V14.00,2013-03-13 23:02:00,
2013-03-13 18:03:00,50.1,13.8,30.44,NW,311,0.0,0.0,23,0.00,,---,0.00,VWS V14.00,2013-03-13 23:03:00,
2013-03-13 18:04:00,50.1,13.8,30.44,NW,311,2.0,5.0,23,0.00,,---,0.00,VWS V14.00,2013-03-13 23:04:00,
2013-03-13 18:05:00,50.1,13.8,30.44,NW,311,5.0,6.0,23,0.00,,---,0.00,VWS V14.00,2013-03-13 23:05:00,
2013-03-13 18:06:00,50.1,13.8,30.44,NW,311,0.0,5.0,23,0.00,,---,0.00,VWS V14.00,2013-03-13 23:06:00,
2013-03-13 18:07:00,50.1,13.8,30.44,NW,311,0.0,0.0,23,0.00,,---,0.00,VWS V14.00,2013-03-13 23:07:00,
2013-03-13 18:08:00,50.1,13.8,30.44,NW,311,0.0,0.0,23,0.00,,---,0.00,VWS V14.00,2013-03-13 23:08:00,
2013-03-13 18:09:00,50.1,12.8,30.44,NW,311,0.0,2.0,22,0.00,,---,0.00,VWS V14.00,2013-03-13 23:09:00,
2013-03-13 18:10:00,50.1,13.8,30.44,NW,311,2.0,2.0,23,0.00,,---,0.00,VWS V14.00,2013-03-13 23:10:00,
2013-03-13 18:11:00,50.1,12.8,30.44,NW,311,0.0,2.0,22,0.00,,---,0.00,VWS V14.00,2013-03-13 23:11:00,
2013-03-13 18:12:00,50.1,13.8,30.44,NW,311,0.0,0.0,23,0.00,,---,0.00,VWS V14.00,2013-03-13 23:12:00,
2013-03-13 18:13:00,50.1,13.8,30.44,NW,311,0.0,2.0,23,0.00,,---,0.00,VWS V14.00,2013-03-13 23:13:00,
2013-03-13 18:14:00,50.1,12.8,30.44,NW,311,0.0,1.0,22,0.00,,---,0.00,VWS V14.00,2013-03-13 23:14:00,
2013-03-13 18:15:00,50.1,13.8,30.44,NW,311,0.0,3.0,23,0.00,,---,0.00,VWS V14.00,2013-03-13 23:15:00,
2013-03-13 18:16:00,50.1,12.8,30.44,NW,311,1.0,1.0,22,0.00,,---,0.00,VWS V14.00,2013-03-13 23:16:00,
2013-03-13 18:17:00,50.1,13.8,30.44,NW,311,0.0,1.0,23,0.00,,---,0.00,VWS V14.00,2013-03-13 23:17:00,
2013-03-13 18:18:00,50.1,13.8,30.44,NW,311,0.0,0.0,23,0.00,,---,0.00,VWS V14.00,2013-03-13 23:18:00,
2013-03-13 18:19:00,50.2,13.9,30.44,NW,311,0.0,0.0,23,0.00,,---,0.00,VWS V14.00,2013-03-13 23:19:00,
2013-03-13 18:20:00,50.2,13.9,30.44,NW,311,0.0,0.0,23,0.00,,---,0.00,VWS V14.00,2013-03-13 23:20:00,
2013-03-13 18:21:00,50.2,13.9,30.44,NW,311,0.0,0.0,23,0.00,,---,0.00,VWS V14.00,2013-03-13 23:21:00,
2013-03-13 18:22:00,50.2,13.9,30.44,NW,312,0.0,4.0,23,0.00,,---,0.00,VWS V14.00,2013-03-13 23:22:00,
2013-03-13 18:23:00,50.2,13.9,30.44,NW,311,5.0,5.0,23,0.00,,---,0.00,VWS V14.00,2013-03-13 23:23:00,
2013-03-13 18:24:00,50.2,12.8,30.44,NW,311,0.0,3.0,22,0.00,,---,0.00,VWS V14.00,2013-03-13 23:24:00,
2013-03-13 18:25:00,50.2,13.9,30.44,NW,311,3.0,4.0,23,0.00,,---,0.00,VWS V14.00,2013-03-13 23:25:00,
2013-03-13 18:26:00,50.2,12.8,30.44,NW,311,0.0,3.0,22,0.00,,---,0.00,VWS V14.00,2013-03-13 23:26:00,
2013-03-13 18:27:00,50.2,13.9,30.44,NW,311,0.0,0.0,23,0.00,,---,0.00,VWS V14.00,2013-03-13 23:27:00,
2013-03-13 18:28:00,50.2,12.8,30.44,NW,311,3.0,3.0,22,0.00,,---,0.00,VWS V14.00,2013-03-13 23:28:00,
2013-03-13 18:29:00,50.2,13.9,30.44,NW,311,5.0,5.0,23,0.00,,---,0.00,VWS V14.00,2013-03-13 23:29:00,
2013-03-13 18:30:00,50.2,13.9,30.44,NW,311,3.0,5.0,23,0.00,,---,0.00,VWS V14.00,2013-03-13 23:30:00,
2013-03-13 18:31:00,50.2,13.9,30.44,NW,311,4.0,6.0,23,0.00,,---,0.00,VWS V14.00,2013-03-13 23:31:00,
2013-03-13 18:32:00,50.2,15.8,30.44,NW,311,2.0,5.0,25,0.00,,---,0.00,VWS V14.00,2013-03-13 23:32:00,
2013-03-13 18:33:00,50.1,14.7,30.44,NW,311,5.0,6.0,24,0.00,,---,0.00,VWS V14.00,2013-03-13 23:33:00,
2013-03-13 18:34:00,50.1,13.8,30.44,NW,311,1.0,2.0,23,0.00,,---,0.00,VWS V14.00,2013-03-13 23:34:00,
2013-03-13 18:35:00,50.1,13.8,30.44,NW,311,0.0,1.0,23,0.00,,---,0.00,VWS V14.00,2013-03-13 23:35:00,
2013-03-13 18:36:00,50.1,14.7,30.44,NW,311,4.0,5.0,24,0.00,,---,0.00,VWS V14.00,2013-03-13 23:36:00,
2013-03-13 18:37:00,49.9,13.6,30.44,NW,311,4.0,5.0,23,0.00,,---,0.00,VWS V14.00,2013-03-13 23:37:00,
2013-03-13 18:38:00,49.9,13.6,30.44,NW,311,4.0,5.0,23,0.00,,---,0.00,VWS V14.00,2013-03-13 23:38:00,
2013-03-13 18:39:00,49.9,12.6,30.44,NW,311,0.0,0.0,22,0.00,,---,0.00,VWS V14.00,2013-03-13 23:39:00,
2013-03-13 18:40:00,49.9,12.6,30.44,NW,311,0.0,5.0,22,0.00,,---,0.00,VWS V14.00,2013-03-13 23:40:00,
2013-03-13 18:41:00,49.8,13.5,30.44,NW,311,0.0,0.0,23,0.00,,---,0.00,VWS V14.00,2013-03-13 23:41:00,
2013-03-13 18:42:00,49.8,13.5,30.44,NW,311,3.0,4.0,23,0.00,,---,0.00,VWS V14.00,2013-03-13 23:42:00,
2013-03-13 18:43:00,49.8,13.5,30.44,NW,311,1.0,4.0,23,0.00,,---,0.00,VWS V14.00,2013-03-13 23:43:00,
2013-03-13 18:44:00,49.8,13.5,30.44,NW,311,0.0,1.0,23,0.00,,---,0.00,VWS V14.00,2013-03-13 23:44:00,
2013-03-13 18:45:00,49.8,14.5,30.44,NW,311,1.0,3.0,24,0.00,,---,0.00,VWS V14.00,2013-03-13 23:45:00,
2013-03-13 18:46:00,49.8,13.5,30.44,NW,311,1.0,1.0,23,0.00,,---,0.00,VWS V14.00,2013-03-13 23:46:00,
2013-03-13 18:47:00,49.8,13.5,30.44,NW,311,1.0,4.0,23,0.00,,---,0.00,VWS V14.00,2013-03-13 23:47:00,
2013-03-13 18:48:00,49.8,13.5,30.44,NW,311,0.0,2.0,23,0.00,,---,0.00,VWS V14.00,2013-03-13 23:48:00,
2013-03-13 18:49:00,49.6,13.3,30.44,NW,311,1.0,1.0,23,0.00,,---,0.00,VWS V14.00,2013-03-13 23:49:00,
2013-03-13 18:50:00,49.6,13.3,30.44,NW,311,0.0,1.0,23,0.00,,---,0.00,VWS V14.00,2013-03-13 23:50:00,
2013-03-13 18:51:00,49.6,13.3,30.44,NW,311,0.0,1.0,23,0.00,,---,0.00,VWS V14.00,2013-03-13 23:51:00,
2013-03-13 18:52:00,49.6,13.3,30.44,NW,311,1.0,2.0,23,0.00,,---,0.00,VWS V14.00,2013-03-13 23:52:00,
2013-03-13 18:53:00,49.6,15.2,30.44,NW,311,1.0,3.0,25,0.00,,---,0.00,VWS V14.00,2013-03-13 23:53:00,
2013-03-13 18:54:00,49.5,14.2,30.44,NW,311,1.0,2.0,24,0.00,,---,0.00,VWS V14.00,2013-03-13 23:54:00,
2013-03-13 18:55:00,49.6,15.2,30.44,NW,312,0.0,1.0,25,0.00,,---,0.00,VWS V14.00,2013-03-13 23:55:00,
2013-03-13 18:56:00,49.5,14.2,30.44,NW,311,1.0,2.0,24,0.00,,---,0.00,VWS V14.00,2013-03-13 23:56:00,
2013-03-13 18:57:00,49.5,14.2,30.44,NW,311,0.0,1.0,24,0.00,,---,0.00,VWS V14.00,2013-03-13 23:57:00,
2013-03-13 18:58:00,49.4,14.1,30.44,NW,311,0.0,0.0,24,0.00,,---,0.00,VWS V14.00,2013-03-13 23:58:00,
2013-03-13 18:59:00,49.2,14.0,30.44,NW,311,0.0,0.0,24,0.00,,---,0.00,VWS V14.00,2013-03-13 23:59:00,
2013-03-13 19:00:00,49.2,14.0,30.44,NW,311,0.0,0.0,24,0.00,,---,0.00,VWS V14.00,2013-03-14 00:00:00,
2013-03-13 19:01:00,49.2,14.0,30.44,NW,311,0.0,0.0,24,0.00,,---,0.00,VWS V14.00,2013-03-14 00:01:00,
2013-03-13 19:02:00,49.2,14.0,30.43,NW,311,0.0,0.0,24,0.00,,---,0.00,VWS V14.00,2013-03-14 00:02:00,
2013-03-13 19:03:00,49.1,13.9,30.43,NW,311,0.0,0.0,24,0.00,,---,0.00,VWS V14.00,2013-03-14 00:03:00,
2013-03-13 19:04:00,48.9,13.7,30.43,NW,311,0.0,0.0,24,0.00,,---,0.00,VWS V14.00,2013-03-14 00:04:00,
2013-03-13 19:05:00,49.1,13.9,30.43,NW,311,0.0,0.0,24,0.00,,---,0.00,VWS V14.00,2013-03-14 00:05:00,
2013-03-13 19:06:00,48.9,13.7,30.43,NW,311,0.0,0.0,24,0.00,,---,0.00,VWS V14.00,2013-03-14 00:06:00,
2013-03-13 19:07:00,48.9,13.7,30.43,NW,311,0.0,0.0,24,0.00,,---,0.00,VWS V14.00,2013-03-14 00:07:00,
2013-03-13 19:08:00,48.9,13.7,30.43,NW,311,0.0,0.0,24,0.00,,---,0.00,VWS V14.00,2013-03-14 00:08:00,
2013-03-13 19:09:00,48.8,13.6,30.43,NW,311,0.0,0.0,24,0.00,,---,0.00,VWS V14.00,2013-03-14 00:09:00,
2013-03-13 19:10:00,48.8,13.6,30.43,NW,311,0.0,0.0,24,0.00,,---,0.00,VWS V14.00,2013-03-14 00:10:00,
2013-03-13 19:11:00,48.8,13.6,30.43,NW,311,0.0,0.0,24,0.00,,---,0.00,VWS V14.00,2013-03-14 00:11:00,
2013-03-13 19:12:00,48.8,13.6,30.43,NW,311,0.0,0.0,24,0.00,,---,0.00,VWS V14.00,2013-03-14 00:12:00,
2013-03-13 19:13:00,48.8,13.6,30.43,NW,311,0.0,0.0,24,0.00,,---,0.00,VWS V14.00,2013-03-14 00:13:00,
2013-03-13 19:14:00,48.6,19.4,30.43,NW,311,0.0,0.0,31,0.00,,---,0.00,VWS V14.00,2013-03-14 00:14:00,
2013-03-13 19:15:00,48.6,17.0,30.43,NW,311,0.0,0.0,28,0.00,,---,0.00,VWS V14.00,2013-03-14 00:15:00,
2013-03-13 19:16:00,48.6,20.8,30.43,NW,311,0.0,0.0,33,0.00,,---,0.00,VWS V14.00,2013-03-14 00:16:00,
2013-03-13 19:17:00,48.6,20.8,30.43,NW,311,0.0,0.0,33,0.00,,---,0.00,VWS V14.00,2013-03-14 00:17:00,
2013-03-13 19:18:00,48.5,21.4,30.43,NW,311,0.0,0.0,34,0.00,,---,0.00,VWS V14.00,2013-03-14 00:18:00,
2013-03-13 19:19:00,48.2,21.9,30.43,NW,311,0.0,0.0,35,0.00,,---,0.00,VWS V14.00,2013-03-14 00:19:00,
2013-03-13 19:20:00,48.2,21.9,30.44,NW,311,0.0,0.0,35,0.00,,---,0.00,VWS V14.00,2013-03-14 00:20:00,
2013-03-13 19:21:00,48.0,21.7,30.43,NW,311,0.0,0.0,35,0.00,,---,0.00,VWS V14.00,2013-03-14 00:21:00,
2013-03-13 19:22:00,48.0,22.3,30.43,NW,311,0.0,0.0,36,0.00,,---,0.00,VWS V14.00,2013-03-14 00:22:00,
2013-03-13 19:23:00,47.9,22.2,30.43,NW,311,0.0,0.0,36,0.00,,---,0.00,VWS V14.00,2013-03-14 00:23:00,
2013-03-13 19:24:00,47.4,21.8,30.43,NW,311,0.0,0.0,36,0.00,,---,0.00,VWS V14.00,2013-03-14 00:24:00,
2013-03-13 19:25:00,47.6,21.3,30.43,NW,311,0.0,0.0,35,0.00,,---,0.00,VWS V14.00,2013-03-14 00:25:00,
2013-03-13 19:26:00,47.3,21.7,30.43,NW,311,0.0,0.0,36,0.00,,---,0.00,VWS V14.00,2013-03-14 00:26:00,
2013-03-13 19:27:00,47.1,21.5,30.43,NW,311,0.0,0.0,36,0.00,,---,0.00,VWS V14.00,2013-03-14 00:27:00,
2013-03-13 19:28:00,47.0,21.5,30.43,NW,311,0.0,0.0,36,0.00,,---,0.00,VWS V14.00,2013-03-14 00:28:00,
2013-03-13 19:29:00,46.5,19.0,30.43,NW,311,0.0,0.0,33,0.00,,---,0.00,VWS V14.00,2013-03-14 00:29:00,
2013-03-13 19:30:00,46.7,19.8,30.43,NW,311,0.0,0.0,34,0.00,,---,0.00,VWS V14.00,2013-03-14 00:30:00,
2013-03-13 19:31:00,46.5,19.0,30.43,NW,311,0.0,0.0,33,0.00,,---,0.00,VWS V14.00,2013-03-14 00:31:00,
2013-03-13 19:32:00,46.4,18.9,30.43,NW,312,0.0,0.0,33,0.00,,---,0.00,VWS V14.00,2013-03-14 00:32:00,
2013-03-13 19:33:00,46.1,17.9,30.43,NW,311,0.0,0.0,32,0.00,,---,0.00,VWS V14.00,2013-03-14 00:33:00,
2013-03-13 19:34:00,45.8,16.9,30.43,NW,311,0.0,0.0,31,0.00,,---,0.00,VWS V14.00,2013-03-14 00:34:00,
2013-03-13 19:35:00,45.8,16.9,30.43,NW,311,0.0,0.0,31,0.00,,---,0.00,VWS V14.00,2013-03-14 00:35:00,
2013-03-13 19:36:00,45.7,16.8,30.43,NW,311,0.0,0.0,31,0.00,,---,0.00,VWS V14.00,2013-03-14 00:36:00,
2013-03-13 19:37:00,45.5,16.6,30.43,NW,311,0.0,0.0,31,0.00,,---,0.00,VWS V14.00,2013-03-14 00:37:00,
2013-03-13 19:38:00,45.5,16.6,30.43,NW,311,0.0,0.0,31,0.00,,---,0.00,VWS V14.00,2013-03-14 00:38:00,
2013-03-13 19:39:00,45.2,19.2,30.43,NW,311,0.0,0.0,35,0.00,,---,0.00,VWS V14.00,2013-03-14 00:39:00,
2013-03-13 19:40:00,45.4,19.4,30.43,NW,311,0.0,0.0,35,0.00,,---,0.00,VWS V14.00,2013-03-14 00:40:00,
2013-03-13 19:41:00,45.2,19.9,30.43,NW,311,0.0,0.0,36,0.00,,---,0.00,VWS V14.00,2013-03-14 00:41:00,
2013-03-13 19:42:00,45.2,20.5,30.43,NW,311,0.0,0.0,37,0.00,,---,0.00,VWS V14.00,2013-03-14 00:42:00,
2013-03-13 19:43:00,45.1,20.4,30.43,NW,311,0.0,0.0,37,0.00,,---,0.00,VWS V14.00,2013-03-14 00:43:00,
2013-03-13 19:44:00,44.9,20.9,30.43,NW,311,0.0,0.0,38,0.00,,---,0.00,VWS V14.00,2013-03-14 00:44:00,
2013-03-13 19:45:00,44.9,20.2,30.43,NW,311,0.0,0.0,37,0.00,,---,0.00,VWS V14.00,2013-03-14 00:45:00,
2013-03-13 19:46:00,44.9,20.2,30.43,NW,311,0.0,0.0,37,0.00,,---,0.00,VWS V14.00,2013-03-14 00:46:00,
2013-03-13 19:47:00,44.8,19.5,30.43,NW,311,0.0,0.0,36,0.00,,---,0.00,VWS V14.00,2013-03-14 00:47:00,
2013-03-13 19:48:00,44.6,18.7,30.43,NW,311,0.0,0.0,35,0.00,,---,0.00,VWS V14.00,2013-03-14 00:48:00,
2013-03-13 19:49:00,44.3,17.7,30.43,NW,311,0.0,0.0,34,0.00,,---,0.00,VWS V14.00,2013-03-14 00:49:00,
2013-03-13 19:50:00,44.5,17.9,30.43,NW,311,0.0,0.0,34,0.00,,---,0.00,VWS V14.00,2013-03-14 00:50:00,
2013-03-13 19:51:00,44.3,17.7,30.43,NW,311,0.0,0.0,34,0.00,,---,0.00,VWS V14.00,2013-03-14 00:51:00,
2013-03-13 19:52:00,44.3,17.7,30.43,NW,311,0.0,0.0,34,0.00,,---,0.00,VWS V14.00,2013-03-14 00:52:00,
2013-03-13 19:53:00,44.2,17.6,30.43,NW,311,0.0,0.0,34,0.00,,---,0.00,VWS V14.00,2013-03-14 00:53:00,
2013-03-13 19:54:00,44.1,17.5,30.43,NW,311,0.0,0.0,34,0.00,,---,0.00,VWS V14.00,2013-03-14 00:54:00,
2013-03-13 19:55:00,44.1,17.5,30.43,NW,311,0.0,0.0,34,0.00,,---,0.00,VWS V14.00,2013-03-14 00:55:00,
2013-03-13 19:56:00,43.9,17.4,30.43,NW,311,0.0,0.0,34,0.00,,---,0.00,VWS V14.00,2013-03-14 00:56:00,
2013-03-13 19:57:00,43.9,17.4,30.43,NW,311,0.0,0.0,34,0.00,,---,0.00,VWS V14.00,2013-03-14 00:57:00,
2013-03-13 19:58:00,43.8,18.0,30.43,NW,311,0.0,0.0,35,0.00,,---,0.00,VWS V14.00,2013-03-14 00:58:00,
2013-03-13 19:59:00,43.5,19.0,30.43,NW,311,0.0,0.0,37,0.00,,---,0.00,VWS V14.00,2013-03-14 00:59:00,
2013-03-13 20:00:00,43.5,18.3,30.43,NW,311,0.0,0.0,36,0.00,,---,0.00,VWS V14.00,2013-03-14 01:00:00,
2013-03-13 20:01:00,43.5,19.0,30.43,NW,311,0.0,0.0,37,0.00,,---,0.00,VWS V14.00,2013-03-14 01:01:00,
2013-03-13 20:02:00,43.3,19.4,30.43,NW,311,0.0,0.0,38,0.00,,---,0.00,VWS V14.00,2013-03-14 01:02:00,
2013-03-13 20:03:00,43.3,20.6,30.42,NW,311,0.0,0.0,40,0.00,,---,0.00,VWS V14.00,2013-03-14 01:03:00,
2013-03-13 20:04:00,43.1,21.0,30.42,NW,311,0.0,0.0,41,0.00,,---,0.00,VWS V14.00,2013-03-14 01:04:00,
2013-03-13 20:05:00,43.1,20.4,30.42,NW,311,0.0,0.0,40,0.00,,---,0.00,VWS V14.00,2013-03-14 01:05:00,
2013-03-13 20:06:00,42.9,20.8,30.42,NW,311,0.0,0.0,41,0.00,,---,0.00,VWS V14.00,2013-03-14 01:06:00,
2013-03-13 20:07:00,42.9,20.8,30.42,NW,311,0.0,0.0,41,0.00,,---,0.00,VWS V14.00,2013-03-14 01:07:00,
2013-03-13 20:08:00,42.8,20.8,30.42,NW,311,0.0,0.0,41,0.00,,---,0.00,VWS V14.00,2013-03-14 01:08:00,
2013-03-13 20:09:00,42.6,21.1,30.42,NW,311,0.0,0.0,42,0.00,,---,0.00,VWS V14.00,2013-03-14 01:09:00,
2013-03-13 20:10:00,42.6,21.1,30.42,NW,311,0.0,0.0,42,0.00,,---,0.00,VWS V14.00,2013-03-14 01:10:00,
2013-03-13 20:11:00,42.6,21.1,30.42,NW,311,0.0,0.0,42,0.00,,---,0.00,VWS V14.00,2013-03-14 01:11:00,
2013-03-13 20:12:00,42.6,21.1,30.42,NW,311,0.0,0.0,42,0.00,,---,0.00,VWS V14.00,2013-03-14 01:12:00,
2013-03-13 20:13:00,42.5,21.0,30.42,NW,311,0.0,0.0,42,0.00,,---,0.00,VWS V14.00,2013-03-14 01:13:00,
2013-03-13 20:14:00,42.5,21.6,30.43,NW,311,0.0,0.0,43,0.00,,---,0.00,VWS V14.00,2013-03-14 01:14:00,
2013-03-13 20:15:00,42.5,21.6,30.43,NW,311,0.0,0.0,43,0.00,,---,0.00,VWS V14.00,2013-03-14 01:15:00,
2013-03-13 20:16:00,42.5,21.6,30.43,NW,311,0.0,0.0,43,0.00,,---,0.00,VWS V14.00,2013-03-14 01:16:00,
2013-03-13 20:17:00,42.3,22.0,30.43,NW,311,0.0,0.0,44,0.00,,---,0.00,VWS V14.00,2013-03-14 01:17:00,
2013-03-13 20:18:00,42.3,22.0,30.43,NW,311,0.0,0.0,44,0.00,,---,0.00,VWS V14.00,2013-03-14 01:18:00,
2013-03-13 20:19:00,42.2,21.9,30.43,NW,311,0.0,0.0,44,0.00,,---,0.00,VWS V14.00,2013-03-14 01:19:00,
2013-03-13 20:20:00,42.2,21.9,30.43,NW,311,0.0,0.0,44,0.00,,---,0.00,VWS V14.00,2013-03-14 01:20:00,
2013-03-13 20:21:00,42.2,21.9,30.43,NW,311,0.0,0.0,44,0.00,,---,0.00,VWS V14.00,2013-03-14 01:21:00,
2013-03-13 20:22:00,42.1,22.3,30.43,NW,311,0.0,0.0,45,0.00,,---,0.00,VWS V14.00,2013-03-14 01:22:00,
2013-03-13 20:23:00,42.1,22.3,30.43,NW,311,0.0,0.0,45,0.00,,---,0.00,VWS V14.00,2013-03-14 01:23:00,
2013-03-13 20:24:00,41.8,22.5,30.43,NW,311,0.0,0.0,46,0.00,,---,0.00,VWS V14.00,2013-03-14 01:24:00,
2013-03-13 20:25:00,41.8,22.5,30.43,NW,311,0.0,0.0,46,0.00,,---,0.00,VWS V14.00,2013-03-14 01:25:00,
2013-03-13 20:26:00,41.8,22.5,30.43,NW,311,0.0,0.0,46,0.00,,---,0.00,VWS V14.00,2013-03-14 01:26:00,
2013-03-13 20:27:00,41.6,22.4,30.43,NW,311,0.0,0.0,46,0.00,,---,0.00,VWS V14.00,2013-03-14 01:27:00,
2013-03-13 20:28:00,41.6,22.4,30.43,NW,311,0.0,0.0,46,0.00,,---,0.00,VWS V14.00,2013-03-14 01:28:00,
2013-03-13 20:29:00,41.5,22.8,30.43,NW,311,0.0,0.0,47,0.00,,---,0.00,VWS V14.00,2013-03-14 01:29:00,
2013-03-13 20:30:00,41.5,22.8,30.43,NW,311,0.0,0.0,47,0.00,,---,0.00,VWS V14.00,2013-03-14 01:30:00,
2013-03-13 20:31:00,41.5,22.8,30.43,NW,311,0.0,0.0,47,0.00,,---,0.00,VWS V14.00,2013-03-14 01:31:00,
2013-03-13 20:32:00,41.5,22.3,30.43,NW,311,0.0,0.0,46,0.00,,---,0.00,VWS V14.00,2013-03-14 01:32:00,
2013-03-13 20:33:00,41.3,22.1,30.43,NW,311,0.0,0.0,46,0.00,,---,0.00,VWS V14.00,2013-03-14 01:33:00,
2013-03-13 20:34:00,41.2,22.5,30.43,NW,311,0.0,0.0,47,0.00,,---,0.00,VWS V14.00,2013-03-14 01:34:00,
2013-03-13 20:35:00,41.2,22.0,30.43,NW,311,0.0,0.0,46,0.00,,---,0.00,VWS V14.00,2013-03-14 01:35:00,
2013-03-13 20:36:00,41.1,22.4,30.43,NW,311,0.0,0.0,47,0.00,,---,0.00,VWS V14.00,2013-03-14 01:36:00,
2013-03-13 20:37:00,41.1,22.4,30.43,NW,311,0.0,0.0,47,0.00,,---,0.00,VWS V14.00,2013-03-14 01:37:00,
2013-03-13 20:38:00,41.1,22.9,30.43,NW,311,0.0,0.0,48,0.00,,---,0.00,VWS V14.00,2013-03-14 01:38:00,
2013-03-13 20:39:00,40.9,22.7,30.44,NW,312,0.0,0.0,48,0.00,,---,0.00,VWS V14.00,2013-03-14 01:39:00,
2013-03-13 20:40:00,40.9,22.7,30.44,NW,311,0.0,0.0,48,0.00,,---,0.00,VWS V14.00,2013-03-14 01:40:00,
2013-03-13 20:41:00,40.8,22.6,30.44,NW,311,0.0,0.0,48,0.00,,---,0.00,VWS V14.00,2013-03-14 01:41:00,
2013-03-13 20:42:00,40.8,22.6,30.44,NW,311,0.0,0.0,48,0.00,,---,0.00,VWS V14.00,2013-03-14 01:42:00,
2013-03-13 20:43:00,40.6,23.0,30.44,NW,311,0.0,0.0,49,0.00,,---,0.00,VWS V14.00,2013-03-14 01:43:00,
2013-03-13 20:44:00,40.5,22.9,30.44,NW,311,0.0,0.0,49,0.00,,---,0.00,VWS V14.00,2013-03-14 01:44:00,
2013-03-13 20:45:00,40.5,22.9,30.44,NW,311,0.0,0.0,49,0.00,,---,0.00,VWS V14.00,2013-03-14 01:45:00,
2013-03-13 20:46:00,40.5,22.9,30.44,NW,311,0.0,0.0,49,0.00,,---,0.00,VWS V14.00,2013-03-14 01:46:00,
2013-03-13 20:47:00,40.5,22.9,30.44,NW,311,0.0,0.0,49,0.00,,---,0.00,VWS V14.00,2013-03-14 01:47:00,
2013-03-13 20:48:00,40.3,22.7,30.44,NW,311,0.0,0.0,49,0.00,,---,0.00,VWS V14.00,2013-03-14 01:48:00,
2013-03-13 20:49:00,40.2,22.6,30.44,NW,311,0.0,0.0,49,0.00,,---,0.00,VWS V14.00,2013-03-14 01:49:00,
2013-03-13 20:50:00,40.2,22.6,30.44,NW,311,0.0,0.0,49,0.00,,---,0.00,VWS V14.00,2013-03-14 01:50:00,
2013-03-13 20:51:00,40.2,23.1,30.44,NW,311,0.0,0.0,50,0.00,,---,0.00,VWS V14.00,2013-03-14 01:51:00,
2013-03-13 20:52:00,40.1,23.0,30.44,NW,311,0.0,0.0,50,0.00,,---,0.00,VWS V14.00,2013-03-14 01:52:00,
2013-03-13 20:53:00,40.1,23.0,30.44,NW,311,0.0,0.0,50,0.00,,---,0.00,VWS V14.00,2013-03-14 01:53:00,
2013-03-13 20:54:00,39.8,22.7,30.44,NW,311,0.0,0.0,50,0.00,,---,0.00,VWS V14.00,2013-03-14 01:54:00,
2013-03-13 20:55:00,39.9,22.8,30.44,NW,311,0.0,0.0,50,0.00,,---,0.00,VWS V14.00,2013-03-14 01:55:00,
2013-03-13 20:56:00,39.8,23.2,30.44,NW,311,0.0,0.0,51,0.00,,---,0.00,VWS V14.00,2013-03-14 01:56:00,
2013-03-13 20:57:00,39.8,23.2,30.44,NW,311,0.0,0.0,51,0.00,,---,0.00,VWS V14.00,2013-03-14 01:57:00,
2013-03-13 20:58:00,39.6,23.0,30.44,NW,311,0.0,0.0,51,0.00,,---,0.00,VWS V14.00,2013-03-14 01:58:00,
2013-03-13 20:59:00,39.5,23.4,30.44,NW,311,0.0,0.0,52,0.00,,---,0.00,VWS V14.00,2013-03-14 01:59:00,
2013-03-13 21:00:00,39.5,23.4,30.44,NW,311,0.0,0.0,52,0.00,,---,0.00,VWS V14.00,2013-03-14 02:00:00,
2013-03-13 21:01:00,39.3,23.2,30.44,NW,311,0.0,0.0,52,0.00,,---,0.00,VWS V14.00,2013-03-14 02:01:00,
2013-03-13 21:02:00,39.3,23.6,30.44,NW,311,0.0,0.0,53,0.00,,---,0.00,VWS V14.00,2013-03-14 02:02:00,
2013-03-13 21:03:00,39.2,23.5,30.44,NW,311,0.0,0.0,53,0.00,,---,0.00,VWS V14.00,2013-03-14 02:03:00,
2013-03-13 21:04:00,39.1,23.4,30.44,NW,311,0.0,0.0,53,0.00,,---,0.00,VWS V14.00,2013-03-14 02:04:00,
2013-03-13 21:05:00,39.1,23.4,30.44,NW,311,0.0,0.0,53,0.00,,---,0.00,VWS V14.00,2013-03-14 02:05:00,
2013-03-13 21:06:00,39.1,23.4,30.44,NW,311,0.0,0.0,53,0.00,,---,0.00,VWS V14.00,2013-03-14 02:06:00,
2013-03-13 21:07:00,38.9,23.7,30.44,NW,311,0.0,0.0,54,0.00,,---,0.00,VWS V14.00,2013-03-14 02:07:00,
2013-03-13 21:08:00,38.9,23.7,30.44,NW,311,0.0,0.0,54,0.00,,---,0.00,VWS V14.00,2013-03-14 02:08:00,
2013-03-13 21:09:00,38.8,24.0,30.44,NW,311,0.0,0.0,55,0.00,,---,0.00,VWS V14.00,2013-03-14 02:09:00,
2013-03-13 21:10:00,38.8,24.0,30.44,NW,311,0.0,0.0,55,0.00,,---,0.00,VWS V14.00,2013-03-14 02:10:00,
2013-03-13 21:11:00,38.8,24.0,30.44,NW,311,0.0,0.0,55,0.00,,---,0.00,VWS V14.00,2013-03-14 02:11:00,
2013-03-13 21:12:00,38.8,24.5,30.44,NW,311,0.0,0.0,56,0.00,,---,0.00,VWS V14.00,2013-03-14 02:12:00,
2013-03-13 21:13:00,38.8,24.5,30.44,NW,311,0.0,0.0,56,0.00,,---,0.00,VWS V14.00,2013-03-14 02:13:00,
2013-03-13 21:14:00,38.6,24.3,30.44,NW,311,0.0,0.0,56,0.00,,---,0.00,VWS V14.00,2013-03-14 02:14:00,
2013-03-13 21:15:00,38.6,24.3,30.44,NW,311,0.0,0.0,56,0.00,,---,0.00,VWS V14.00,2013-03-14 02:15:00,
2013-03-13 21:16:00,38.6,24.3,30.44,NW,311,0.0,0.0,56,0.00,,---,0.00,VWS V14.00,2013-03-14 02:16:00,
2013-03-13 21:17:00,38.6,24.7,30.44,NW,311,0.0,0.0,57,0.00,,---,0.00,VWS V14.00,2013-03-14 02:17:00,
2013-03-13 21:18:00,38.6,24.7,30.44,NW,311,0.0,0.0,57,0.00,,---,0.00,VWS V14.00,2013-03-14 02:18:00,
2013-03-13 21:19:00,38.5,24.6,30.44,NW,311,0.0,0.0,57,0.00,,---,0.00,VWS V14.00,2013-03-14 02:19:00,
2013-03-13 21:20:00,38.5,24.6,30.44,NW,311,0.0,0.0,57,0.00,,---,0.00,VWS V14.00,2013-03-14 02:20:00,
2013-03-13 21:21:00,38.5,25.0,30.44,NW,312,0.0,0.0,58,0.00,,---,0.00,VWS V14.00,2013-03-14 02:21:00,
2013-03-13 21:22:00,38.5,25.0,30.44,NW,311,0.0,0.0,58,0.00,,---,0.00,VWS V14.00,2013-03-14 02:22:00,
2013-03-13 21:23:00,38.3,24.8,30.44,NW,311,0.0,0.0,58,0.00,,---,0.00,VWS V14.00,2013-03-14 02:23:00,
2013-03-13 21:24:00,38.2,24.7,30.44,NW,311,0.0,0.0,58,0.00,,---,0.00,VWS V14.00,2013-03-14 02:24:00,
2013-03-13 21:25:00,38.2,24.7,30.44,NW,311,0.0,0.0,58,0.00,,---,0.00,VWS V14.00,2013-03-14 02:25:00,
2013-03-13 21:26:00,38.2,24.7,30.44,NW,311,0.0,0.0,58,0.00,,---,0.00,VWS V14.00,2013-03-14 02:26:00,
2013-03-13 21:27:00,38.0,24.5,30.44,NW,311,0.0,0.0,58,0.00,,---,0.00,VWS V14.00,2013-03-14 02:27:00,
2013-03-13 21:28:00,38.0,24.5,30.44,NW,311,0.0,0.0,58,0.00,,---,0.00,VWS V14.00,2013-03-14 02:28:00,
2013-03-13 21:29:00,37.9,24.5,30.44,NW,311,0.0,0.0,58,0.00,,---,0.00,VWS V14.00,2013-03-14 02:29:00,
2013-03-13 21:30:00,37.9,24.5,30.44,NW,311,0.0,0.0,58,0.00,,---,0.00,VWS V14.00,2013-03-14 02:30:00,
2013-03-13 21:31:00,37.8,24.4,30.44,NW,311,0.0,0.0,58,0.00,,---,0.00,VWS V14.00,2013-03-14 02:31:00,
2013-03-13 21:32:00,37.8,24.8,30.44,NW,311,0.0,0.0,59,0.00,,---,0.00,VWS V14.00,2013-03-14 02:32:00,
2013-03-13 21:33:00,37.8,24.8,30.44,NW,311,0.0,0.0,59,0.00,,---,0.00,VWS V14.00,2013-03-14 02:33:00,
2013-03-13 21:34:00,37.6,24.6,30.44,NW,311,0.0,0.0,59,0.00,,---,0.00,VWS V14.00,2013-03-14 02:34:00,
2013-03-13 21:35:00,37.6,24.6,30.44,NW,311,0.0,0.0,59,0.00,,---,0.00,VWS V14.00,2013-03-14 02:35:00,
2013-03-13 21:36:00,37.6,24.6,30.44,NW,311,0.0,0.0,59,0.00,,---,0.00,VWS V14.00,2013-03-14 02:36:00,
2013-03-13 21:37:00,37.5,24.5,30.44,NW,311,0.0,0.0,59,0.00,,---,0.00,VWS V14.00,2013-03-14 02:37:00,
2013-03-13 21:38:00,37.5,24.5,30.44,NW,311,0.0,0.0,59,0.00,,---,0.00,VWS V14.00,2013-03-14 02:38:00,
2013-03-13 21:39:00,37.3,24.3,30.44,NW,311,0.0,0.0,59,0.00,,---,0.00,VWS V14.00,2013-03-14 02:39:00,
2013-03-13 21:40:00,37.3,24.3,30.44,NW,311,0.0,0.0,59,0.00,,---,0.00,VWS V14.00,2013-03-14 02:40:00,
2013-03-13 21:41:00,37.3,24.3,30.44,NW,311,0.0,0.0,59,0.00,,---,0.00,VWS V14.00,2013-03-14 02:41:00,
2013-03-13 21:42:00,37.2,24.2,30.44,NW,311,0.0,0.0,59,0.00,,---,0.00,VWS V14.00,2013-03-14 02:42:00,
2013-03-13 21:43:00,37.2,24.2,30.44,NW,311,0.0,0.0,59,0.00,,---,0.00,VWS V14.00,2013-03-14 02:43:00,
2013-03-13 21:44:00,37.0,24.0,30.44,NW,311,0.0,0.0,59,0.00,,---,0.00,VWS V14.00,2013-03-14 02:44:00,
2013-03-13 21:45:00,37.2,24.2,30.44,NW,311,0.0,0.0,59,0.00,,---,0.00,VWS V14.00,2013-03-14 02:45:00,
2013-03-13 21:46:00,37.0,24.0,30.44,NW,311,0.0,0.0,59,0.00,,---,0.00,VWS V14.00,2013-03-14 02:46:00,
2013-03-13 21:47:00,37.0,24.0,30.44,NW,311,0.0,0.0,59,0.00,,---,0.00,VWS V14.00,2013-03-14 02:47:00,
2013-03-13 21:48:00,37.0,24.0,30.44,NW,311,0.0,0.0,59,0.00,,---,0.00,VWS V14.00,2013-03-14 02:48:00,
2013-03-13 21:49:00,36.9,23.9,30.44,NW,311,0.0,0.0,59,0.00,,---,0.00,VWS V14.00,2013-03-14 02:49:00,
2013-03-13 21:50:00,36.9,23.9,30.44,NW,311,0.0,0.0,59,0.00,,---,0.00,VWS V14.00,2013-03-14 02:50:00,
2013-03-13 21:51:00,36.9,23.9,30.44,NW,311,0.0,0.0,59,0.00,,---,0.00,VWS V14.00,2013-03-14 02:51:00,
2013-03-13 21:52:00,36.9,23.9,30.44,NW,311,0.0,0.0,59,0.00,,---,0.00,VWS V14.00,2013-03-14 02:52:00,
2013-03-13 21:53:00,36.9,23.9,30.44,NW,311,0.0,0.0,59,0.00,,---,0.00,VWS V14.00,2013-03-14 02:53:00,
2013-03-13 21:54:00,36.8,23.8,30.44,NW,311,0.0,0.0,59,0.00,,---,0.00,VWS V14.00,2013-03-14 02:54:00,
2013-03-13 21:55:00,36.9,23.9,30.44,NW,311,0.0,0.0,59,0.00,,---,0.00,VWS V14.00,2013-03-14 02:55:00,
2013-03-13 21:56:00,36.8,23.8,30.44,NW,311,0.0,0.0,59,0.00,,---,0.00,VWS V14.00,2013-03-14 02:56:00,
2013-03-13 21:57:00,36.8,23.8,30.44,NW,311,0.0,0.0,59,0.00,,---,0.00,VWS V14.00,2013-03-14 02:57:00,
2013-03-13 21:58:00,36.8,23.8,30.44,NW,311,0.0,0.0,59,0.00,,---,0.00,VWS V14.00,2013-03-14 02:58:00,
2013-03-13 21:59:00,36.6,23.6,30.44,NW,311,0.0,0.0,59,0.00,,---,0.00,VWS V14.00,2013-03-14 02:59:00,
2013-03-13 22:00:00,36.6,23.6,30.44,NW,311,0.0,0.0,59,0.00,,---,0.00,VWS V14.00,2013-03-14 03:00:00,
2013-03-13 22:01:00,36.6,23.6,30.44,NW,311,0.0,0.0,59,0.00,,---,0.00,VWS V14.00,2013-03-14 03:01:00,
2013-03-13 22:02:00,36.6,23.6,30.44,NW,311,0.0,0.0,59,0.00,,---,0.00,VWS V14.00,2013-03-14 03:02:00,
2013-03-13 22:03:00,36.6,23.6,30.44,NW,311,0.0,0.0,59,0.00,,---,0.00,VWS V14.00,2013-03-14 03:03:00,
2013-03-13 22:04:00,36.5,24.0,30.44,NW,311,0.0,0.0,60,0.00,,---,0.00,VWS V14.00,2013-03-14 03:04:00,
2013-03-13 22:05:00,36.5,24.0,30.44,NW,311,0.0,0.0,60,0.00,,---,0.00,VWS V14.00,2013-03-14 03:05:00,
2013-03-13 22:06:00,36.5,24.0,30.44,NW,311,0.0,0.0,60,0.00,,---,0.00,VWS V14.00,2013-03-14 03:06:00,
2013-03-13 22:07:00,36.5,24.0,30.44,NW,311,0.0,0.0,60,0.00,,---,0.00,VWS V14.00,2013-03-14 03:07:00,
2013-03-13 22:08:00,36.5,24.0,30.44,NW,311,0.0,0.0,60,0.00,,---,0.00,VWS V14.00,2013-03-14 03:08:00,
2013-03-13 22:09:00,36.5,24.0,30.44,NW,311,0.0,0.0,60,0.00,,---,0.00,VWS V14.00,2013-03-14 03:09:00,
2013-03-13 22:10:00,36.5,24.0,30.44,NW,311,0.0,0.0,60,0.00,,---,0.00,VWS V14.00,2013-03-14 03:10:00,
2013-03-13 22:11:00,36.5,24.0,30.44,NW,311,0.0,0.0,60,0.00,,---,0.00,VWS V14.00,2013-03-14 03:11:00,
2013-03-13 22:12:00,36.5,24.0,30.44,NW,311,0.0,0.0,60,0.00,,---,0.00,VWS V14.00,2013-03-14 03:12:00,
2013-03-13 22:13:00,36.3,23.8,30.44,NW,311,0.0,0.0,60,0.00,,---,0.00,VWS V14.00,2013-03-14 03:13:00,
2013-03-13 22:14:00,36.3,23.8,30.44,NW,311,0.0,0.0,60,0.00,,---,0.00,VWS V14.00,2013-03-14 03:14:00,
2013-03-13 22:15:00,36.3,23.8,30.44,NW,311,0.0,0.0,60,0.00,,---,0.00,VWS V14.00,2013-03-14 03:15:00,
2013-03-13 22:16:00,36.3,23.8,30.44,NW,311,0.0,0.0,60,0.00,,---,0.00,VWS V14.00,2013-03-14 03:16:00,
2013-03-13 22:17:00,36.2,23.7,30.44,NW,311,0.0,0.0,60,0.00,,---,0.00,VWS V14.00,2013-03-14 03:17:00,
2013-03-13 22:18:00,36.2,24.1,30.44,NW,311,0.0,0.0,61,0.00,,---,0.00,VWS V14.00,2013-03-14 03:18:00,
2013-03-13 22:19:00,36.0,23.9,30.44,NW,311,0.0,0.0,61,0.00,,---,0.00,VWS V14.00,2013-03-14 03:19:00,
2013-03-13 22:20:00,36.2,24.1,30.44,NW,311,0.0,0.0,61,0.00,,---,0.00,VWS V14.00,2013-03-14 03:20:00,
2013-03-13 22:21:00,36.0,23.9,30.44,NW,311,0.0,0.0,61,0.00,,---,0.00,VWS V14.00,2013-03-14 03:21:00,
2013-03-13 22:22:00,36.0,23.9,30.44,NW,311,0.0,0.0,61,0.00,,---,0.00,VWS V14.00,2013-03-14 03:22:00,
2013-03-13 22:23:00,35.9,24.2,30.44,NW,311,0.0,0.0,62,0.00,,---,0.00,VWS V14.00,2013-03-14 03:23:00,
2013-03-13 22:24:00,35.9,24.2,30.45,NW,311,0.0,0.0,62,0.00,,---,0.00,VWS V14.00,2013-03-14 03:24:00,
2013-03-13 22:25:00,35.9,24.2,30.44,NW,311,0.0,0.0,62,0.00,,---,0.00,VWS V14.00,2013-03-14 03:25:00,
2013-03-13 22:26:00,35.9,24.2,30.45,NW,311,0.0,0.0,62,0.00,,---,0.00,VWS V14.00,2013-03-14 03:26:00,
2013-03-13 22:27:00,35.8,24.1,30.45,NW,311,0.0,0.0,62,0.00,,---,0.00,VWS V14.00,2013-03-14 03:27:00,
2013-03-13 22:28:00,35.8,24.5,30.45,NW,311,0.0,0.0,63,0.00,,---,0.00,VWS V14.00,2013-03-14 03:28:00,
2013-03-13 22:29:00,35.6,24.3,30.45,NW,311,0.0,0.0,63,0.00,,---,0.00,VWS V14.00,2013-03-14 03:29:00,
2013-03-13 22:30:00,35.6,24.3,30.45,NW,311,0.0,0.0,63,0.00,,---,0.00,VWS V14.00,2013-03-14 03:30:00,
2013-03-13 22:31:00,35.6,24.3,30.45,NW,311,0.0,0.0,63,0.00,,---,0.00,VWS V14.00,2013-03-14 03:31:00,
2013-03-13 22:32:00,35.6,24.3,30.45,NW,311,0.0,0.0,63,0.00,,---,0.00,VWS V14.00,2013-03-14 03:32:00,
2013-03-13 22:33:00,35.5,24.2,30.45,NW,311,0.0,0.0,63,0.00,,---,0.00,VWS V14.00,2013-03-14 03:33:00,
2013-03-13 22:34:00,35.3,24.4,30.45,NW,311,0.0,0.0,64,0.00,,---,0.00,VWS V14.00,2013-03-14 03:34:00,
2013-03-13 22:35:00,35.3,24.4,30.45,NW,311,0.0,0.0,64,0.00,,---,0.00,VWS V14.00,2013-03-14 03:35:00,
2013-03-13 22:36:00,35.3,24.4,30.45,NW,311,0.0,0.0,64,0.00,,---,0.00,VWS V14.00,2013-03-14 03:36:00,
2013-03-13 22:37:00,35.3,24.4,30.45,NW,311,0.0,0.0,64,0.00,,---,0.00,VWS V14.00,2013-03-14 03:37:00,
2013-03-13 22:38:00,35.2,24.3,30.45,NW,311,0.0,0.0,64,0.00,,---,0.00,VWS V14.00,2013-03-14 03:38:00,
2013-03-13 22:39:00,35.0,24.4,30.45,NW,311,0.0,0.0,65,0.00,,---,0.00,VWS V14.00,2013-03-14 03:39:00,
2013-03-13 22:40:00,35.0,24.4,30.45,NW,311,0.0,1.0,65,0.00,,---,0.00,VWS V14.00,2013-03-14 03:40:00,
2013-03-13 22:41:00,35.0,24.4,30.45,NW,311,0.0,0.0,65,0.00,,---,0.00,VWS V14.00,2013-03-14 03:41:00,
2013-03-13 22:42:00,35.0,24.4,30.45,NW,311,0.0,0.0,65,0.00,,---,0.00,VWS V14.00,2013-03-14 03:42:00,
2013-03-13 22:43:00,35.0,24.4,30.45,NW,311,0.0,0.0,65,0.00,,---,0.00,VWS V14.00,2013-03-14 03:43:00,
2013-03-13 22:44:00,34.9,24.7,30.45,NW,311,0.0,0.0,66,0.00,,---,0.00,VWS V14.00,2013-03-14 03:44:00,
2013-03-13 22:45:00,34.9,24.3,30.45,NW,312,0.0,0.0,65,0.00,,---,0.00,VWS V14.00,2013-03-14 03:45:00,
2013-03-13 22:46:00,34.9,24.7,30.45,NW,311,0.0,0.0,66,0.00,,---,0.00,VWS V14.00,2013-03-14 03:46:00,
2013-03-13 22:47:00,34.9,24.7,30.45,NW,311,0.0,0.0,66,0.00,,---,0.00,VWS V14.00,2013-03-14 03:47:00,
2013-03-13 22:48:00,34.9,24.7,30.45,NW,311,0.0,0.0,66,0.00,,---,0.00,VWS V14.00,2013-03-14 03:48:00,
2013-03-13 22:49:00,34.9,25.1,30.45,NW,311,0.0,0.0,67,0.00,,---,0.00,VWS V14.00,2013-03-14 03:49:00,
2013-03-13 22:50:00,34.9,25.1,30.45,NW,311,0.0,0.0,67,0.00,,---,0.00,VWS V14.00,2013-03-14 03:50:00,
2013-03-13 22:51:00,34.9,25.1,30.45,NW,311,0.0,0.0,67,0.00,,---,0.00,VWS V14.00,2013-03-14 03:51:00,
2013-03-13 22:52:00,34.9,25.1,30.45,NW,311,0.0,0.0,67,0.00,,---,0.00,VWS V14.00,2013-03-14 03:52:00,
2013-03-13 22:53:00,34.9,25.1,30.45,NW,311,0.0,0.0,67,0.00,,---,0.00,VWS V14.00,2013-03-14 03:53:00,
2013-03-13 22:54:00,34.9,25.1,30.45,NW,311,0.0,0.0,67,0.00,,---,0.00,VWS V14.00,2013-03-14 03:54:00,
2013-03-13 22:55:00,34.9,25.1,30.45,NW,311,0.0,0.0,67,0.00,,---,0.00,VWS V14.00,2013-03-14 03:55:00,
2013-03-13 22:56:00,34.9,25.1,30.45,NW,311,0.0,0.0,67,0.00,,---,0.00,VWS V14.00,2013-03-14 03:56:00,
2013-03-13 22:57:00,34.9,25.1,30.45,NW,312,0.0,0.0,67,0.00,,---,0.00,VWS V14.00,2013-03-14 03:57:00,
2013-03-13 22:58:00,34.7,24.9,30.45,NW,311,0.0,0.0,67,0.00,,---,0.00,VWS V14.00,2013-03-14 03:58:00,
2013-03-13 22:59:00,34.7,24.9,30.45,NW,311,0.0,0.0,67,0.00,,---,0.00,VWS V14.00,2013-03-14 03:59:00,
2013-03-13 23:00:00,34.7,24.9,30.45,NW,311,0.0,0.0,67,0.00,,---,0.00,VWS V14.00,2013-03-14 04:00:00,
2013-03-13 23:01:00,34.7,24.9,30.45,NW,311,0.0,0.0,67,0.00,,---,0.00,VWS V14.00,2013-03-14 04:01:00,
2013-03-13 23:02:00,34.6,24.8,30.45,NW,311,0.0,0.0,67,0.00,,---,0.00,VWS V14.00,2013-03-14 04:02:00,
2013-03-13 23:03:00,34.6,24.8,30.45,NW,311,0.0,0.0,67,0.00,,---,0.00,VWS V14.00,2013-03-14 04:03:00,
2013-03-13 23:04:00,34.6,24.8,30.44,NW,311,0.0,0.0,67,0.00,,---,0.00,VWS V14.00,2013-03-14 04:04:00,
2013-03-13 23:05:00,34.4,24.6,30.45,NW,311,0.0,0.0,67,0.00,,---,0.00,VWS V14.00,2013-03-14 04:05:00,
2013-03-13 23:06:00,34.4,24.6,30.45,NW,311,0.0,0.0,67,0.00,,---,0.00,VWS V14.00,2013-03-14 04:06:00,
2013-03-13 23:07:00,34.4,24.6,30.45,NW,311,0.0,0.0,67,0.00,,---,0.00,VWS V14.00,2013-03-14 04:07:00,
2013-03-13 23:08:00,34.3,24.5,30.45,NW,311,0.0,0.0,67,0.00,,---,0.00,VWS V14.00,2013-03-14 04:08:00,
2013-03-13 23:09:00,34.3,24.5,30.45,NW,311,0.0,0.0,67,0.00,,---,0.00,VWS V14.00,2013-03-14 04:09:00,
2013-03-13 23:10:00,34.3,24.5,30.44,NW,311,0.0,0.0,67,0.00,,---,0.00,VWS V14.00,2013-03-14 04:10:00,
2013-03-13 23:11:00,34.3,24.5,30.45,NW,311,0.0,0.0,67,0.00,,---,0.00,VWS V14.00,2013-03-14 04:11:00,
2013-03-13 23:12:00,34.3,24.5,30.44,NW,311,0.0,0.0,67,0.00,,---,0.00,VWS V14.00,2013-03-14 04:12:00,
2013-03-13 23:13:00,34.1,24.3,30.44,NW,311,0.0,0.0,67,0.00,,---,0.00,VWS V14.00,2013-03-14 04:13:00,
2013-03-13 23:14:00,34.1,24.3,30.44,NW,311,0.0,0.0,67,0.00,,---,0.00,VWS V14.00,2013-03-14 04:14:00,
2013-03-13 23:15:00,34.0,24.2,30.44,NW,311,2.0,2.0,67,0.00,,---,0.00,VWS V14.00,2013-03-14 04:15:00,
2013-03-13 23:16:00,34.0,24.2,30.44,NW,311,0.0,0.0,67,0.00,,---,0.00,VWS V14.00,2013-03-14 04:16:00,
2013-03-13 23:17:00,34.0,24.6,30.44,NW,311,0.0,2.0,68,0.00,,---,0.00,VWS V14.00,2013-03-14 04:17:00,
2013-03-13 23:18:00,34.0,24.6,30.44,NW,311,0.0,0.0,68,0.00,,---,0.00,VWS V14.00,2013-03-14 04:18:00,
2013-03-13 23:19:00,34.0,24.6,30.44,NW,311,0.0,0.0,68,0.00,,---,0.00,VWS V14.00,2013-03-14 04:19:00,
2013-03-13 23:20:00,33.8,24.0,30.44,NW,311,0.0,0.0,67,0.00,,---,0.00,VWS V14.00,2013-03-14 04:20:00,
2013-03-13 23:21:00,33.8,24.0,30.44,NW,311,0.0,0.0,67,0.00,,---,0.00,VWS V14.00,2013-03-14 04:21:00,
2013-03-13 23:22:00,33.8,24.0,30.44,NW,311,0.0,0.0,67,0.00,,---,0.00,VWS V14.00,2013-03-14 04:22:00,
2013-03-13 23:23:00,33.8,24.0,30.44,NW,311,0.0,1.0,67,0.00,,---,0.00,VWS V14.00,2013-03-14 04:23:00,
2013-03-13 23:24:00,33.8,24.0,30.44,NW,311,0.0,1.0,67,0.00,,---,0.00,VWS V14.00,2013-03-14 04:24:00,
2013-03-13 23:25:00,33.8,24.4,30.44,NW,311,0.0,0.0,68,0.00,,---,0.00,VWS V14.00,2013-03-14 04:25:00,
2013-03-13 23:26:00,33.8,24.0,30.44,NW,311,0.0,0.0,67,0.00,,---,0.00,VWS V14.00,2013-03-14 04:26:00,
2013-03-13 23:27:00,33.8,24.4,30.44,NW,311,0.0,0.0,68,0.00,,---,0.00,VWS V14.00,2013-03-14 04:27:00,
2013-03-13 23:28:00,33.7,24.3,30.44,NW,311,0.0,0.0,68,0.00,,---,0.00,VWS V14.00,2013-03-14 04:28:00,
2013-03-13 23:29:00,33.7,24.3,30.45,NW,311,0.0,0.0,68,0.00,,---,0.00,VWS V14.00,2013-03-14 04:29:00,
2013-03-13 23:30:00,33.7,24.3,30.45,NW,311,0.0,0.0,68,0.00,,---,0.00,VWS V14.00,2013-03-14 04:30:00,
2013-03-13 23:31:00,33.7,24.3,30.45,NW,311,0.0,0.0,68,0.00,,---,0.00,VWS V14.00,2013-03-14 04:31:00,
2013-03-13 23:32:00,33.7,24.3,30.45,NW,311,0.0,0.0,68,0.00,,---,0.00,VWS V14.00,2013-03-14 04:32:00,
2013-03-13 23:33:00,33.7,24.3,30.44,NW,311,0.0,0.0,68,0.00,,---,0.00,VWS V14.00,2013-03-14 04:33:00,
2013-03-13 23:34:00,33.5,24.1,30.44,NW,311,0.0,0.0,68,0.00,,---,0.00,VWS V14.00,2013-03-14 04:34:00,
2013-03-13 23:35:00,33.4,24.3,30.45,NW,311,0.0,0.0,69,0.00,,---,0.00,VWS V14.00,2013-03-14 04:35:00,
2013-03-13 23:36:00,33.5,24.4,30.45,NW,311,0.0,0.0,69,0.00,,---,0.00,VWS V14.00,2013-03-14 04:36:00,
2013-03-13 23:37:00,33.4,24.3,30.45,NW,311,0.0,0.0,69,0.00,,---,0.00,VWS V14.00,2013-03-14 04:37:00,
2013-03-13 23:38:00,33.4,24.3,30.45,NW,311,0.0,0.0,69,0.00,,---,0.00,VWS V14.00,2013-03-14 04:38:00,
2013-03-13 23:39:00,33.4,24.3,30.45,NW,311,0.0,0.0,69,0.00,,---,0.00,VWS V14.00,2013-03-14 04:39:00,
2013-03-13 23:40:00,33.2,24.1,30.45,NW,311,0.0,0.0,69,0.00,,---,0.00,VWS V14.00,2013-03-14 04:40:00,
2013-03-13 23:41:00,33.2,24.1,30.45,NW,311,0.0,2.0,69,0.00,,---,0.00,VWS V14.00,2013-03-14 04:41:00,
2013-03-13 23:42:00,33.1,24.0,30.45,NW,311,0.0,0.0,69,0.00,,---,0.00,VWS V14.00,2013-03-14 04:42:00,
2013-03-13 23:43:00,33.1,24.4,30.45,NW,311,0.0,0.0,70,0.00,,---,0.00,VWS V14.00,2013-03-14 04:43:00,
2013-03-13 23:44:00,33.1,24.4,30.45,NW,311,0.0,0.0,70,0.00,,---,0.00,VWS V14.00,2013-03-14 04:44:00,
2013-03-13 23:45:00,33.1,24.4,30.44,NW,311,0.0,0.0,70,0.00,,---,0.00,VWS V14.00,2013-03-14 04:45:00,
2013-03-13 23:46:00,33.1,24.4,30.45,NW,311,0.0,0.0,70,0.00,,---,0.00,VWS V14.00,2013-03-14 04:46:00,
2013-03-13 23:47:00,33.1,24.7,30.44,NW,311,1.0,1.0,71,0.00,,---,0.00,VWS V14.00,2013-03-14 04:47:00,
2013-03-13 23:48:00,33.1,24.7,30.44,NW,311,0.0,2.0,71,0.00,,---,0.00,VWS V14.00,2013-03-14 04:48:00,
2013-03-13 23:49:00,33.1,24.7,30.44,NW,311,0.0,0.0,71,0.00,,---,0.00,VWS V14.00,2013-03-14 04:49:00,
2013-03-13 23:50:00,32.9,24.9,30.44,NW,311,0.0,0.0,72,0.00,,---,0.00,VWS V14.00,2013-03-14 04:50:00,
2013-03-13 23:51:00,32.9,24.9,30.44,NW,311,0.0,3.0,72,0.00,,---,0.00,VWS V14.00,2013-03-14 04:51:00,
2013-03-13 23:52:00,32.9,24.9,30.44,NW,311,0.0,0.0,72,0.00,,---,0.00,VWS V14.00,2013-03-14 04:52:00,
2013-03-13 23:53:00,33.1,25.1,30.44,NW,311,0.0,0.0,72,0.00,,---,0.00,VWS V14.00,2013-03-14 04:53:00,
2013-03-13 23:54:00,32.9,24.9,30.44,NW,311,0.0,0.0,72,0.00,,---,0.00,VWS V14.00,2013-03-14 04:54:00,
2013-03-13 23:55:00,32.9,24.9,30.44,NW,311,0.0,0.0,72,0.00,,---,0.00,VWS V14.00,2013-03-14 04:55:00,
2013-03-13 23:56:00,32.9,24.9,30.44,NW,311,0.0,0.0,72,0.00,,---,0.00,VWS V14.00,2013-03-14 04:56:00,
2013-03-13 23:57:00,32.9,24.9,30.44,NW,311,0.0,0.0,72,0.00,,---,0.00,VWS V14.00,2013-03-14 04:57:00,
2013-03-13 23:58:00,32.9,24.9,30.44,NW,311,0.0,0.0,72,0.00,,---,0.00,VWS V14.00,2013-03-14 04:58:00,
2013-03-13 23:59:00,32.9,24.9,30.44,NW,311,0.0,0.0,72,0.00,,---,0.00,VWS V14.00,2013-03-14 04:59:00,